<?xml version="1.0" encoding="UTF-8" standalone="no" ?>
<gpx xmlns="http://www.topografix.com/GPX/1/1" xmlns:xsi="http://www.w3.org/2001/XMLSchema-instance" xsi:schemaLocation="http://www.topografix.com/GPX/1/1 http://www.topografix.com/GPX/1/1/gpx.xsd" version="1.1" creator="VisuGPX - https://www.visugpx.com">
  <metadata>
    <name>Siaugues Sainte Marie 29km</name>
    <desc><![CDATA[fait le 29/09/2024 au départ du Relais de la Garde]]></desc>
  </metadata>
  <trk>
    <name><![CDATA[2024-09-29 15:14:50]]></name>
    <desc><![CDATA[

]]></desc>
    <extensions>
      <line xmlns="http://www.topografix.com/GPX/gpx_style/0/2">
        <color>ff0026</color>
        <width>4</width>
      </line>
    </extensions>
    <trkseg>
      <trkpt lat="45.09698" lon="3.6185">
        <ele>877.82</ele>
        <time>2024-09-29T16:14:22Z</time>
        <extensions>
          <visugpx:TrkExtension xmlns:visugpx="https://www.visugpx.com/editgpx/">
            <visugpx:node>7</visugpx:node>
            </visugpx:TrkExtension>
        </extensions>
      </trkpt>
      <trkpt lat="45.09698" lon="3.61851">
        <ele>877.82</ele>
        <time>2024-09-29T16:13:59Z</time>
      </trkpt>
      <trkpt lat="45.097" lon="3.6185">
        <ele>876.38</ele>
        <time>2024-09-29T16:13:40Z</time>
      </trkpt>
      <trkpt lat="45.097" lon="3.6185">
        <ele>877.34</ele>
        <time>2024-09-29T16:13:22Z</time>
      </trkpt>
      <trkpt lat="45.09698" lon="3.61848">
        <ele>878.78</ele>
        <time>2024-09-29T16:13:04Z</time>
      </trkpt>
      <trkpt lat="45.09698" lon="3.61842">
        <ele>877.34</ele>
        <time>2024-09-29T16:12:50Z</time>
      </trkpt>
      <trkpt lat="45.097" lon="3.61844">
        <ele>877.34</ele>
        <time>2024-09-29T16:12:35Z</time>
      </trkpt>
      <trkpt lat="45.09699" lon="3.61847">
        <ele>876.38</ele>
        <time>2024-09-29T16:12:21Z</time>
      </trkpt>
      <trkpt lat="45.097" lon="3.6185">
        <ele>876.38</ele>
        <time>2024-09-29T16:12:08Z</time>
      </trkpt>
      <trkpt lat="45.097" lon="3.61847">
        <ele>877.34</ele>
        <time>2024-09-29T16:11:54Z</time>
      </trkpt>
      <trkpt lat="45.09699" lon="3.61841">
        <ele>877.82</ele>
        <time>2024-09-29T16:11:41Z</time>
      </trkpt>
      <trkpt lat="45.097" lon="3.61844">
        <ele>877.82</ele>
        <time>2024-09-29T16:11:23Z</time>
      </trkpt>
      <trkpt lat="45.097" lon="3.61849">
        <ele>874.94</ele>
        <time>2024-09-29T16:11:06Z</time>
      </trkpt>
      <trkpt lat="45.09698" lon="3.61851">
        <ele>875.9</ele>
        <time>2024-09-29T16:10:47Z</time>
      </trkpt>
      <trkpt lat="45.09698" lon="3.61852">
        <ele>876.86</ele>
        <time>2024-09-29T16:10:30Z</time>
      </trkpt>
      <trkpt lat="45.09698" lon="3.61853">
        <ele>877.82</ele>
        <time>2024-09-29T16:10:09Z</time>
      </trkpt>
      <trkpt lat="45.09698" lon="3.61856">
        <ele>876.86</ele>
        <time>2024-09-29T16:09:54Z</time>
      </trkpt>
      <trkpt lat="45.09699" lon="3.61852">
        <ele>876.86</ele>
        <time>2024-09-29T16:09:42Z</time>
      </trkpt>
      <trkpt lat="45.09701" lon="3.6185">
        <ele>877.82</ele>
        <time>2024-09-29T16:09:25Z</time>
      </trkpt>
      <trkpt lat="45.097" lon="3.6185">
        <ele>877.82</ele>
        <time>2024-09-29T16:09:11Z</time>
      </trkpt>
      <trkpt lat="45.09701" lon="3.61844">
        <ele>877.82</ele>
        <time>2024-09-29T16:09:00Z</time>
      </trkpt>
      <trkpt lat="45.097" lon="3.61851">
        <ele>879.74</ele>
        <time>2024-09-29T16:08:45Z</time>
      </trkpt>
      <trkpt lat="45.09699" lon="3.61855">
        <ele>877.34</ele>
        <time>2024-09-29T16:08:28Z</time>
      </trkpt>
      <trkpt lat="45.09698" lon="3.61851">
        <ele>876.86</ele>
        <time>2024-09-29T16:08:14Z</time>
      </trkpt>
      <trkpt lat="45.09698" lon="3.61849">
        <ele>876.38</ele>
        <time>2024-09-29T16:07:59Z</time>
      </trkpt>
      <trkpt lat="45.09701" lon="3.61847">
        <ele>878.3</ele>
        <time>2024-09-29T16:07:38Z</time>
      </trkpt>
      <trkpt lat="45.09702" lon="3.61844">
        <ele>877.34</ele>
        <time>2024-09-29T16:07:20Z</time>
      </trkpt>
      <trkpt lat="45.09701" lon="3.61848">
        <ele>876.38</ele>
        <time>2024-09-29T16:06:59Z</time>
      </trkpt>
      <trkpt lat="45.09699" lon="3.6185">
        <ele>877.34</ele>
        <time>2024-09-29T16:06:42Z</time>
      </trkpt>
      <trkpt lat="45.09697" lon="3.61851">
        <ele>876.38</ele>
        <time>2024-09-29T16:06:24Z</time>
      </trkpt>
      <trkpt lat="45.09698" lon="3.61848">
        <ele>876.86</ele>
        <time>2024-09-29T16:06:08Z</time>
      </trkpt>
      <trkpt lat="45.097" lon="3.61843">
        <ele>875.9</ele>
        <time>2024-09-29T16:05:54Z</time>
      </trkpt>
      <trkpt lat="45.09699" lon="3.61847">
        <ele>877.34</ele>
        <time>2024-09-29T16:05:31Z</time>
      </trkpt>
      <trkpt lat="45.09699" lon="3.61847">
        <ele>875.42</ele>
        <time>2024-09-29T16:05:14Z</time>
      </trkpt>
      <trkpt lat="45.09699" lon="3.61846">
        <ele>875.9</ele>
        <time>2024-09-29T16:04:58Z</time>
      </trkpt>
      <trkpt lat="45.09701" lon="3.61847">
        <ele>876.38</ele>
        <time>2024-09-29T16:04:36Z</time>
      </trkpt>
      <trkpt lat="45.09702" lon="3.61841">
        <ele>877.34</ele>
        <time>2024-09-29T16:04:21Z</time>
      </trkpt>
      <trkpt lat="45.09702" lon="3.61835">
        <ele>876.38</ele>
        <time>2024-09-29T16:04:06Z</time>
      </trkpt>
      <trkpt lat="45.09703" lon="3.61827">
        <ele>875.9</ele>
        <time>2024-09-29T16:03:52Z</time>
      </trkpt>
      <trkpt lat="45.09705" lon="3.61822">
        <ele>876.38</ele>
        <time>2024-09-29T16:03:48Z</time>
      </trkpt>
      <trkpt lat="45.09707" lon="3.61822">
        <ele>876.38</ele>
        <time>2024-09-29T16:03:46Z</time>
      </trkpt>
      <trkpt lat="45.09727" lon="3.61846">
        <ele>877.34</ele>
        <time>2024-09-29T16:03:28Z</time>
      </trkpt>
      <trkpt lat="45.09742" lon="3.61868">
        <ele>876.86</ele>
        <time>2024-09-29T16:03:11Z</time>
      </trkpt>
      <trkpt lat="45.09739" lon="3.61897">
        <ele>877.82</ele>
        <time>2024-09-29T16:02:56Z</time>
      </trkpt>
      <trkpt lat="45.09766" lon="3.61909">
        <ele>875.9</ele>
        <time>2024-09-29T16:02:36Z</time>
      </trkpt>
      <trkpt lat="45.09797" lon="3.61927">
        <ele>878.78</ele>
        <time>2024-09-29T16:02:14Z</time>
      </trkpt>
      <trkpt lat="45.09831" lon="3.61951">
        <ele>880.22</ele>
        <time>2024-09-29T16:01:49Z</time>
      </trkpt>
      <trkpt lat="45.0986" lon="3.61978">
        <ele>881.19</ele>
        <time>2024-09-29T16:01:26Z</time>
      </trkpt>
      <trkpt lat="45.09879" lon="3.61998">
        <ele>882.63</ele>
        <time>2024-09-29T16:01:13Z</time>
      </trkpt>
      <trkpt lat="45.09893" lon="3.62011">
        <ele>882.15</ele>
        <time>2024-09-29T16:01:03Z</time>
      </trkpt>
      <trkpt lat="45.09922" lon="3.62032">
        <ele>882.15</ele>
        <time>2024-09-29T16:00:42Z</time>
      </trkpt>
      <trkpt lat="45.09945" lon="3.62057">
        <ele>879.74</ele>
        <time>2024-09-29T16:00:30Z</time>
      </trkpt>
      <trkpt lat="45.09994" lon="3.62099">
        <ele>878.3</ele>
        <time>2024-09-29T16:00:17Z</time>
      </trkpt>
      <trkpt lat="45.09998" lon="3.62103">
        <ele>878.78</ele>
        <time>2024-09-29T16:00:16Z</time>
      </trkpt>
      <trkpt lat="45.10002" lon="3.62107">
        <ele>878.78</ele>
        <time>2024-09-29T16:00:15Z</time>
      </trkpt>
      <trkpt lat="45.10005" lon="3.6211">
        <ele>879.26</ele>
        <time>2024-09-29T16:00:14Z</time>
      </trkpt>
      <trkpt lat="45.10009" lon="3.62114">
        <ele>879.26</ele>
        <time>2024-09-29T16:00:13Z</time>
      </trkpt>
      <trkpt lat="45.10024" lon="3.62144">
        <ele>879.26</ele>
        <time>2024-09-29T16:00:08Z</time>
      </trkpt>
      <trkpt lat="45.10026" lon="3.62151">
        <ele>879.26</ele>
        <time>2024-09-29T16:00:07Z</time>
      </trkpt>
      <trkpt lat="45.10029" lon="3.62157">
        <ele>879.26</ele>
        <time>2024-09-29T16:00:06Z</time>
      </trkpt>
      <trkpt lat="45.10032" lon="3.62162">
        <ele>879.26</ele>
        <time>2024-09-29T16:00:05Z</time>
      </trkpt>
      <trkpt lat="45.10036" lon="3.62167">
        <ele>879.26</ele>
        <time>2024-09-29T16:00:04Z</time>
      </trkpt>
      <trkpt lat="45.1004" lon="3.62171">
        <ele>879.26</ele>
        <time>2024-09-29T16:00:03Z</time>
      </trkpt>
      <trkpt lat="45.10045" lon="3.62174">
        <ele>878.78</ele>
        <time>2024-09-29T16:00:02Z</time>
      </trkpt>
      <trkpt lat="45.1005" lon="3.62176">
        <ele>878.78</ele>
        <time>2024-09-29T16:00:01Z</time>
      </trkpt>
      <trkpt lat="45.10069" lon="3.6218">
        <ele>878.78</ele>
        <time>2024-09-29T15:59:57Z</time>
      </trkpt>
      <trkpt lat="45.10073" lon="3.6218">
        <ele>879.26</ele>
        <time>2024-09-29T15:59:56Z</time>
      </trkpt>
      <trkpt lat="45.10078" lon="3.6218">
        <ele>879.26</ele>
        <time>2024-09-29T15:59:55Z</time>
      </trkpt>
      <trkpt lat="45.10083" lon="3.62181">
        <ele>879.26</ele>
        <time>2024-09-29T15:59:54Z</time>
      </trkpt>
      <trkpt lat="45.10088" lon="3.62183">
        <ele>879.26</ele>
        <time>2024-09-29T15:59:53Z</time>
      </trkpt>
      <trkpt lat="45.10092" lon="3.62186">
        <ele>879.26</ele>
        <time>2024-09-29T15:59:52Z</time>
      </trkpt>
      <trkpt lat="45.10095" lon="3.6219">
        <ele>879.26</ele>
        <time>2024-09-29T15:59:51Z</time>
      </trkpt>
      <trkpt lat="45.10099" lon="3.62195">
        <ele>879.74</ele>
        <time>2024-09-29T15:59:50Z</time>
      </trkpt>
      <trkpt lat="45.1012" lon="3.62235">
        <ele>882.63</ele>
        <time>2024-09-29T15:59:43Z</time>
      </trkpt>
      <trkpt lat="45.10154" lon="3.6233">
        <ele>886.95</ele>
        <time>2024-09-29T15:59:28Z</time>
      </trkpt>
      <trkpt lat="45.10171" lon="3.62391">
        <ele>886.95</ele>
        <time>2024-09-29T15:59:18Z</time>
      </trkpt>
      <trkpt lat="45.1021" lon="3.62463">
        <ele>887.43</ele>
        <time>2024-09-29T15:59:04Z</time>
      </trkpt>
      <trkpt lat="45.10213" lon="3.62468">
        <ele>887.43</ele>
        <time>2024-09-29T15:59:03Z</time>
      </trkpt>
      <trkpt lat="45.10232" lon="3.62505">
        <ele>888.4</ele>
        <time>2024-09-29T15:58:56Z</time>
      </trkpt>
      <trkpt lat="45.10235" lon="3.62511">
        <ele>888.4</ele>
        <time>2024-09-29T15:58:55Z</time>
      </trkpt>
      <trkpt lat="45.10238" lon="3.62517">
        <ele>888.4</ele>
        <time>2024-09-29T15:58:54Z</time>
      </trkpt>
      <trkpt lat="45.10242" lon="3.62523">
        <ele>888.4</ele>
        <time>2024-09-29T15:58:53Z</time>
      </trkpt>
      <trkpt lat="45.10244" lon="3.62529">
        <ele>888.4</ele>
        <time>2024-09-29T15:58:52Z</time>
      </trkpt>
      <trkpt lat="45.10244" lon="3.62536">
        <ele>888.4</ele>
        <time>2024-09-29T15:58:51Z</time>
      </trkpt>
      <trkpt lat="45.10243" lon="3.62542">
        <ele>887.91</ele>
        <time>2024-09-29T15:58:50Z</time>
      </trkpt>
      <trkpt lat="45.10209" lon="3.62612">
        <ele>889.84</ele>
        <time>2024-09-29T15:58:38Z</time>
      </trkpt>
      <trkpt lat="45.10207" lon="3.62618">
        <ele>889.84</ele>
        <time>2024-09-29T15:58:37Z</time>
      </trkpt>
      <trkpt lat="45.10204" lon="3.62624">
        <ele>890.32</ele>
        <time>2024-09-29T15:58:36Z</time>
      </trkpt>
      <trkpt lat="45.10201" lon="3.62629">
        <ele>890.32</ele>
        <time>2024-09-29T15:58:35Z</time>
      </trkpt>
      <trkpt lat="45.10197" lon="3.62634">
        <ele>890.8</ele>
        <time>2024-09-29T15:58:34Z</time>
      </trkpt>
      <trkpt lat="45.10193" lon="3.62638">
        <ele>890.8</ele>
        <time>2024-09-29T15:58:33Z</time>
      </trkpt>
      <trkpt lat="45.1018" lon="3.62648">
        <ele>891.28</ele>
        <time>2024-09-29T15:58:30Z</time>
      </trkpt>
      <trkpt lat="45.10176" lon="3.6265">
        <ele>891.76</ele>
        <time>2024-09-29T15:58:29Z</time>
      </trkpt>
      <trkpt lat="45.10171" lon="3.62653">
        <ele>891.76</ele>
        <time>2024-09-29T15:58:28Z</time>
      </trkpt>
      <trkpt lat="45.10167" lon="3.62657">
        <ele>892.24</ele>
        <time>2024-09-29T15:58:27Z</time>
      </trkpt>
      <trkpt lat="45.10164" lon="3.62662">
        <ele>892.72</ele>
        <time>2024-09-29T15:58:26Z</time>
      </trkpt>
      <trkpt lat="45.10151" lon="3.627">
        <ele>894.64</ele>
        <time>2024-09-29T15:58:20Z</time>
      </trkpt>
      <trkpt lat="45.10128" lon="3.62785">
        <ele>897.53</ele>
        <time>2024-09-29T15:58:06Z</time>
      </trkpt>
      <trkpt lat="45.10105" lon="3.62868">
        <ele>900.41</ele>
        <time>2024-09-29T15:57:53Z</time>
      </trkpt>
      <trkpt lat="45.10065" lon="3.62962">
        <ele>900.89</ele>
        <time>2024-09-29T15:57:37Z</time>
      </trkpt>
      <trkpt lat="45.10062" lon="3.62969">
        <ele>900.89</ele>
        <time>2024-09-29T15:57:36Z</time>
      </trkpt>
      <trkpt lat="45.10058" lon="3.62975">
        <ele>900.89</ele>
        <time>2024-09-29T15:57:35Z</time>
      </trkpt>
      <trkpt lat="45.10054" lon="3.62981">
        <ele>900.89</ele>
        <time>2024-09-29T15:57:34Z</time>
      </trkpt>
      <trkpt lat="45.10049" lon="3.62985">
        <ele>900.89</ele>
        <time>2024-09-29T15:57:33Z</time>
      </trkpt>
      <trkpt lat="45.10044" lon="3.62989">
        <ele>900.89</ele>
        <time>2024-09-29T15:57:32Z</time>
      </trkpt>
      <trkpt lat="45.10013" lon="3.63003">
        <ele>901.85</ele>
        <time>2024-09-29T15:57:26Z</time>
      </trkpt>
      <trkpt lat="45.09946" lon="3.6302">
        <ele>904.26</ele>
        <time>2024-09-29T15:57:15Z</time>
      </trkpt>
      <trkpt lat="45.09941" lon="3.63022">
        <ele>904.74</ele>
        <time>2024-09-29T15:57:14Z</time>
      </trkpt>
      <trkpt lat="45.09936" lon="3.63024">
        <ele>905.22</ele>
        <time>2024-09-29T15:57:13Z</time>
      </trkpt>
      <trkpt lat="45.0993" lon="3.63026">
        <ele>905.22</ele>
        <time>2024-09-29T15:57:12Z</time>
      </trkpt>
      <trkpt lat="45.09925" lon="3.6303">
        <ele>905.22</ele>
        <time>2024-09-29T15:57:11Z</time>
      </trkpt>
      <trkpt lat="45.09888" lon="3.63076">
        <ele>905.7</ele>
        <time>2024-09-29T15:57:03Z</time>
      </trkpt>
      <trkpt lat="45.09857" lon="3.63115">
        <ele>908.58</ele>
        <time>2024-09-29T15:56:48Z</time>
      </trkpt>
      <trkpt lat="45.09837" lon="3.63139">
        <ele>910.03</ele>
        <time>2024-09-29T15:56:29Z</time>
      </trkpt>
      <trkpt lat="45.09811" lon="3.63167">
        <ele>911.95</ele>
        <time>2024-09-29T15:56:09Z</time>
      </trkpt>
      <trkpt lat="45.09804" lon="3.63199">
        <ele>911.95</ele>
        <time>2024-09-29T15:55:51Z</time>
      </trkpt>
      <trkpt lat="45.09791" lon="3.63249">
        <ele>917.24</ele>
        <time>2024-09-29T15:55:27Z</time>
      </trkpt>
      <trkpt lat="45.09783" lon="3.63285">
        <ele>921.08</ele>
        <time>2024-09-29T15:55:12Z</time>
      </trkpt>
      <trkpt lat="45.09775" lon="3.63326">
        <ele>923.96</ele>
        <time>2024-09-29T15:54:49Z</time>
      </trkpt>
      <trkpt lat="45.09762" lon="3.63338">
        <ele>925.89</ele>
        <time>2024-09-29T15:54:36Z</time>
      </trkpt>
      <trkpt lat="45.09761" lon="3.63339">
        <ele>925.89</ele>
        <time>2024-09-29T15:54:35Z</time>
      </trkpt>
      <trkpt lat="45.09759" lon="3.63339">
        <ele>925.89</ele>
        <time>2024-09-29T15:54:33Z</time>
      </trkpt>
      <trkpt lat="45.09733" lon="3.63332">
        <ele>924.93</ele>
        <time>2024-09-29T15:54:16Z</time>
      </trkpt>
      <trkpt lat="45.09699" lon="3.63317">
        <ele>923.96</ele>
        <time>2024-09-29T15:53:56Z</time>
      </trkpt>
      <trkpt lat="45.09669" lon="3.6331">
        <ele>921.08</ele>
        <time>2024-09-29T15:53:39Z</time>
      </trkpt>
      <trkpt lat="45.09643" lon="3.63304">
        <ele>918.68</ele>
        <time>2024-09-29T15:53:22Z</time>
      </trkpt>
      <trkpt lat="45.09613" lon="3.633">
        <ele>917.72</ele>
        <time>2024-09-29T15:53:05Z</time>
      </trkpt>
      <trkpt lat="45.09587" lon="3.63294">
        <ele>917.72</ele>
        <time>2024-09-29T15:52:48Z</time>
      </trkpt>
      <trkpt lat="45.09558" lon="3.63289">
        <ele>917.24</ele>
        <time>2024-09-29T15:52:30Z</time>
      </trkpt>
      <trkpt lat="45.09532" lon="3.63291">
        <ele>918.68</ele>
        <time>2024-09-29T15:52:14Z</time>
      </trkpt>
      <trkpt lat="45.0953" lon="3.63292">
        <ele>918.68</ele>
        <time>2024-09-29T15:52:13Z</time>
      </trkpt>
      <trkpt lat="45.09529" lon="3.633">
        <ele>919.16</ele>
        <time>2024-09-29T15:52:00Z</time>
      </trkpt>
      <trkpt lat="45.09526" lon="3.633">
        <ele>916.27</ele>
        <time>2024-09-29T15:51:28Z</time>
      </trkpt>
      <trkpt lat="45.09515" lon="3.63305">
        <ele>915.79</ele>
        <time>2024-09-29T15:51:14Z</time>
      </trkpt>
      <trkpt lat="45.09512" lon="3.63307">
        <ele>916.27</ele>
        <time>2024-09-29T15:51:12Z</time>
      </trkpt>
      <trkpt lat="45.0951" lon="3.63308">
        <ele>916.75</ele>
        <time>2024-09-29T15:51:11Z</time>
      </trkpt>
      <trkpt lat="45.09509" lon="3.63309">
        <ele>916.75</ele>
        <time>2024-09-29T15:51:10Z</time>
      </trkpt>
      <trkpt lat="45.09506" lon="3.6331">
        <ele>916.75</ele>
        <time>2024-09-29T15:51:08Z</time>
      </trkpt>
      <trkpt lat="45.09484" lon="3.63307">
        <ele>918.2</ele>
        <time>2024-09-29T15:50:54Z</time>
      </trkpt>
      <trkpt lat="45.09457" lon="3.63307">
        <ele>921.08</ele>
        <time>2024-09-29T15:50:39Z</time>
      </trkpt>
      <trkpt lat="45.09421" lon="3.63307">
        <ele>926.37</ele>
        <time>2024-09-29T15:50:22Z</time>
      </trkpt>
      <trkpt lat="45.094" lon="3.63297">
        <ele>925.41</ele>
        <time>2024-09-29T15:50:06Z</time>
      </trkpt>
      <trkpt lat="45.09376" lon="3.63286">
        <ele>928.29</ele>
        <time>2024-09-29T15:49:48Z</time>
      </trkpt>
      <trkpt lat="45.09355" lon="3.63273">
        <ele>929.25</ele>
        <time>2024-09-29T15:49:30Z</time>
      </trkpt>
      <trkpt lat="45.09329" lon="3.63245">
        <ele>928.77</ele>
        <time>2024-09-29T15:49:09Z</time>
      </trkpt>
      <trkpt lat="45.09303" lon="3.63226">
        <ele>922.52</ele>
        <time>2024-09-29T15:48:52Z</time>
      </trkpt>
      <trkpt lat="45.09297" lon="3.63219">
        <ele>919.64</ele>
        <time>2024-09-29T15:48:46Z</time>
      </trkpt>
      <trkpt lat="45.09273" lon="3.632">
        <ele>917.24</ele>
        <time>2024-09-29T15:48:27Z</time>
      </trkpt>
      <trkpt lat="45.09248" lon="3.63188">
        <ele>918.2</ele>
        <time>2024-09-29T15:48:08Z</time>
      </trkpt>
      <trkpt lat="45.09226" lon="3.63165">
        <ele>924.45</ele>
        <time>2024-09-29T15:47:49Z</time>
      </trkpt>
      <trkpt lat="45.09206" lon="3.63128">
        <ele>930.21</ele>
        <time>2024-09-29T15:47:29Z</time>
      </trkpt>
      <trkpt lat="45.09196" lon="3.63119">
        <ele>931.65</ele>
        <time>2024-09-29T15:47:20Z</time>
      </trkpt>
      <trkpt lat="45.09171" lon="3.63112">
        <ele>932.14</ele>
        <time>2024-09-29T15:47:03Z</time>
      </trkpt>
      <trkpt lat="45.09144" lon="3.63114">
        <ele>932.62</ele>
        <time>2024-09-29T15:46:45Z</time>
      </trkpt>
      <trkpt lat="45.09125" lon="3.63119">
        <ele>932.62</ele>
        <time>2024-09-29T15:46:28Z</time>
      </trkpt>
      <trkpt lat="45.09093" lon="3.63121">
        <ele>936.94</ele>
        <time>2024-09-29T15:46:07Z</time>
      </trkpt>
      <trkpt lat="45.09072" lon="3.63138">
        <ele>943.19</ele>
        <time>2024-09-29T15:45:51Z</time>
      </trkpt>
      <trkpt lat="45.09052" lon="3.63149">
        <ele>949.44</ele>
        <time>2024-09-29T15:45:36Z</time>
      </trkpt>
      <trkpt lat="45.0903" lon="3.63162">
        <ele>960.01</ele>
        <time>2024-09-29T15:45:20Z</time>
      </trkpt>
      <trkpt lat="45.09009" lon="3.63167">
        <ele>965.78</ele>
        <time>2024-09-29T15:45:03Z</time>
      </trkpt>
      <trkpt lat="45.08986" lon="3.63174">
        <ele>971.55</ele>
        <time>2024-09-29T15:44:48Z</time>
      </trkpt>
      <trkpt lat="45.08962" lon="3.63179">
        <ele>988.85</ele>
        <time>2024-09-29T15:44:32Z</time>
      </trkpt>
      <trkpt lat="45.08945" lon="3.63178">
        <ele>1001.35</ele>
        <time>2024-09-29T15:44:17Z</time>
      </trkpt>
      <trkpt lat="45.0893" lon="3.63169">
        <ele>1007.12</ele>
        <time>2024-09-29T15:44:00Z</time>
      </trkpt>
      <trkpt lat="45.08918" lon="3.63147">
        <ele>1012.41</ele>
        <time>2024-09-29T15:43:42Z</time>
      </trkpt>
      <trkpt lat="45.08889" lon="3.63127">
        <ele>1018.17</ele>
        <time>2024-09-29T15:43:22Z</time>
      </trkpt>
      <trkpt lat="45.08864" lon="3.63108">
        <ele>1020.1</ele>
        <time>2024-09-29T15:43:03Z</time>
      </trkpt>
      <trkpt lat="45.08842" lon="3.63106">
        <ele>1019.13</ele>
        <time>2024-09-29T15:42:47Z</time>
      </trkpt>
      <trkpt lat="45.08817" lon="3.63095">
        <ele>1019.62</ele>
        <time>2024-09-29T15:42:32Z</time>
      </trkpt>
      <trkpt lat="45.08786" lon="3.6309">
        <ele>1018.65</ele>
        <time>2024-09-29T15:42:14Z</time>
      </trkpt>
      <trkpt lat="45.08775" lon="3.63093">
        <ele>1016.73</ele>
        <time>2024-09-29T15:42:06Z</time>
      </trkpt>
      <trkpt lat="45.08755" lon="3.63106">
        <ele>1016.25</ele>
        <time>2024-09-29T15:41:51Z</time>
      </trkpt>
      <trkpt lat="45.08737" lon="3.63133">
        <ele>1015.29</ele>
        <time>2024-09-29T15:41:33Z</time>
      </trkpt>
      <trkpt lat="45.0872" lon="3.63157">
        <ele>1015.77</ele>
        <time>2024-09-29T15:41:17Z</time>
      </trkpt>
      <trkpt lat="45.08696" lon="3.63177">
        <ele>1021.54</ele>
        <time>2024-09-29T15:40:58Z</time>
      </trkpt>
      <trkpt lat="45.08676" lon="3.63194">
        <ele>1026.83</ele>
        <time>2024-09-29T15:40:40Z</time>
      </trkpt>
      <trkpt lat="45.08649" lon="3.63198">
        <ele>1027.79</ele>
        <time>2024-09-29T15:40:22Z</time>
      </trkpt>
      <trkpt lat="45.08621" lon="3.63208">
        <ele>1039.32</ele>
        <time>2024-09-29T15:40:01Z</time>
      </trkpt>
      <trkpt lat="45.08632" lon="3.63225">
        <ele>1040.28</ele>
        <time>2024-09-29T15:39:49Z</time>
      </trkpt>
      <trkpt lat="45.08637" lon="3.63263">
        <ele>1041.25</ele>
        <time>2024-09-29T15:39:31Z</time>
      </trkpt>
      <trkpt lat="45.08638" lon="3.63276">
        <ele>1041.73</ele>
        <time>2024-09-29T15:39:24Z</time>
      </trkpt>
      <trkpt lat="45.0865" lon="3.63299">
        <ele>1045.09</ele>
        <time>2024-09-29T15:39:06Z</time>
      </trkpt>
      <trkpt lat="45.0865" lon="3.6332">
        <ele>1047.49</ele>
        <time>2024-09-29T15:38:46Z</time>
      </trkpt>
      <trkpt lat="45.08658" lon="3.63341">
        <ele>1049.42</ele>
        <time>2024-09-29T15:38:27Z</time>
      </trkpt>
      <trkpt lat="45.08658" lon="3.63347">
        <ele>1050.86</ele>
        <time>2024-09-29T15:38:05Z</time>
      </trkpt>
      <trkpt lat="45.08657" lon="3.63345">
        <ele>1053.26</ele>
        <time>2024-09-29T15:37:35Z</time>
      </trkpt>
      <trkpt lat="45.08658" lon="3.63342">
        <ele>1062.87</ele>
        <time>2024-09-29T15:37:04Z</time>
      </trkpt>
      <trkpt lat="45.08653" lon="3.63344">
        <ele>1068.16</ele>
        <time>2024-09-29T15:36:39Z</time>
      </trkpt>
      <trkpt lat="45.08656" lon="3.63346">
        <ele>1066.72</ele>
        <time>2024-09-29T15:36:16Z</time>
      </trkpt>
      <trkpt lat="45.08673" lon="3.63357">
        <ele>1061.43</ele>
        <time>2024-09-29T15:35:59Z</time>
      </trkpt>
      <trkpt lat="45.08691" lon="3.63348">
        <ele>1057.11</ele>
        <time>2024-09-29T15:35:43Z</time>
      </trkpt>
      <trkpt lat="45.08715" lon="3.63339">
        <ele>1052.3</ele>
        <time>2024-09-29T15:35:24Z</time>
      </trkpt>
      <trkpt lat="45.08727" lon="3.63343">
        <ele>1047.49</ele>
        <time>2024-09-29T15:35:04Z</time>
      </trkpt>
      <trkpt lat="45.0873" lon="3.63345">
        <ele>1049.42</ele>
        <time>2024-09-29T15:34:40Z</time>
      </trkpt>
      <trkpt lat="45.0873" lon="3.63338">
        <ele>1047.01</ele>
        <time>2024-09-29T15:34:15Z</time>
      </trkpt>
      <trkpt lat="45.08733" lon="3.63339">
        <ele>1050.38</ele>
        <time>2024-09-29T15:33:52Z</time>
      </trkpt>
      <trkpt lat="45.08737" lon="3.63335">
        <ele>1046.53</ele>
        <time>2024-09-29T15:33:25Z</time>
      </trkpt>
      <trkpt lat="45.08741" lon="3.63323">
        <ele>1047.01</ele>
        <time>2024-09-29T15:33:04Z</time>
      </trkpt>
      <trkpt lat="45.08741" lon="3.63327">
        <ele>1047.49</ele>
        <time>2024-09-29T15:32:23Z</time>
      </trkpt>
      <trkpt lat="45.08743" lon="3.63326">
        <ele>1048.94</ele>
        <time>2024-09-29T15:31:59Z</time>
      </trkpt>
      <trkpt lat="45.08753" lon="3.63332">
        <ele>1052.78</ele>
        <time>2024-09-29T15:31:41Z</time>
      </trkpt>
      <trkpt lat="45.0876" lon="3.6333">
        <ele>1051.34</ele>
        <time>2024-09-29T15:31:24Z</time>
      </trkpt>
      <trkpt lat="45.08761" lon="3.63327">
        <ele>1048.94</ele>
        <time>2024-09-29T15:31:05Z</time>
      </trkpt>
      <trkpt lat="45.08757" lon="3.6333">
        <ele>1049.9</ele>
        <time>2024-09-29T15:30:52Z</time>
      </trkpt>
      <trkpt lat="45.0876" lon="3.63333">
        <ele>1048.94</ele>
        <time>2024-09-29T15:30:24Z</time>
      </trkpt>
      <trkpt lat="45.08758" lon="3.63332">
        <ele>1049.9</ele>
        <time>2024-09-29T15:30:00Z</time>
      </trkpt>
      <trkpt lat="45.08758" lon="3.63326">
        <ele>1048.45</ele>
        <time>2024-09-29T15:29:41Z</time>
      </trkpt>
      <trkpt lat="45.08758" lon="3.63318">
        <ele>1047.01</ele>
        <time>2024-09-29T15:29:18Z</time>
      </trkpt>
      <trkpt lat="45.08759" lon="3.63328">
        <ele>1044.13</ele>
        <time>2024-09-29T15:28:49Z</time>
      </trkpt>
      <trkpt lat="45.08751" lon="3.6334">
        <ele>1049.42</ele>
        <time>2024-09-29T15:28:29Z</time>
      </trkpt>
      <trkpt lat="45.08756" lon="3.63341">
        <ele>1051.34</ele>
        <time>2024-09-29T15:28:03Z</time>
      </trkpt>
      <trkpt lat="45.08756" lon="3.6335">
        <ele>1053.74</ele>
        <time>2024-09-29T15:27:43Z</time>
      </trkpt>
      <trkpt lat="45.08758" lon="3.63353">
        <ele>1051.82</ele>
        <time>2024-09-29T15:27:22Z</time>
      </trkpt>
      <trkpt lat="45.08766" lon="3.63353">
        <ele>1048.45</ele>
        <time>2024-09-29T15:26:51Z</time>
      </trkpt>
      <trkpt lat="45.08767" lon="3.63353">
        <ele>1045.57</ele>
        <time>2024-09-29T15:26:32Z</time>
      </trkpt>
      <trkpt lat="45.08762" lon="3.63335">
        <ele>1044.13</ele>
        <time>2024-09-29T15:26:15Z</time>
      </trkpt>
      <trkpt lat="45.08759" lon="3.63337">
        <ele>1042.21</ele>
        <time>2024-09-29T15:25:53Z</time>
      </trkpt>
      <trkpt lat="45.08763" lon="3.63336">
        <ele>1040.28</ele>
        <time>2024-09-29T15:25:36Z</time>
      </trkpt>
      <trkpt lat="45.08767" lon="3.63335">
        <ele>1037.88</ele>
        <time>2024-09-29T15:25:07Z</time>
      </trkpt>
      <trkpt lat="45.08765" lon="3.63334">
        <ele>1036.44</ele>
        <time>2024-09-29T15:24:50Z</time>
      </trkpt>
      <trkpt lat="45.08769" lon="3.63349">
        <ele>1036.92</ele>
        <time>2024-09-29T15:24:32Z</time>
      </trkpt>
      <trkpt lat="45.0879" lon="3.63356">
        <ele>1029.71</ele>
        <time>2024-09-29T15:24:13Z</time>
      </trkpt>
      <trkpt lat="45.08759" lon="3.63361">
        <ele>1053.26</ele>
        <time>2024-09-29T15:22:02Z</time>
      </trkpt>
      <trkpt lat="45.08764" lon="3.63346">
        <ele>1048.45</ele>
        <time>2024-09-29T15:21:36Z</time>
      </trkpt>
      <trkpt lat="45.0876" lon="3.63334">
        <ele>1046.53</ele>
        <time>2024-09-29T15:21:18Z</time>
      </trkpt>
      <trkpt lat="45.08761" lon="3.63332">
        <ele>1045.57</ele>
        <time>2024-09-29T15:21:00Z</time>
      </trkpt>
      <trkpt lat="45.08757" lon="3.63337">
        <ele>1051.82</ele>
        <time>2024-09-29T15:20:40Z</time>
      </trkpt>
      <trkpt lat="45.08763" lon="3.63354">
        <ele>1051.34</ele>
        <time>2024-09-29T15:20:15Z</time>
      </trkpt>
      <trkpt lat="45.08757" lon="3.63358">
        <ele>1048.45</ele>
        <time>2024-09-29T15:19:56Z</time>
      </trkpt>
      <trkpt lat="45.08759" lon="3.6335">
        <ele>1044.61</ele>
        <time>2024-09-29T15:19:28Z</time>
      </trkpt>
      <trkpt lat="45.08765" lon="3.63346">
        <ele>1047.49</ele>
        <time>2024-09-29T15:19:04Z</time>
      </trkpt>
      <trkpt lat="45.08776" lon="3.63342">
        <ele>1047.97</ele>
        <time>2024-09-29T15:18:41Z</time>
      </trkpt>
      <trkpt lat="45.08772" lon="3.63348">
        <ele>1049.42</ele>
        <time>2024-09-29T15:18:20Z</time>
      </trkpt>
      <trkpt lat="45.08772" lon="3.63358">
        <ele>1056.63</ele>
        <time>2024-09-29T15:17:51Z</time>
      </trkpt>
      <trkpt lat="45.08764" lon="3.63359">
        <ele>1055.18</ele>
        <time>2024-09-29T15:16:58Z</time>
      </trkpt>
      <trkpt lat="45.0876" lon="3.63352">
        <ele>1047.97</ele>
        <time>2024-09-29T15:16:41Z</time>
      </trkpt>
      <trkpt lat="45.08759" lon="3.63353">
        <ele>1043.65</ele>
        <time>2024-09-29T15:16:18Z</time>
      </trkpt>
      <trkpt lat="45.08756" lon="3.63348">
        <ele>1042.21</ele>
        <time>2024-09-29T15:15:42Z</time>
      </trkpt>
      <trkpt lat="45.0876" lon="3.63345">
        <ele>1041.25</ele>
        <time>2024-09-29T15:15:13Z</time>
      </trkpt>
      <trkpt lat="45.08758" lon="3.63342">
        <ele>1041.73</ele>
        <time>2024-09-29T15:14:53Z</time>
      </trkpt>
      <trkpt lat="45.08757" lon="3.63341">
        <ele>1044.13</ele>
        <time>2024-09-29T15:14:25Z</time>
      </trkpt>
      <trkpt lat="45.08762" lon="3.63346">
        <ele>1047.97</ele>
        <time>2024-09-29T15:13:56Z</time>
      </trkpt>
      <trkpt lat="45.08761" lon="3.63337">
        <ele>1047.49</ele>
        <time>2024-09-29T15:13:33Z</time>
      </trkpt>
      <trkpt lat="45.08764" lon="3.63328">
        <ele>1048.94</ele>
        <time>2024-09-29T15:13:17Z</time>
      </trkpt>
      <trkpt lat="45.08768" lon="3.63322">
        <ele>1048.94</ele>
        <time>2024-09-29T15:13:03Z</time>
      </trkpt>
      <trkpt lat="45.08764" lon="3.6332">
        <ele>1047.97</ele>
        <time>2024-09-29T15:12:35Z</time>
      </trkpt>
      <trkpt lat="45.08758" lon="3.63317">
        <ele>1045.57</ele>
        <time>2024-09-29T15:12:14Z</time>
      </trkpt>
      <trkpt lat="45.08749" lon="3.63325">
        <ele>1050.38</ele>
        <time>2024-09-29T15:11:56Z</time>
      </trkpt>
      <trkpt lat="45.08739" lon="3.63329">
        <ele>1052.78</ele>
        <time>2024-09-29T15:11:34Z</time>
      </trkpt>
      <trkpt lat="45.08719" lon="3.63329">
        <ele>1052.3</ele>
        <time>2024-09-29T15:11:18Z</time>
      </trkpt>
      <trkpt lat="45.08698" lon="3.63332">
        <ele>1052.78</ele>
        <time>2024-09-29T15:10:59Z</time>
      </trkpt>
      <trkpt lat="45.08672" lon="3.6334">
        <ele>1054.7</ele>
        <time>2024-09-29T15:10:41Z</time>
      </trkpt>
      <trkpt lat="45.08666" lon="3.6334">
        <ele>1055.67</ele>
        <time>2024-09-29T15:10:37Z</time>
      </trkpt>
      <trkpt lat="45.08636" lon="3.63364">
        <ele>1064.8</ele>
        <time>2024-09-29T15:10:20Z</time>
      </trkpt>
      <trkpt lat="45.08628" lon="3.63368">
        <ele>1067.2</ele>
        <time>2024-09-29T15:10:14Z</time>
      </trkpt>
      <trkpt lat="45.08603" lon="3.63373">
        <ele>1068.16</ele>
        <time>2024-09-29T15:09:55Z</time>
      </trkpt>
      <trkpt lat="45.0858" lon="3.63377">
        <ele>1070.57</ele>
        <time>2024-09-29T15:09:36Z</time>
      </trkpt>
      <trkpt lat="45.08558" lon="3.6339">
        <ele>1074.89</ele>
        <time>2024-09-29T15:09:20Z</time>
      </trkpt>
      <trkpt lat="45.08543" lon="3.63396">
        <ele>1074.89</ele>
        <time>2024-09-29T15:09:06Z</time>
      </trkpt>
      <trkpt lat="45.0851" lon="3.63416">
        <ele>1078.74</ele>
        <time>2024-09-29T15:08:48Z</time>
      </trkpt>
      <trkpt lat="45.08492" lon="3.63422">
        <ele>1078.26</ele>
        <time>2024-09-29T15:08:34Z</time>
      </trkpt>
      <trkpt lat="45.08464" lon="3.63427">
        <ele>1076.33</ele>
        <time>2024-09-29T15:08:17Z</time>
      </trkpt>
      <trkpt lat="45.08433" lon="3.63433">
        <ele>1081.14</ele>
        <time>2024-09-29T15:07:59Z</time>
      </trkpt>
      <trkpt lat="45.08409" lon="3.63425">
        <ele>1086.43</ele>
        <time>2024-09-29T15:07:42Z</time>
      </trkpt>
      <trkpt lat="45.08379" lon="3.6342">
        <ele>1093.16</ele>
        <time>2024-09-29T15:07:23Z</time>
      </trkpt>
      <trkpt lat="45.08352" lon="3.63416">
        <ele>1094.12</ele>
        <time>2024-09-29T15:07:04Z</time>
      </trkpt>
      <trkpt lat="45.08335" lon="3.63409">
        <ele>1093.64</ele>
        <time>2024-09-29T15:06:48Z</time>
      </trkpt>
      <trkpt lat="45.08312" lon="3.63392">
        <ele>1101.81</ele>
        <time>2024-09-29T15:06:33Z</time>
      </trkpt>
      <trkpt lat="45.08311" lon="3.63391">
        <ele>1102.29</ele>
        <time>2024-09-29T15:06:32Z</time>
      </trkpt>
      <trkpt lat="45.08309" lon="3.63392">
        <ele>1103.25</ele>
        <time>2024-09-29T15:06:31Z</time>
      </trkpt>
      <trkpt lat="45.08296" lon="3.63379">
        <ele>1103.73</ele>
        <time>2024-09-29T15:06:21Z</time>
      </trkpt>
      <trkpt lat="45.08274" lon="3.63356">
        <ele>1096.52</ele>
        <time>2024-09-29T15:06:02Z</time>
      </trkpt>
      <trkpt lat="45.08253" lon="3.63351">
        <ele>1092.68</ele>
        <time>2024-09-29T15:05:45Z</time>
      </trkpt>
      <trkpt lat="45.08235" lon="3.63334">
        <ele>1085.47</ele>
        <time>2024-09-29T15:05:26Z</time>
      </trkpt>
      <trkpt lat="45.08218" lon="3.63305">
        <ele>1075.85</ele>
        <time>2024-09-29T15:05:06Z</time>
      </trkpt>
      <trkpt lat="45.08203" lon="3.63274">
        <ele>1067.68</ele>
        <time>2024-09-29T15:04:47Z</time>
      </trkpt>
      <trkpt lat="45.0819" lon="3.63249">
        <ele>1063.84</ele>
        <time>2024-09-29T15:04:27Z</time>
      </trkpt>
      <trkpt lat="45.0818" lon="3.63236">
        <ele>1059.51</ele>
        <time>2024-09-29T15:04:11Z</time>
      </trkpt>
      <trkpt lat="45.08163" lon="3.63216">
        <ele>1052.78</ele>
        <time>2024-09-29T15:03:54Z</time>
      </trkpt>
      <trkpt lat="45.08162" lon="3.63215">
        <ele>1052.78</ele>
        <time>2024-09-29T15:03:53Z</time>
      </trkpt>
      <trkpt lat="45.08159" lon="3.63208">
        <ele>1052.3</ele>
        <time>2024-09-29T15:03:46Z</time>
      </trkpt>
      <trkpt lat="45.08141" lon="3.63219">
        <ele>1050.38</ele>
        <time>2024-09-29T15:03:31Z</time>
      </trkpt>
      <trkpt lat="45.0814" lon="3.6322">
        <ele>1050.38</ele>
        <time>2024-09-29T15:03:30Z</time>
      </trkpt>
      <trkpt lat="45.08139" lon="3.6322">
        <ele>1050.38</ele>
        <time>2024-09-29T15:03:29Z</time>
      </trkpt>
      <trkpt lat="45.08138" lon="3.63221">
        <ele>1050.38</ele>
        <time>2024-09-29T15:03:28Z</time>
      </trkpt>
      <trkpt lat="45.08136" lon="3.63222">
        <ele>1050.38</ele>
        <time>2024-09-29T15:03:27Z</time>
      </trkpt>
      <trkpt lat="45.08135" lon="3.63223">
        <ele>1050.38</ele>
        <time>2024-09-29T15:03:26Z</time>
      </trkpt>
      <trkpt lat="45.08134" lon="3.63224">
        <ele>1049.9</ele>
        <time>2024-09-29T15:03:25Z</time>
      </trkpt>
      <trkpt lat="45.08133" lon="3.63224">
        <ele>1049.9</ele>
        <time>2024-09-29T15:03:24Z</time>
      </trkpt>
      <trkpt lat="45.08131" lon="3.63226">
        <ele>1049.9</ele>
        <time>2024-09-29T15:03:22Z</time>
      </trkpt>
      <trkpt lat="45.08131" lon="3.63227">
        <ele>1049.9</ele>
        <time>2024-09-29T15:03:21Z</time>
      </trkpt>
      <trkpt lat="45.0813" lon="3.63225">
        <ele>1049.9</ele>
        <time>2024-09-29T15:03:03Z</time>
      </trkpt>
      <trkpt lat="45.08124" lon="3.63219">
        <ele>1056.15</ele>
        <time>2024-09-29T15:02:37Z</time>
      </trkpt>
      <trkpt lat="45.08122" lon="3.63219">
        <ele>1056.63</ele>
        <time>2024-09-29T15:02:15Z</time>
      </trkpt>
      <trkpt lat="45.08099" lon="3.63217">
        <ele>1057.11</ele>
        <time>2024-09-29T15:01:58Z</time>
      </trkpt>
      <trkpt lat="45.08071" lon="3.63213">
        <ele>1059.99</ele>
        <time>2024-09-29T15:01:42Z</time>
      </trkpt>
      <trkpt lat="45.08046" lon="3.63195">
        <ele>1059.03</ele>
        <time>2024-09-29T15:01:23Z</time>
      </trkpt>
      <trkpt lat="45.0802" lon="3.63179">
        <ele>1058.55</ele>
        <time>2024-09-29T15:01:04Z</time>
      </trkpt>
      <trkpt lat="45.07981" lon="3.63164">
        <ele>1061.91</ele>
        <time>2024-09-29T15:00:40Z</time>
      </trkpt>
      <trkpt lat="45.0795" lon="3.63144">
        <ele>1061.91</ele>
        <time>2024-09-29T15:00:18Z</time>
      </trkpt>
      <trkpt lat="45.07926" lon="3.63118">
        <ele>1062.39</ele>
        <time>2024-09-29T14:59:57Z</time>
      </trkpt>
      <trkpt lat="45.07902" lon="3.63105">
        <ele>1065.28</ele>
        <time>2024-09-29T14:59:42Z</time>
      </trkpt>
      <trkpt lat="45.07869" lon="3.63105">
        <ele>1069.6</ele>
        <time>2024-09-29T14:59:23Z</time>
      </trkpt>
      <trkpt lat="45.07838" lon="3.63115">
        <ele>1074.41</ele>
        <time>2024-09-29T14:59:04Z</time>
      </trkpt>
      <trkpt lat="45.0781" lon="3.63121">
        <ele>1075.37</ele>
        <time>2024-09-29T14:58:47Z</time>
      </trkpt>
      <trkpt lat="45.07785" lon="3.63108">
        <ele>1073.93</ele>
        <time>2024-09-29T14:58:30Z</time>
      </trkpt>
      <trkpt lat="45.07761" lon="3.63082">
        <ele>1072.97</ele>
        <time>2024-09-29T14:58:14Z</time>
      </trkpt>
      <trkpt lat="45.07754" lon="3.63072">
        <ele>1073.93</ele>
        <time>2024-09-29T14:58:07Z</time>
      </trkpt>
      <trkpt lat="45.07726" lon="3.6306">
        <ele>1075.37</ele>
        <time>2024-09-29T14:57:49Z</time>
      </trkpt>
      <trkpt lat="45.07689" lon="3.63058">
        <ele>1074.89</ele>
        <time>2024-09-29T14:57:28Z</time>
      </trkpt>
      <trkpt lat="45.07668" lon="3.63057">
        <ele>1070.08</ele>
        <time>2024-09-29T14:57:10Z</time>
      </trkpt>
      <trkpt lat="45.07634" lon="3.63064">
        <ele>1069.12</ele>
        <time>2024-09-29T14:56:54Z</time>
      </trkpt>
      <trkpt lat="45.07604" lon="3.63078">
        <ele>1071.53</ele>
        <time>2024-09-29T14:56:34Z</time>
      </trkpt>
      <trkpt lat="45.07583" lon="3.63093">
        <ele>1074.89</ele>
        <time>2024-09-29T14:56:21Z</time>
      </trkpt>
      <trkpt lat="45.07554" lon="3.63123">
        <ele>1079.22</ele>
        <time>2024-09-29T14:56:02Z</time>
      </trkpt>
      <trkpt lat="45.07536" lon="3.6315">
        <ele>1081.14</ele>
        <time>2024-09-29T14:55:45Z</time>
      </trkpt>
      <trkpt lat="45.07519" lon="3.63186">
        <ele>1082.1</ele>
        <time>2024-09-29T14:55:29Z</time>
      </trkpt>
      <trkpt lat="45.07504" lon="3.6322">
        <ele>1083.54</ele>
        <time>2024-09-29T14:55:12Z</time>
      </trkpt>
      <trkpt lat="45.075" lon="3.63238">
        <ele>1083.54</ele>
        <time>2024-09-29T14:55:02Z</time>
      </trkpt>
      <trkpt lat="45.07499" lon="3.63246">
        <ele>1084.02</ele>
        <time>2024-09-29T14:54:58Z</time>
      </trkpt>
      <trkpt lat="45.07494" lon="3.63285">
        <ele>1090.27</ele>
        <time>2024-09-29T14:54:39Z</time>
      </trkpt>
      <trkpt lat="45.07478" lon="3.63317">
        <ele>1096.52</ele>
        <time>2024-09-29T14:54:21Z</time>
      </trkpt>
      <trkpt lat="45.07462" lon="3.6335">
        <ele>1110.46</ele>
        <time>2024-09-29T14:54:03Z</time>
      </trkpt>
      <trkpt lat="45.07445" lon="3.63379">
        <ele>1123.92</ele>
        <time>2024-09-29T14:53:51Z</time>
      </trkpt>
      <trkpt lat="45.0743" lon="3.63406">
        <ele>1126.8</ele>
        <time>2024-09-29T14:53:38Z</time>
      </trkpt>
      <trkpt lat="45.07411" lon="3.63438">
        <ele>1127.76</ele>
        <time>2024-09-29T14:53:19Z</time>
      </trkpt>
      <trkpt lat="45.07395" lon="3.63466">
        <ele>1132.57</ele>
        <time>2024-09-29T14:53:05Z</time>
      </trkpt>
      <trkpt lat="45.07382" lon="3.63503">
        <ele>1139.78</ele>
        <time>2024-09-29T14:52:50Z</time>
      </trkpt>
      <trkpt lat="45.07366" lon="3.6354">
        <ele>1143.63</ele>
        <time>2024-09-29T14:52:31Z</time>
      </trkpt>
      <trkpt lat="45.07346" lon="3.63581">
        <ele>1139.78</ele>
        <time>2024-09-29T14:52:15Z</time>
      </trkpt>
      <trkpt lat="45.07334" lon="3.63611">
        <ele>1134.49</ele>
        <time>2024-09-29T14:51:57Z</time>
      </trkpt>
      <trkpt lat="45.07322" lon="3.63652">
        <ele>1131.61</ele>
        <time>2024-09-29T14:51:39Z</time>
      </trkpt>
      <trkpt lat="45.07321" lon="3.63664">
        <ele>1130.17</ele>
        <time>2024-09-29T14:51:34Z</time>
      </trkpt>
      <trkpt lat="45.07314" lon="3.63695">
        <ele>1131.13</ele>
        <time>2024-09-29T14:51:20Z</time>
      </trkpt>
      <trkpt lat="45.07294" lon="3.63733">
        <ele>1132.09</ele>
        <time>2024-09-29T14:51:03Z</time>
      </trkpt>
      <trkpt lat="45.07283" lon="3.63757">
        <ele>1133.05</ele>
        <time>2024-09-29T14:50:47Z</time>
      </trkpt>
      <trkpt lat="45.07281" lon="3.6376">
        <ele>1133.53</ele>
        <time>2024-09-29T14:50:46Z</time>
      </trkpt>
      <trkpt lat="45.07266" lon="3.63788">
        <ele>1133.05</ele>
        <time>2024-09-29T14:50:32Z</time>
      </trkpt>
      <trkpt lat="45.07248" lon="3.63819">
        <ele>1129.21</ele>
        <time>2024-09-29T14:50:13Z</time>
      </trkpt>
      <trkpt lat="45.07232" lon="3.63843">
        <ele>1128.73</ele>
        <time>2024-09-29T14:49:57Z</time>
      </trkpt>
      <trkpt lat="45.07213" lon="3.63872">
        <ele>1128.73</ele>
        <time>2024-09-29T14:49:42Z</time>
      </trkpt>
      <trkpt lat="45.07198" lon="3.63897">
        <ele>1128.73</ele>
        <time>2024-09-29T14:49:26Z</time>
      </trkpt>
      <trkpt lat="45.07183" lon="3.63933">
        <ele>1130.17</ele>
        <time>2024-09-29T14:49:06Z</time>
      </trkpt>
      <trkpt lat="45.07158" lon="3.63972">
        <ele>1128.73</ele>
        <time>2024-09-29T14:48:46Z</time>
      </trkpt>
      <trkpt lat="45.07144" lon="3.63988">
        <ele>1131.61</ele>
        <time>2024-09-29T14:48:28Z</time>
      </trkpt>
      <trkpt lat="45.07123" lon="3.6401">
        <ele>1134.49</ele>
        <time>2024-09-29T14:48:13Z</time>
      </trkpt>
      <trkpt lat="45.07117" lon="3.64015">
        <ele>1134.49</ele>
        <time>2024-09-29T14:48:08Z</time>
      </trkpt>
      <trkpt lat="45.071" lon="3.64029">
        <ele>1129.69</ele>
        <time>2024-09-29T14:47:53Z</time>
      </trkpt>
      <trkpt lat="45.07073" lon="3.64059">
        <ele>1133.05</ele>
        <time>2024-09-29T14:47:32Z</time>
      </trkpt>
      <trkpt lat="45.07061" lon="3.64082">
        <ele>1135.45</ele>
        <time>2024-09-29T14:47:17Z</time>
      </trkpt>
      <trkpt lat="45.07046" lon="3.64106">
        <ele>1134.97</ele>
        <time>2024-09-29T14:47:03Z</time>
      </trkpt>
      <trkpt lat="45.07021" lon="3.64121">
        <ele>1133.53</ele>
        <time>2024-09-29T14:46:48Z</time>
      </trkpt>
      <trkpt lat="45.06975" lon="3.64149">
        <ele>1125.36</ele>
        <time>2024-09-29T14:46:35Z</time>
      </trkpt>
      <trkpt lat="45.06915" lon="3.64225">
        <ele>1117.19</ele>
        <time>2024-09-29T14:46:22Z</time>
      </trkpt>
      <trkpt lat="45.06871" lon="3.64328">
        <ele>1111.42</ele>
        <time>2024-09-29T14:46:08Z</time>
      </trkpt>
      <trkpt lat="45.06868" lon="3.64335">
        <ele>1110.94</ele>
        <time>2024-09-29T14:46:07Z</time>
      </trkpt>
      <trkpt lat="45.06865" lon="3.64341">
        <ele>1110.94</ele>
        <time>2024-09-29T14:46:06Z</time>
      </trkpt>
      <trkpt lat="45.06861" lon="3.64346">
        <ele>1110.46</ele>
        <time>2024-09-29T14:46:05Z</time>
      </trkpt>
      <trkpt lat="45.06857" lon="3.64349">
        <ele>1110.46</ele>
        <time>2024-09-29T14:46:04Z</time>
      </trkpt>
      <trkpt lat="45.06852" lon="3.6435">
        <ele>1109.98</ele>
        <time>2024-09-29T14:46:03Z</time>
      </trkpt>
      <trkpt lat="45.06848" lon="3.6435">
        <ele>1109.98</ele>
        <time>2024-09-29T14:46:02Z</time>
      </trkpt>
      <trkpt lat="45.06843" lon="3.64348">
        <ele>1109.5</ele>
        <time>2024-09-29T14:46:01Z</time>
      </trkpt>
      <trkpt lat="45.06839" lon="3.64346">
        <ele>1109.02</ele>
        <time>2024-09-29T14:46:00Z</time>
      </trkpt>
      <trkpt lat="45.06835" lon="3.64343">
        <ele>1108.54</ele>
        <time>2024-09-29T14:45:59Z</time>
      </trkpt>
      <trkpt lat="45.06831" lon="3.6434">
        <ele>1108.54</ele>
        <time>2024-09-29T14:45:58Z</time>
      </trkpt>
      <trkpt lat="45.06827" lon="3.64338">
        <ele>1108.06</ele>
        <time>2024-09-29T14:45:57Z</time>
      </trkpt>
      <trkpt lat="45.06822" lon="3.64338">
        <ele>1108.06</ele>
        <time>2024-09-29T14:45:56Z</time>
      </trkpt>
      <trkpt lat="45.06817" lon="3.64337">
        <ele>1107.58</ele>
        <time>2024-09-29T14:45:55Z</time>
      </trkpt>
      <trkpt lat="45.06813" lon="3.64339">
        <ele>1107.1</ele>
        <time>2024-09-29T14:45:54Z</time>
      </trkpt>
      <trkpt lat="45.06782" lon="3.64365">
        <ele>1105.65</ele>
        <time>2024-09-29T14:45:46Z</time>
      </trkpt>
      <trkpt lat="45.06737" lon="3.64424">
        <ele>1101.33</ele>
        <time>2024-09-29T14:45:32Z</time>
      </trkpt>
      <trkpt lat="45.06691" lon="3.64482">
        <ele>1097.96</ele>
        <time>2024-09-29T14:45:18Z</time>
      </trkpt>
      <trkpt lat="45.06659" lon="3.64509">
        <ele>1099.89</ele>
        <time>2024-09-29T14:45:04Z</time>
      </trkpt>
      <trkpt lat="45.06634" lon="3.64523">
        <ele>1099.89</ele>
        <time>2024-09-29T14:44:47Z</time>
      </trkpt>
      <trkpt lat="45.06604" lon="3.64539">
        <ele>1097.96</ele>
        <time>2024-09-29T14:44:27Z</time>
      </trkpt>
      <trkpt lat="45.06578" lon="3.64556">
        <ele>1097</ele>
        <time>2024-09-29T14:44:07Z</time>
      </trkpt>
      <trkpt lat="45.06553" lon="3.64583">
        <ele>1097</ele>
        <time>2024-09-29T14:43:45Z</time>
      </trkpt>
      <trkpt lat="45.06526" lon="3.64614">
        <ele>1098.44</ele>
        <time>2024-09-29T14:43:24Z</time>
      </trkpt>
      <trkpt lat="45.06498" lon="3.64643">
        <ele>1099.89</ele>
        <time>2024-09-29T14:43:04Z</time>
      </trkpt>
      <trkpt lat="45.06479" lon="3.64662">
        <ele>1103.25</ele>
        <time>2024-09-29T14:42:50Z</time>
      </trkpt>
      <trkpt lat="45.06489" lon="3.64692">
        <ele>1106.61</ele>
        <time>2024-09-29T14:42:32Z</time>
      </trkpt>
      <trkpt lat="45.06514" lon="3.64715">
        <ele>1108.06</ele>
        <time>2024-09-29T14:42:13Z</time>
      </trkpt>
      <trkpt lat="45.06542" lon="3.64741">
        <ele>1112.38</ele>
        <time>2024-09-29T14:41:52Z</time>
      </trkpt>
      <trkpt lat="45.06543" lon="3.64742">
        <ele>1112.86</ele>
        <time>2024-09-29T14:41:51Z</time>
      </trkpt>
      <trkpt lat="45.06544" lon="3.64743">
        <ele>1112.86</ele>
        <time>2024-09-29T14:41:50Z</time>
      </trkpt>
      <trkpt lat="45.06545" lon="3.64745">
        <ele>1112.86</ele>
        <time>2024-09-29T14:41:49Z</time>
      </trkpt>
      <trkpt lat="45.06546" lon="3.64746">
        <ele>1113.34</ele>
        <time>2024-09-29T14:41:48Z</time>
      </trkpt>
      <trkpt lat="45.06551" lon="3.64759">
        <ele>1114.79</ele>
        <time>2024-09-29T14:41:41Z</time>
      </trkpt>
      <trkpt lat="45.06567" lon="3.64784">
        <ele>1117.67</ele>
        <time>2024-09-29T14:41:25Z</time>
      </trkpt>
      <trkpt lat="45.06581" lon="3.64824">
        <ele>1120.07</ele>
        <time>2024-09-29T14:41:07Z</time>
      </trkpt>
      <trkpt lat="45.06599" lon="3.6486">
        <ele>1120.55</ele>
        <time>2024-09-29T14:40:46Z</time>
      </trkpt>
      <trkpt lat="45.06617" lon="3.64902">
        <ele>1121.03</ele>
        <time>2024-09-29T14:40:23Z</time>
      </trkpt>
      <trkpt lat="45.06629" lon="3.64931">
        <ele>1121.52</ele>
        <time>2024-09-29T14:40:07Z</time>
      </trkpt>
      <trkpt lat="45.06625" lon="3.64958">
        <ele>1123.44</ele>
        <time>2024-09-29T14:39:52Z</time>
      </trkpt>
      <trkpt lat="45.06598" lon="3.64965">
        <ele>1128.24</ele>
        <time>2024-09-29T14:39:35Z</time>
      </trkpt>
      <trkpt lat="45.06572" lon="3.64964">
        <ele>1129.69</ele>
        <time>2024-09-29T14:39:19Z</time>
      </trkpt>
      <trkpt lat="45.06545" lon="3.64957">
        <ele>1131.13</ele>
        <time>2024-09-29T14:39:02Z</time>
      </trkpt>
      <trkpt lat="45.06514" lon="3.64938">
        <ele>1134.01</ele>
        <time>2024-09-29T14:38:41Z</time>
      </trkpt>
      <trkpt lat="45.06482" lon="3.64934">
        <ele>1133.05</ele>
        <time>2024-09-29T14:38:22Z</time>
      </trkpt>
      <trkpt lat="45.06445" lon="3.64933">
        <ele>1138.34</ele>
        <time>2024-09-29T14:38:00Z</time>
      </trkpt>
      <trkpt lat="45.06415" lon="3.64936">
        <ele>1141.22</ele>
        <time>2024-09-29T14:37:42Z</time>
      </trkpt>
      <trkpt lat="45.06407" lon="3.64941">
        <ele>1141.7</ele>
        <time>2024-09-29T14:37:35Z</time>
      </trkpt>
      <trkpt lat="45.06387" lon="3.64948">
        <ele>1142.66</ele>
        <time>2024-09-29T14:37:17Z</time>
      </trkpt>
      <trkpt lat="45.06359" lon="3.64949">
        <ele>1144.11</ele>
        <time>2024-09-29T14:37:02Z</time>
      </trkpt>
      <trkpt lat="45.06335" lon="3.64954">
        <ele>1144.59</ele>
        <time>2024-09-29T14:36:48Z</time>
      </trkpt>
      <trkpt lat="45.06308" lon="3.64961">
        <ele>1141.22</ele>
        <time>2024-09-29T14:36:29Z</time>
      </trkpt>
      <trkpt lat="45.06283" lon="3.64968">
        <ele>1137.86</ele>
        <time>2024-09-29T14:36:11Z</time>
      </trkpt>
      <trkpt lat="45.06256" lon="3.64979">
        <ele>1137.38</ele>
        <time>2024-09-29T14:35:52Z</time>
      </trkpt>
      <trkpt lat="45.06235" lon="3.64986">
        <ele>1138.82</ele>
        <time>2024-09-29T14:35:40Z</time>
      </trkpt>
      <trkpt lat="45.06209" lon="3.64997">
        <ele>1140.74</ele>
        <time>2024-09-29T14:35:23Z</time>
      </trkpt>
      <trkpt lat="45.06179" lon="3.65003">
        <ele>1147.95</ele>
        <time>2024-09-29T14:35:03Z</time>
      </trkpt>
      <trkpt lat="45.06156" lon="3.65008">
        <ele>1153.72</ele>
        <time>2024-09-29T14:34:50Z</time>
      </trkpt>
      <trkpt lat="45.06124" lon="3.65021">
        <ele>1159.97</ele>
        <time>2024-09-29T14:34:29Z</time>
      </trkpt>
      <trkpt lat="45.06092" lon="3.65031">
        <ele>1169.1</ele>
        <time>2024-09-29T14:34:10Z</time>
      </trkpt>
      <trkpt lat="45.06059" lon="3.65032">
        <ele>1174.39</ele>
        <time>2024-09-29T14:33:52Z</time>
      </trkpt>
      <trkpt lat="45.06026" lon="3.65037">
        <ele>1175.35</ele>
        <time>2024-09-29T14:33:35Z</time>
      </trkpt>
      <trkpt lat="45.06003" lon="3.65034">
        <ele>1175.83</ele>
        <time>2024-09-29T14:33:19Z</time>
      </trkpt>
      <trkpt lat="45.06001" lon="3.65033">
        <ele>1175.83</ele>
        <time>2024-09-29T14:33:18Z</time>
      </trkpt>
      <trkpt lat="45.05987" lon="3.65029">
        <ele>1175.83</ele>
        <time>2024-09-29T14:33:10Z</time>
      </trkpt>
      <trkpt lat="45.05957" lon="3.65029">
        <ele>1175.35</ele>
        <time>2024-09-29T14:32:54Z</time>
      </trkpt>
      <trkpt lat="45.05935" lon="3.65027">
        <ele>1172.95</ele>
        <time>2024-09-29T14:32:39Z</time>
      </trkpt>
      <trkpt lat="45.0591" lon="3.65022">
        <ele>1171.5</ele>
        <time>2024-09-29T14:32:22Z</time>
      </trkpt>
      <trkpt lat="45.0589" lon="3.65013">
        <ele>1171.5</ele>
        <time>2024-09-29T14:32:08Z</time>
      </trkpt>
      <trkpt lat="45.05868" lon="3.65">
        <ele>1172.47</ele>
        <time>2024-09-29T14:31:53Z</time>
      </trkpt>
      <trkpt lat="45.05842" lon="3.64988">
        <ele>1177.75</ele>
        <time>2024-09-29T14:31:35Z</time>
      </trkpt>
      <trkpt lat="45.05811" lon="3.64983">
        <ele>1185.44</ele>
        <time>2024-09-29T14:31:16Z</time>
      </trkpt>
      <trkpt lat="45.05795" lon="3.64978">
        <ele>1190.73</ele>
        <time>2024-09-29T14:31:05Z</time>
      </trkpt>
      <trkpt lat="45.05782" lon="3.65011">
        <ele>1194.58</ele>
        <time>2024-09-29T14:30:48Z</time>
      </trkpt>
      <trkpt lat="45.0578" lon="3.65018">
        <ele>1196.02</ele>
        <time>2024-09-29T14:30:44Z</time>
      </trkpt>
      <trkpt lat="45.0578" lon="3.65024">
        <ele>1197.46</ele>
        <time>2024-09-29T14:30:41Z</time>
      </trkpt>
      <trkpt lat="45.05778" lon="3.65045">
        <ele>1203.23</ele>
        <time>2024-09-29T14:30:32Z</time>
      </trkpt>
      <trkpt lat="45.05774" lon="3.65089">
        <ele>1213.8</ele>
        <time>2024-09-29T14:30:12Z</time>
      </trkpt>
      <trkpt lat="45.05762" lon="3.65103">
        <ele>1216.21</ele>
        <time>2024-09-29T14:30:04Z</time>
      </trkpt>
      <trkpt lat="45.05759" lon="3.65106">
        <ele>1216.21</ele>
        <time>2024-09-29T14:30:02Z</time>
      </trkpt>
      <trkpt lat="45.05745" lon="3.6512">
        <ele>1214.76</ele>
        <time>2024-09-29T14:29:51Z</time>
      </trkpt>
      <trkpt lat="45.05718" lon="3.65144">
        <ele>1213.8</ele>
        <time>2024-09-29T14:29:34Z</time>
      </trkpt>
      <trkpt lat="45.05694" lon="3.65155">
        <ele>1210.92</ele>
        <time>2024-09-29T14:29:16Z</time>
      </trkpt>
      <trkpt lat="45.05672" lon="3.65162">
        <ele>1209.48</ele>
        <time>2024-09-29T14:28:58Z</time>
      </trkpt>
      <trkpt lat="45.05648" lon="3.65175">
        <ele>1207.55</ele>
        <time>2024-09-29T14:28:39Z</time>
      </trkpt>
      <trkpt lat="45.05633" lon="3.65184">
        <ele>1206.11</ele>
        <time>2024-09-29T14:28:27Z</time>
      </trkpt>
      <trkpt lat="45.05616" lon="3.65196">
        <ele>1206.59</ele>
        <time>2024-09-29T14:28:12Z</time>
      </trkpt>
      <trkpt lat="45.05591" lon="3.65197">
        <ele>1210.44</ele>
        <time>2024-09-29T14:27:55Z</time>
      </trkpt>
      <trkpt lat="45.05569" lon="3.65205">
        <ele>1212.36</ele>
        <time>2024-09-29T14:27:40Z</time>
      </trkpt>
      <trkpt lat="45.05542" lon="3.65221">
        <ele>1212.84</ele>
        <time>2024-09-29T14:27:21Z</time>
      </trkpt>
      <trkpt lat="45.05522" lon="3.6524">
        <ele>1212.84</ele>
        <time>2024-09-29T14:27:04Z</time>
      </trkpt>
      <trkpt lat="45.05505" lon="3.6527">
        <ele>1214.28</ele>
        <time>2024-09-29T14:26:46Z</time>
      </trkpt>
      <trkpt lat="45.05487" lon="3.65296">
        <ele>1219.09</ele>
        <time>2024-09-29T14:26:27Z</time>
      </trkpt>
      <trkpt lat="45.05464" lon="3.65302">
        <ele>1230.14</ele>
        <time>2024-09-29T14:26:13Z</time>
      </trkpt>
      <trkpt lat="45.05438" lon="3.65293">
        <ele>1243.6</ele>
        <time>2024-09-29T14:25:56Z</time>
      </trkpt>
      <trkpt lat="45.05404" lon="3.65275">
        <ele>1268.12</ele>
        <time>2024-09-29T14:25:38Z</time>
      </trkpt>
      <trkpt lat="45.05377" lon="3.65272">
        <ele>1291.19</ele>
        <time>2024-09-29T14:25:24Z</time>
      </trkpt>
      <trkpt lat="45.05355" lon="3.65269">
        <ele>1296.48</ele>
        <time>2024-09-29T14:25:11Z</time>
      </trkpt>
      <trkpt lat="45.0533" lon="3.65264">
        <ele>1292.63</ele>
        <time>2024-09-29T14:24:54Z</time>
      </trkpt>
      <trkpt lat="45.05308" lon="3.65265">
        <ele>1292.63</ele>
        <time>2024-09-29T14:24:37Z</time>
      </trkpt>
      <trkpt lat="45.05286" lon="3.65268">
        <ele>1295.03</ele>
        <time>2024-09-29T14:24:22Z</time>
      </trkpt>
      <trkpt lat="45.05282" lon="3.65269">
        <ele>1294.55</ele>
        <time>2024-09-29T14:24:19Z</time>
      </trkpt>
      <trkpt lat="45.05261" lon="3.65273">
        <ele>1297.44</ele>
        <time>2024-09-29T14:24:05Z</time>
      </trkpt>
      <trkpt lat="45.05239" lon="3.65277">
        <ele>1295.03</ele>
        <time>2024-09-29T14:23:50Z</time>
      </trkpt>
      <trkpt lat="45.05217" lon="3.65281">
        <ele>1288.78</ele>
        <time>2024-09-29T14:23:34Z</time>
      </trkpt>
      <trkpt lat="45.05194" lon="3.65286">
        <ele>1284.94</ele>
        <time>2024-09-29T14:23:12Z</time>
      </trkpt>
      <trkpt lat="45.0517" lon="3.65301">
        <ele>1294.55</ele>
        <time>2024-09-29T14:22:57Z</time>
      </trkpt>
      <trkpt lat="45.05145" lon="3.6532">
        <ele>1290.71</ele>
        <time>2024-09-29T14:22:38Z</time>
      </trkpt>
      <trkpt lat="45.05121" lon="3.65332">
        <ele>1285.9</ele>
        <time>2024-09-29T14:22:20Z</time>
      </trkpt>
      <trkpt lat="45.05105" lon="3.6534">
        <ele>1279.17</ele>
        <time>2024-09-29T14:22:04Z</time>
      </trkpt>
      <trkpt lat="45.05079" lon="3.65354">
        <ele>1268.12</ele>
        <time>2024-09-29T14:21:45Z</time>
      </trkpt>
      <trkpt lat="45.05072" lon="3.65354">
        <ele>1265.23</ele>
        <time>2024-09-29T14:21:40Z</time>
      </trkpt>
      <trkpt lat="45.05051" lon="3.65365">
        <ele>1253.22</ele>
        <time>2024-09-29T14:21:22Z</time>
      </trkpt>
      <trkpt lat="45.05032" lon="3.65376">
        <ele>1248.89</ele>
        <time>2024-09-29T14:21:05Z</time>
      </trkpt>
      <trkpt lat="45.05011" lon="3.65387">
        <ele>1242.16</ele>
        <time>2024-09-29T14:20:49Z</time>
      </trkpt>
      <trkpt lat="45.04981" lon="3.65401">
        <ele>1236.39</ele>
        <time>2024-09-29T14:20:28Z</time>
      </trkpt>
      <trkpt lat="45.04953" lon="3.65413">
        <ele>1230.62</ele>
        <time>2024-09-29T14:20:08Z</time>
      </trkpt>
      <trkpt lat="45.04931" lon="3.65425">
        <ele>1232.07</ele>
        <time>2024-09-29T14:19:52Z</time>
      </trkpt>
      <trkpt lat="45.04902" lon="3.6544">
        <ele>1234.95</ele>
        <time>2024-09-29T14:19:33Z</time>
      </trkpt>
      <trkpt lat="45.04872" lon="3.65457">
        <ele>1234.47</ele>
        <time>2024-09-29T14:19:16Z</time>
      </trkpt>
      <trkpt lat="45.04856" lon="3.6548">
        <ele>1229.66</ele>
        <time>2024-09-29T14:18:58Z</time>
      </trkpt>
      <trkpt lat="45.04839" lon="3.65499">
        <ele>1228.22</ele>
        <time>2024-09-29T14:18:43Z</time>
      </trkpt>
      <trkpt lat="45.04825" lon="3.65515">
        <ele>1221.49</ele>
        <time>2024-09-29T14:18:26Z</time>
      </trkpt>
      <trkpt lat="45.04802" lon="3.65529">
        <ele>1216.21</ele>
        <time>2024-09-29T14:18:09Z</time>
      </trkpt>
      <trkpt lat="45.04774" lon="3.65541">
        <ele>1205.15</ele>
        <time>2024-09-29T14:17:49Z</time>
      </trkpt>
      <trkpt lat="45.04749" lon="3.6554">
        <ele>1198.42</ele>
        <time>2024-09-29T14:17:32Z</time>
      </trkpt>
      <trkpt lat="45.04728" lon="3.65541">
        <ele>1196.98</ele>
        <time>2024-09-29T14:17:14Z</time>
      </trkpt>
      <trkpt lat="45.04714" lon="3.65547">
        <ele>1196.5</ele>
        <time>2024-09-29T14:17:07Z</time>
      </trkpt>
      <trkpt lat="45.04711" lon="3.65546">
        <ele>1196.98</ele>
        <time>2024-09-29T14:17:05Z</time>
      </trkpt>
      <trkpt lat="45.04707" lon="3.65547">
        <ele>1196.5</ele>
        <time>2024-09-29T14:17:02Z</time>
      </trkpt>
      <trkpt lat="45.04678" lon="3.65549">
        <ele>1198.42</ele>
        <time>2024-09-29T14:16:45Z</time>
      </trkpt>
      <trkpt lat="45.04656" lon="3.65552">
        <ele>1200.34</ele>
        <time>2024-09-29T14:16:27Z</time>
      </trkpt>
      <trkpt lat="45.04636" lon="3.65553">
        <ele>1201.3</ele>
        <time>2024-09-29T14:16:12Z</time>
      </trkpt>
      <trkpt lat="45.04615" lon="3.65554">
        <ele>1197.46</ele>
        <time>2024-09-29T14:15:54Z</time>
      </trkpt>
      <trkpt lat="45.04598" lon="3.65555">
        <ele>1196.5</ele>
        <time>2024-09-29T14:15:40Z</time>
      </trkpt>
      <trkpt lat="45.0458" lon="3.65532">
        <ele>1196.02</ele>
        <time>2024-09-29T14:15:24Z</time>
      </trkpt>
      <trkpt lat="45.04567" lon="3.6551">
        <ele>1195.06</ele>
        <time>2024-09-29T14:15:10Z</time>
      </trkpt>
      <trkpt lat="45.04548" lon="3.65479">
        <ele>1194.58</ele>
        <time>2024-09-29T14:14:53Z</time>
      </trkpt>
      <trkpt lat="45.04541" lon="3.65461">
        <ele>1196.5</ele>
        <time>2024-09-29T14:14:45Z</time>
      </trkpt>
      <trkpt lat="45.04525" lon="3.65418">
        <ele>1201.3</ele>
        <time>2024-09-29T14:14:25Z</time>
      </trkpt>
      <trkpt lat="45.04514" lon="3.65381">
        <ele>1203.23</ele>
        <time>2024-09-29T14:14:07Z</time>
      </trkpt>
      <trkpt lat="45.04504" lon="3.65339">
        <ele>1204.67</ele>
        <time>2024-09-29T14:13:45Z</time>
      </trkpt>
      <trkpt lat="45.04499" lon="3.653">
        <ele>1204.67</ele>
        <time>2024-09-29T14:13:27Z</time>
      </trkpt>
      <trkpt lat="45.04498" lon="3.65264">
        <ele>1203.23</ele>
        <time>2024-09-29T14:13:07Z</time>
      </trkpt>
      <trkpt lat="45.04494" lon="3.6523">
        <ele>1204.67</ele>
        <time>2024-09-29T14:12:50Z</time>
      </trkpt>
      <trkpt lat="45.04494" lon="3.65192">
        <ele>1207.55</ele>
        <time>2024-09-29T14:12:34Z</time>
      </trkpt>
      <trkpt lat="45.04494" lon="3.65169">
        <ele>1208.03</ele>
        <time>2024-09-29T14:12:19Z</time>
      </trkpt>
      <trkpt lat="45.04494" lon="3.65119">
        <ele>1213.8</ele>
        <time>2024-09-29T14:12:01Z</time>
      </trkpt>
      <trkpt lat="45.04491" lon="3.65091">
        <ele>1215.72</ele>
        <time>2024-09-29T14:11:45Z</time>
      </trkpt>
      <trkpt lat="45.04486" lon="3.65064">
        <ele>1219.09</ele>
        <time>2024-09-29T14:11:29Z</time>
      </trkpt>
      <trkpt lat="45.04481" lon="3.6503">
        <ele>1223.42</ele>
        <time>2024-09-29T14:11:13Z</time>
      </trkpt>
      <trkpt lat="45.04475" lon="3.65017">
        <ele>1223.42</ele>
        <time>2024-09-29T14:11:05Z</time>
      </trkpt>
      <trkpt lat="45.04464" lon="3.64982">
        <ele>1226.3</ele>
        <time>2024-09-29T14:10:47Z</time>
      </trkpt>
      <trkpt lat="45.04455" lon="3.64941">
        <ele>1222.93</ele>
        <time>2024-09-29T14:10:29Z</time>
      </trkpt>
      <trkpt lat="45.04455" lon="3.64907">
        <ele>1221.49</ele>
        <time>2024-09-29T14:10:10Z</time>
      </trkpt>
      <trkpt lat="45.04454" lon="3.64866">
        <ele>1219.57</ele>
        <time>2024-09-29T14:09:49Z</time>
      </trkpt>
      <trkpt lat="45.04463" lon="3.64849">
        <ele>1221.01</ele>
        <time>2024-09-29T14:09:35Z</time>
      </trkpt>
      <trkpt lat="45.0448" lon="3.64828">
        <ele>1220.53</ele>
        <time>2024-09-29T14:09:17Z</time>
      </trkpt>
      <trkpt lat="45.04485" lon="3.64821">
        <ele>1221.97</ele>
        <time>2024-09-29T14:09:09Z</time>
      </trkpt>
      <trkpt lat="45.04504" lon="3.64816">
        <ele>1227.74</ele>
        <time>2024-09-29T14:08:53Z</time>
      </trkpt>
      <trkpt lat="45.04515" lon="3.6482">
        <ele>1233.51</ele>
        <time>2024-09-29T14:08:37Z</time>
      </trkpt>
      <trkpt lat="45.04516" lon="3.64823">
        <ele>1227.74</ele>
        <time>2024-09-29T14:08:16Z</time>
      </trkpt>
      <trkpt lat="45.04518" lon="3.64818">
        <ele>1221.97</ele>
        <time>2024-09-29T14:07:54Z</time>
      </trkpt>
      <trkpt lat="45.04523" lon="3.64815">
        <ele>1222.45</ele>
        <time>2024-09-29T14:07:33Z</time>
      </trkpt>
      <trkpt lat="45.04522" lon="3.64817">
        <ele>1224.38</ele>
        <time>2024-09-29T14:07:13Z</time>
      </trkpt>
      <trkpt lat="45.04524" lon="3.64816">
        <ele>1228.7</ele>
        <time>2024-09-29T14:06:57Z</time>
      </trkpt>
      <trkpt lat="45.04542" lon="3.64815">
        <ele>1233.99</ele>
        <time>2024-09-29T14:06:37Z</time>
      </trkpt>
      <trkpt lat="45.04557" lon="3.6482">
        <ele>1233.99</ele>
        <time>2024-09-29T14:06:24Z</time>
      </trkpt>
      <trkpt lat="45.04574" lon="3.64825">
        <ele>1235.43</ele>
        <time>2024-09-29T14:06:08Z</time>
      </trkpt>
      <trkpt lat="45.04587" lon="3.64825">
        <ele>1239.28</ele>
        <time>2024-09-29T14:05:54Z</time>
      </trkpt>
      <trkpt lat="45.04591" lon="3.64825">
        <ele>1241.68</ele>
        <time>2024-09-29T14:05:37Z</time>
      </trkpt>
      <trkpt lat="45.04592" lon="3.64827">
        <ele>1246.49</ele>
        <time>2024-09-29T14:05:22Z</time>
      </trkpt>
      <trkpt lat="45.04595" lon="3.64825">
        <ele>1250.81</ele>
        <time>2024-09-29T14:05:04Z</time>
      </trkpt>
      <trkpt lat="45.046" lon="3.64827">
        <ele>1259.46</ele>
        <time>2024-09-29T14:04:49Z</time>
      </trkpt>
      <trkpt lat="45.04607" lon="3.64827">
        <ele>1270.04</ele>
        <time>2024-09-29T14:04:33Z</time>
      </trkpt>
      <trkpt lat="45.0462" lon="3.6483">
        <ele>1271.96</ele>
        <time>2024-09-29T14:04:16Z</time>
      </trkpt>
      <trkpt lat="45.04625" lon="3.6484">
        <ele>1271</ele>
        <time>2024-09-29T14:04:05Z</time>
      </trkpt>
      <trkpt lat="45.04622" lon="3.64855">
        <ele>1268.6</ele>
        <time>2024-09-29T14:03:52Z</time>
      </trkpt>
      <trkpt lat="45.04623" lon="3.64858">
        <ele>1268.6</ele>
        <time>2024-09-29T14:03:49Z</time>
      </trkpt>
      <trkpt lat="45.0462" lon="3.64866">
        <ele>1270.04</ele>
        <time>2024-09-29T14:03:44Z</time>
      </trkpt>
      <trkpt lat="45.04616" lon="3.64887">
        <ele>1272.44</ele>
        <time>2024-09-29T14:03:29Z</time>
      </trkpt>
      <trkpt lat="45.04611" lon="3.64905">
        <ele>1267.64</ele>
        <time>2024-09-29T14:03:15Z</time>
      </trkpt>
      <trkpt lat="45.04611" lon="3.64924">
        <ele>1262.35</ele>
        <time>2024-09-29T14:03:03Z</time>
      </trkpt>
      <trkpt lat="45.04609" lon="3.6494">
        <ele>1259.94</ele>
        <time>2024-09-29T14:02:53Z</time>
      </trkpt>
      <trkpt lat="45.04607" lon="3.64958">
        <ele>1254.66</ele>
        <time>2024-09-29T14:02:42Z</time>
      </trkpt>
      <trkpt lat="45.04606" lon="3.64976">
        <ele>1248.89</ele>
        <time>2024-09-29T14:02:26Z</time>
      </trkpt>
      <trkpt lat="45.04604" lon="3.64982">
        <ele>1245.04</ele>
        <time>2024-09-29T14:02:12Z</time>
      </trkpt>
      <trkpt lat="45.04605" lon="3.64981">
        <ele>1245.04</ele>
        <time>2024-09-29T14:01:49Z</time>
      </trkpt>
      <trkpt lat="45.04605" lon="3.64979">
        <ele>1243.12</ele>
        <time>2024-09-29T14:01:23Z</time>
      </trkpt>
      <trkpt lat="45.04603" lon="3.64974">
        <ele>1242.16</ele>
        <time>2024-09-29T14:01:12Z</time>
      </trkpt>
      <trkpt lat="45.04603" lon="3.64974">
        <ele>1244.56</ele>
        <time>2024-09-29T14:00:56Z</time>
      </trkpt>
      <trkpt lat="45.04601" lon="3.64989">
        <ele>1249.85</ele>
        <time>2024-09-29T14:00:32Z</time>
      </trkpt>
      <trkpt lat="45.04601" lon="3.64976">
        <ele>1240.72</ele>
        <time>2024-09-29T14:00:10Z</time>
      </trkpt>
      <trkpt lat="45.04609" lon="3.64994">
        <ele>1235.91</ele>
        <time>2024-09-29T13:59:26Z</time>
      </trkpt>
      <trkpt lat="45.04609" lon="3.64986">
        <ele>1236.87</ele>
        <time>2024-09-29T13:59:11Z</time>
      </trkpt>
      <trkpt lat="45.0461" lon="3.64981">
        <ele>1237.83</ele>
        <time>2024-09-29T13:58:56Z</time>
      </trkpt>
      <trkpt lat="45.04609" lon="3.64981">
        <ele>1239.76</ele>
        <time>2024-09-29T13:58:36Z</time>
      </trkpt>
      <trkpt lat="45.04608" lon="3.64978">
        <ele>1238.32</ele>
        <time>2024-09-29T13:58:15Z</time>
      </trkpt>
      <trkpt lat="45.0461" lon="3.64976">
        <ele>1242.16</ele>
        <time>2024-09-29T13:57:52Z</time>
      </trkpt>
      <trkpt lat="45.0462" lon="3.64981">
        <ele>1245.04</ele>
        <time>2024-09-29T13:57:38Z</time>
      </trkpt>
      <trkpt lat="45.04636" lon="3.64972">
        <ele>1244.08</ele>
        <time>2024-09-29T13:57:23Z</time>
      </trkpt>
      <trkpt lat="45.04651" lon="3.64962">
        <ele>1244.56</ele>
        <time>2024-09-29T13:57:10Z</time>
      </trkpt>
      <trkpt lat="45.0466" lon="3.64956">
        <ele>1244.56</ele>
        <time>2024-09-29T13:56:58Z</time>
      </trkpt>
      <trkpt lat="45.04677" lon="3.64942">
        <ele>1245.53</ele>
        <time>2024-09-29T13:56:42Z</time>
      </trkpt>
      <trkpt lat="45.04694" lon="3.64928">
        <ele>1246.97</ele>
        <time>2024-09-29T13:56:24Z</time>
      </trkpt>
      <trkpt lat="45.04704" lon="3.64921">
        <ele>1250.33</ele>
        <time>2024-09-29T13:56:12Z</time>
      </trkpt>
      <trkpt lat="45.04714" lon="3.64912">
        <ele>1255.62</ele>
        <time>2024-09-29T13:55:58Z</time>
      </trkpt>
      <trkpt lat="45.04722" lon="3.64902">
        <ele>1259.46</ele>
        <time>2024-09-29T13:55:48Z</time>
      </trkpt>
      <trkpt lat="45.0473" lon="3.64893">
        <ele>1263.79</ele>
        <time>2024-09-29T13:55:36Z</time>
      </trkpt>
      <trkpt lat="45.04731" lon="3.64893">
        <ele>1264.27</ele>
        <time>2024-09-29T13:55:35Z</time>
      </trkpt>
      <trkpt lat="45.0474" lon="3.64904">
        <ele>1266.19</ele>
        <time>2024-09-29T13:55:19Z</time>
      </trkpt>
      <trkpt lat="45.04742" lon="3.64923">
        <ele>1266.67</ele>
        <time>2024-09-29T13:55:06Z</time>
      </trkpt>
      <trkpt lat="45.04742" lon="3.64939">
        <ele>1268.12</ele>
        <time>2024-09-29T13:54:56Z</time>
      </trkpt>
      <trkpt lat="45.04743" lon="3.6496">
        <ele>1268.6</ele>
        <time>2024-09-29T13:54:43Z</time>
      </trkpt>
      <trkpt lat="45.04743" lon="3.6498">
        <ele>1270.04</ele>
        <time>2024-09-29T13:54:29Z</time>
      </trkpt>
      <trkpt lat="45.04742" lon="3.64996">
        <ele>1270.52</ele>
        <time>2024-09-29T13:54:17Z</time>
      </trkpt>
      <trkpt lat="45.04742" lon="3.65002">
        <ele>1271</ele>
        <time>2024-09-29T13:54:13Z</time>
      </trkpt>
      <trkpt lat="45.04743" lon="3.65015">
        <ele>1271.48</ele>
        <time>2024-09-29T13:54:02Z</time>
      </trkpt>
      <trkpt lat="45.04748" lon="3.65033">
        <ele>1268.12</ele>
        <time>2024-09-29T13:53:49Z</time>
      </trkpt>
      <trkpt lat="45.04754" lon="3.6504">
        <ele>1266.19</ele>
        <time>2024-09-29T13:53:43Z</time>
      </trkpt>
      <trkpt lat="45.04769" lon="3.65043">
        <ele>1258.98</ele>
        <time>2024-09-29T13:53:27Z</time>
      </trkpt>
      <trkpt lat="45.04775" lon="3.65036">
        <ele>1262.83</ele>
        <time>2024-09-29T13:53:17Z</time>
      </trkpt>
      <trkpt lat="45.04781" lon="3.65027">
        <ele>1268.12</ele>
        <time>2024-09-29T13:53:06Z</time>
      </trkpt>
      <trkpt lat="45.04789" lon="3.6501">
        <ele>1271.96</ele>
        <time>2024-09-29T13:52:52Z</time>
      </trkpt>
      <trkpt lat="45.048" lon="3.65012">
        <ele>1273.4</ele>
        <time>2024-09-29T13:52:41Z</time>
      </trkpt>
      <trkpt lat="45.04812" lon="3.65026">
        <ele>1268.12</ele>
        <time>2024-09-29T13:52:28Z</time>
      </trkpt>
      <trkpt lat="45.04818" lon="3.65032">
        <ele>1266.19</ele>
        <time>2024-09-29T13:52:15Z</time>
      </trkpt>
      <trkpt lat="45.04832" lon="3.65041">
        <ele>1268.12</ele>
        <time>2024-09-29T13:52:00Z</time>
      </trkpt>
      <trkpt lat="45.0484" lon="3.6504">
        <ele>1275.81</ele>
        <time>2024-09-29T13:51:47Z</time>
      </trkpt>
      <trkpt lat="45.04842" lon="3.65024">
        <ele>1281.09</ele>
        <time>2024-09-29T13:51:31Z</time>
      </trkpt>
      <trkpt lat="45.04843" lon="3.6501">
        <ele>1281.57</ele>
        <time>2024-09-29T13:51:18Z</time>
      </trkpt>
      <trkpt lat="45.04849" lon="3.64992">
        <ele>1283.02</ele>
        <time>2024-09-29T13:51:04Z</time>
      </trkpt>
      <trkpt lat="45.04857" lon="3.6498">
        <ele>1286.86</ele>
        <time>2024-09-29T13:50:51Z</time>
      </trkpt>
      <trkpt lat="45.04867" lon="3.64968">
        <ele>1289.75</ele>
        <time>2024-09-29T13:50:39Z</time>
      </trkpt>
      <trkpt lat="45.04874" lon="3.6496">
        <ele>1291.67</ele>
        <time>2024-09-29T13:50:30Z</time>
      </trkpt>
      <trkpt lat="45.04879" lon="3.64963">
        <ele>1293.11</ele>
        <time>2024-09-29T13:50:19Z</time>
      </trkpt>
      <trkpt lat="45.04882" lon="3.64967">
        <ele>1293.59</ele>
        <time>2024-09-29T13:50:11Z</time>
      </trkpt>
      <trkpt lat="45.04886" lon="3.64971">
        <ele>1294.07</ele>
        <time>2024-09-29T13:49:57Z</time>
      </trkpt>
      <trkpt lat="45.04881" lon="3.6498">
        <ele>1297.44</ele>
        <time>2024-09-29T13:49:43Z</time>
      </trkpt>
      <trkpt lat="45.04883" lon="3.64987">
        <ele>1300.32</ele>
        <time>2024-09-29T13:49:30Z</time>
      </trkpt>
      <trkpt lat="45.04885" lon="3.64979">
        <ele>1302.72</ele>
        <time>2024-09-29T13:49:14Z</time>
      </trkpt>
      <trkpt lat="45.04884" lon="3.64978">
        <ele>1304.17</ele>
        <time>2024-09-29T13:48:42Z</time>
      </trkpt>
      <trkpt lat="45.04882" lon="3.64977">
        <ele>1303.69</ele>
        <time>2024-09-29T13:48:11Z</time>
      </trkpt>
      <trkpt lat="45.04886" lon="3.64975">
        <ele>1299.84</ele>
        <time>2024-09-29T13:47:46Z</time>
      </trkpt>
      <trkpt lat="45.04886" lon="3.64978">
        <ele>1298.88</ele>
        <time>2024-09-29T13:47:05Z</time>
      </trkpt>
      <trkpt lat="45.04886" lon="3.64978">
        <ele>1298.88</ele>
        <time>2024-09-29T13:46:33Z</time>
      </trkpt>
      <trkpt lat="45.04886" lon="3.64978">
        <ele>1298.88</ele>
        <time>2024-09-29T13:46:17Z</time>
      </trkpt>
      <trkpt lat="45.04887" lon="3.64978">
        <ele>1297.92</ele>
        <time>2024-09-29T13:45:55Z</time>
      </trkpt>
      <trkpt lat="45.0489" lon="3.64976">
        <ele>1296.96</ele>
        <time>2024-09-29T13:45:29Z</time>
      </trkpt>
      <trkpt lat="45.0489" lon="3.64977">
        <ele>1297.44</ele>
        <time>2024-09-29T13:45:08Z</time>
      </trkpt>
      <trkpt lat="45.0489" lon="3.64979">
        <ele>1296.96</ele>
        <time>2024-09-29T13:44:51Z</time>
      </trkpt>
      <trkpt lat="45.0489" lon="3.64979">
        <ele>1298.4</ele>
        <time>2024-09-29T13:44:36Z</time>
      </trkpt>
      <trkpt lat="45.0489" lon="3.64979">
        <ele>1297.44</ele>
        <time>2024-09-29T13:44:13Z</time>
      </trkpt>
      <trkpt lat="45.04889" lon="3.64977">
        <ele>1296.48</ele>
        <time>2024-09-29T13:43:52Z</time>
      </trkpt>
      <trkpt lat="45.04889" lon="3.64978">
        <ele>1294.55</ele>
        <time>2024-09-29T13:43:26Z</time>
      </trkpt>
      <trkpt lat="45.04887" lon="3.6498">
        <ele>1296.48</ele>
        <time>2024-09-29T13:43:03Z</time>
      </trkpt>
      <trkpt lat="45.0489" lon="3.64978">
        <ele>1296.48</ele>
        <time>2024-09-29T13:42:39Z</time>
      </trkpt>
      <trkpt lat="45.04892" lon="3.6498">
        <ele>1294.55</ele>
        <time>2024-09-29T13:42:21Z</time>
      </trkpt>
      <trkpt lat="45.0489" lon="3.64981">
        <ele>1294.55</ele>
        <time>2024-09-29T13:42:05Z</time>
      </trkpt>
      <trkpt lat="45.04888" lon="3.64982">
        <ele>1295.51</ele>
        <time>2024-09-29T13:41:38Z</time>
      </trkpt>
      <trkpt lat="45.04887" lon="3.6498">
        <ele>1295.03</ele>
        <time>2024-09-29T13:41:12Z</time>
      </trkpt>
      <trkpt lat="45.0489" lon="3.64979">
        <ele>1293.11</ele>
        <time>2024-09-29T13:40:43Z</time>
      </trkpt>
      <trkpt lat="45.0489" lon="3.64978">
        <ele>1292.63</ele>
        <time>2024-09-29T13:40:17Z</time>
      </trkpt>
      <trkpt lat="45.04889" lon="3.64981">
        <ele>1292.63</ele>
        <time>2024-09-29T13:39:58Z</time>
      </trkpt>
      <trkpt lat="45.04889" lon="3.6498">
        <ele>1294.07</ele>
        <time>2024-09-29T13:39:45Z</time>
      </trkpt>
      <trkpt lat="45.04889" lon="3.64977">
        <ele>1293.59</ele>
        <time>2024-09-29T13:39:24Z</time>
      </trkpt>
      <trkpt lat="45.0489" lon="3.64977">
        <ele>1294.07</ele>
        <time>2024-09-29T13:39:02Z</time>
      </trkpt>
      <trkpt lat="45.04889" lon="3.64979">
        <ele>1294.55</ele>
        <time>2024-09-29T13:38:47Z</time>
      </trkpt>
      <trkpt lat="45.0489" lon="3.64979">
        <ele>1295.99</ele>
        <time>2024-09-29T13:38:21Z</time>
      </trkpt>
      <trkpt lat="45.04889" lon="3.64979">
        <ele>1294.07</ele>
        <time>2024-09-29T13:37:56Z</time>
      </trkpt>
      <trkpt lat="45.0489" lon="3.64978">
        <ele>1294.55</ele>
        <time>2024-09-29T13:37:44Z</time>
      </trkpt>
      <trkpt lat="45.04889" lon="3.6498">
        <ele>1295.51</ele>
        <time>2024-09-29T13:37:22Z</time>
      </trkpt>
      <trkpt lat="45.04889" lon="3.64981">
        <ele>1296.48</ele>
        <time>2024-09-29T13:37:05Z</time>
      </trkpt>
      <trkpt lat="45.04889" lon="3.64977">
        <ele>1295.03</ele>
        <time>2024-09-29T13:36:48Z</time>
      </trkpt>
      <trkpt lat="45.04888" lon="3.64979">
        <ele>1295.03</ele>
        <time>2024-09-29T13:36:34Z</time>
      </trkpt>
      <trkpt lat="45.04889" lon="3.6498">
        <ele>1294.55</ele>
        <time>2024-09-29T13:36:15Z</time>
      </trkpt>
      <trkpt lat="45.04888" lon="3.64981">
        <ele>1294.07</ele>
        <time>2024-09-29T13:35:45Z</time>
      </trkpt>
      <trkpt lat="45.04889" lon="3.64981">
        <ele>1294.55</ele>
        <time>2024-09-29T13:35:29Z</time>
      </trkpt>
      <trkpt lat="45.04891" lon="3.6498">
        <ele>1294.07</ele>
        <time>2024-09-29T13:35:09Z</time>
      </trkpt>
      <trkpt lat="45.0489" lon="3.64979">
        <ele>1295.03</ele>
        <time>2024-09-29T13:34:48Z</time>
      </trkpt>
      <trkpt lat="45.04889" lon="3.64978">
        <ele>1295.51</ele>
        <time>2024-09-29T13:34:29Z</time>
      </trkpt>
      <trkpt lat="45.04888" lon="3.64979">
        <ele>1295.51</ele>
        <time>2024-09-29T13:34:14Z</time>
      </trkpt>
      <trkpt lat="45.04889" lon="3.6498">
        <ele>1294.55</ele>
        <time>2024-09-29T13:34:00Z</time>
      </trkpt>
      <trkpt lat="45.0489" lon="3.64981">
        <ele>1294.55</ele>
        <time>2024-09-29T13:33:46Z</time>
      </trkpt>
      <trkpt lat="45.04891" lon="3.6498">
        <ele>1295.03</ele>
        <time>2024-09-29T13:33:31Z</time>
      </trkpt>
      <trkpt lat="45.04889" lon="3.64977">
        <ele>1295.99</ele>
        <time>2024-09-29T13:33:14Z</time>
      </trkpt>
      <trkpt lat="45.04888" lon="3.64976">
        <ele>1295.99</ele>
        <time>2024-09-29T13:33:00Z</time>
      </trkpt>
      <trkpt lat="45.04885" lon="3.64981">
        <ele>1296.48</ele>
        <time>2024-09-29T13:32:46Z</time>
      </trkpt>
      <trkpt lat="45.04884" lon="3.64983">
        <ele>1296.96</ele>
        <time>2024-09-29T13:32:34Z</time>
      </trkpt>
      <trkpt lat="45.04886" lon="3.64983">
        <ele>1296.48</ele>
        <time>2024-09-29T13:32:09Z</time>
      </trkpt>
      <trkpt lat="45.04882" lon="3.64993">
        <ele>1295.03</ele>
        <time>2024-09-29T13:31:55Z</time>
      </trkpt>
      <trkpt lat="45.04875" lon="3.64997">
        <ele>1295.03</ele>
        <time>2024-09-29T13:31:42Z</time>
      </trkpt>
      <trkpt lat="45.04877" lon="3.65001">
        <ele>1293.59</ele>
        <time>2024-09-29T13:31:25Z</time>
      </trkpt>
      <trkpt lat="45.04875" lon="3.64998">
        <ele>1294.07</ele>
        <time>2024-09-29T13:31:06Z</time>
      </trkpt>
      <trkpt lat="45.04876" lon="3.64993">
        <ele>1295.51</ele>
        <time>2024-09-29T13:30:48Z</time>
      </trkpt>
      <trkpt lat="45.04879" lon="3.64985">
        <ele>1296.96</ele>
        <time>2024-09-29T13:30:33Z</time>
      </trkpt>
      <trkpt lat="45.04885" lon="3.64984">
        <ele>1297.44</ele>
        <time>2024-09-29T13:30:17Z</time>
      </trkpt>
      <trkpt lat="45.04888" lon="3.64979">
        <ele>1298.88</ele>
        <time>2024-09-29T13:29:58Z</time>
      </trkpt>
      <trkpt lat="45.04892" lon="3.64979">
        <ele>1299.36</ele>
        <time>2024-09-29T13:29:30Z</time>
      </trkpt>
      <trkpt lat="45.04891" lon="3.64977">
        <ele>1298.4</ele>
        <time>2024-09-29T13:28:49Z</time>
      </trkpt>
      <trkpt lat="45.0489" lon="3.64976">
        <ele>1298.4</ele>
        <time>2024-09-29T13:28:11Z</time>
      </trkpt>
      <trkpt lat="45.04889" lon="3.64976">
        <ele>1297.44</ele>
        <time>2024-09-29T13:27:30Z</time>
      </trkpt>
      <trkpt lat="45.04889" lon="3.64978">
        <ele>1296.48</ele>
        <time>2024-09-29T13:26:57Z</time>
      </trkpt>
      <trkpt lat="45.04889" lon="3.64978">
        <ele>1297.44</ele>
        <time>2024-09-29T13:26:11Z</time>
      </trkpt>
      <trkpt lat="45.04888" lon="3.64978">
        <ele>1298.4</ele>
        <time>2024-09-29T13:25:33Z</time>
      </trkpt>
      <trkpt lat="45.04889" lon="3.64976">
        <ele>1298.4</ele>
        <time>2024-09-29T13:24:59Z</time>
      </trkpt>
      <trkpt lat="45.04889" lon="3.64976">
        <ele>1298.88</ele>
        <time>2024-09-29T13:24:27Z</time>
      </trkpt>
      <trkpt lat="45.04887" lon="3.64977">
        <ele>1297.92</ele>
        <time>2024-09-29T13:23:58Z</time>
      </trkpt>
      <trkpt lat="45.04891" lon="3.64976">
        <ele>1299.84</ele>
        <time>2024-09-29T13:23:25Z</time>
      </trkpt>
      <trkpt lat="45.04889" lon="3.64978">
        <ele>1298.4</ele>
        <time>2024-09-29T13:22:50Z</time>
      </trkpt>
      <trkpt lat="45.04888" lon="3.64978">
        <ele>1297.92</ele>
        <time>2024-09-29T13:22:18Z</time>
      </trkpt>
      <trkpt lat="45.04889" lon="3.64977">
        <ele>1296.96</ele>
        <time>2024-09-29T13:21:35Z</time>
      </trkpt>
      <trkpt lat="45.04887" lon="3.64978">
        <ele>1295.99</ele>
        <time>2024-09-29T13:21:07Z</time>
      </trkpt>
      <trkpt lat="45.04889" lon="3.64978">
        <ele>1295.51</ele>
        <time>2024-09-29T13:20:30Z</time>
      </trkpt>
      <trkpt lat="45.04888" lon="3.64977">
        <ele>1296.96</ele>
        <time>2024-09-29T13:19:49Z</time>
      </trkpt>
      <trkpt lat="45.04889" lon="3.64977">
        <ele>1296.48</ele>
        <time>2024-09-29T13:19:14Z</time>
      </trkpt>
      <trkpt lat="45.0489" lon="3.6498">
        <ele>1297.44</ele>
        <time>2024-09-29T13:18:31Z</time>
      </trkpt>
      <trkpt lat="45.04889" lon="3.64977">
        <ele>1295.51</ele>
        <time>2024-09-29T13:17:48Z</time>
      </trkpt>
      <trkpt lat="45.04889" lon="3.64977">
        <ele>1295.51</ele>
        <time>2024-09-29T13:17:09Z</time>
      </trkpt>
      <trkpt lat="45.04889" lon="3.64977">
        <ele>1297.44</ele>
        <time>2024-09-29T13:16:30Z</time>
      </trkpt>
      <trkpt lat="45.04891" lon="3.64977">
        <ele>1297.44</ele>
        <time>2024-09-29T13:15:53Z</time>
      </trkpt>
      <trkpt lat="45.04888" lon="3.64977">
        <ele>1299.36</ele>
        <time>2024-09-29T13:15:24Z</time>
      </trkpt>
      <trkpt lat="45.04887" lon="3.64976">
        <ele>1299.84</ele>
        <time>2024-09-29T13:15:00Z</time>
      </trkpt>
      <trkpt lat="45.04902" lon="3.64945">
        <ele>1292.6</ele>
        <extensions>
          <visugpx:TrkExtension xmlns:visugpx="https://www.visugpx.com/editgpx/">
            <visugpx:node>6</visugpx:node>
            </visugpx:TrkExtension>
        </extensions>
      </trkpt>
      <trkpt lat="45.04901" lon="3.64945">
        <ele>1292.6</ele>
      </trkpt>
      <trkpt lat="45.04897" lon="3.64944">
        <ele>1292.6</ele>
      </trkpt>
      <trkpt lat="45.04894" lon="3.64945">
        <ele>1292.9</ele>
      </trkpt>
      <trkpt lat="45.04889" lon="3.64947">
        <ele>1293.5</ele>
      </trkpt>
      <trkpt lat="45.0488" lon="3.64952">
        <ele>1292.8</ele>
      </trkpt>
      <trkpt lat="45.04872" lon="3.64959">
        <ele>1292.9</ele>
      </trkpt>
      <trkpt lat="45.04865" lon="3.64965">
        <ele>1293</ele>
      </trkpt>
      <trkpt lat="45.04857" lon="3.64973">
        <ele>1292.9</ele>
      </trkpt>
      <trkpt lat="45.04849" lon="3.64985">
        <ele>1291.9</ele>
      </trkpt>
      <trkpt lat="45.04844" lon="3.64994">
        <ele>1291.4</ele>
      </trkpt>
      <trkpt lat="45.0484" lon="3.65003">
        <ele>1290.7</ele>
      </trkpt>
      <trkpt lat="45.04838" lon="3.65014">
        <ele>1289.2</ele>
      </trkpt>
      <trkpt lat="45.04837" lon="3.65024">
        <ele>1288.1</ele>
      </trkpt>
      <trkpt lat="45.04837" lon="3.65035">
        <ele>1286.8</ele>
      </trkpt>
      <trkpt lat="45.04836" lon="3.65037">
        <ele>1286.4</ele>
        <extensions>
          <visugpx:TrkExtension xmlns:visugpx="https://www.visugpx.com/editgpx/">
            <visugpx:node>5</visugpx:node>
            </visugpx:TrkExtension>
        </extensions>
      </trkpt>
      <trkpt lat="45.04835" lon="3.65042">
        <ele>1285.7</ele>
      </trkpt>
      <trkpt lat="45.04831" lon="3.65046">
        <ele>1284.7</ele>
      </trkpt>
      <trkpt lat="45.04823" lon="3.65045">
        <ele>1283.7</ele>
      </trkpt>
      <trkpt lat="45.04815" lon="3.6504">
        <ele>1283</ele>
      </trkpt>
      <trkpt lat="45.04807" lon="3.65031">
        <ele>1282.1</ele>
      </trkpt>
      <trkpt lat="45.04804" lon="3.6502">
        <ele>1281.4</ele>
      </trkpt>
      <trkpt lat="45.04799" lon="3.65012">
        <ele>1280.2</ele>
      </trkpt>
      <trkpt lat="45.04794" lon="3.65008">
        <ele>1279.1</ele>
      </trkpt>
      <trkpt lat="45.0479" lon="3.65009">
        <ele>1278.3</ele>
      </trkpt>
      <trkpt lat="45.04786" lon="3.65011">
        <ele>1277.6</ele>
      </trkpt>
      <trkpt lat="45.04779" lon="3.6502">
        <ele>1276.3</ele>
      </trkpt>
      <trkpt lat="45.04773" lon="3.65032">
        <ele>1275.3</ele>
      </trkpt>
      <trkpt lat="45.04768" lon="3.65041">
        <ele>1274.5</ele>
      </trkpt>
      <trkpt lat="45.04762" lon="3.65045">
        <ele>1273.4</ele>
      </trkpt>
      <trkpt lat="45.04758" lon="3.65044">
        <ele>1272.6</ele>
      </trkpt>
      <trkpt lat="45.0475" lon="3.65036">
        <ele>1271</ele>
      </trkpt>
      <trkpt lat="45.04744" lon="3.65021">
        <ele>1269.5</ele>
      </trkpt>
      <trkpt lat="45.04742" lon="3.65005">
        <ele>1268.7</ele>
      </trkpt>
      <trkpt lat="45.0474" lon="3.64989">
        <ele>1267.4</ele>
      </trkpt>
      <trkpt lat="45.04741" lon="3.64966">
        <ele>1265.7</ele>
      </trkpt>
      <trkpt lat="45.04741" lon="3.64957">
        <ele>1264.7</ele>
      </trkpt>
      <trkpt lat="45.04741" lon="3.64935">
        <ele>1262.4</ele>
      </trkpt>
      <trkpt lat="45.04742" lon="3.64916">
        <ele>1260.5</ele>
      </trkpt>
      <trkpt lat="45.04742" lon="3.64907">
        <ele>1259.5</ele>
      </trkpt>
      <trkpt lat="45.0474" lon="3.64898">
        <ele>1258.2</ele>
      </trkpt>
      <trkpt lat="45.04737" lon="3.64894">
        <ele>1257.2</ele>
      </trkpt>
      <trkpt lat="45.04735" lon="3.64893">
        <ele>1256.7</ele>
        <extensions>
          <visugpx:TrkExtension xmlns:visugpx="https://www.visugpx.com/editgpx/">
            <visugpx:node>4</visugpx:node>
            </visugpx:TrkExtension>
        </extensions>
      </trkpt>
      <trkpt lat="45.04734" lon="3.64892">
        <ele>1256.5</ele>
      </trkpt>
      <trkpt lat="45.04726" lon="3.64894">
        <ele>1255.2</ele>
      </trkpt>
      <trkpt lat="45.04716" lon="3.64903">
        <ele>1254.3</ele>
      </trkpt>
      <trkpt lat="45.04691" lon="3.64924">
        <ele>1251</ele>
      </trkpt>
      <trkpt lat="45.04666" lon="3.64944">
        <ele>1247.9</ele>
      </trkpt>
      <trkpt lat="45.04652" lon="3.64956">
        <ele>1246.9</ele>
      </trkpt>
      <trkpt lat="45.04624" lon="3.64972">
        <ele>1243.8</ele>
      </trkpt>
      <trkpt lat="45.04621" lon="3.64974">
        <ele>1243.6</ele>
        <extensions>
          <visugpx:TrkExtension xmlns:visugpx="https://www.visugpx.com/editgpx/">
            <visugpx:node>3</visugpx:node>
            </visugpx:TrkExtension>
        </extensions>
      </trkpt>
      <trkpt lat="45.04619" lon="3.64975">
        <ele>1243.3</ele>
      </trkpt>
      <trkpt lat="45.04613" lon="3.64975">
        <ele>1242.5</ele>
      </trkpt>
      <trkpt lat="45.04608" lon="3.64972">
        <ele>1241.6</ele>
      </trkpt>
      <trkpt lat="45.04607" lon="3.64968">
        <ele>1241.3</ele>
      </trkpt>
      <trkpt lat="45.04608" lon="3.6496">
        <ele>1240.8</ele>
      </trkpt>
      <trkpt lat="45.04611" lon="3.64938">
        <ele>1239.5</ele>
      </trkpt>
      <trkpt lat="45.04613" lon="3.64928">
        <ele>1239</ele>
      </trkpt>
      <trkpt lat="45.0462" lon="3.64895">
        <ele>1237.2</ele>
      </trkpt>
      <trkpt lat="45.04628" lon="3.64855">
        <ele>1233.3</ele>
      </trkpt>
      <trkpt lat="45.04633" lon="3.64834">
        <ele>1231.6</ele>
      </trkpt>
      <trkpt lat="45.04635" lon="3.64825">
        <ele>1230.8</ele>
      </trkpt>
      <trkpt lat="45.04634" lon="3.64819">
        <ele>1230.1</ele>
      </trkpt>
      <trkpt lat="45.04631" lon="3.64814">
        <ele>1229.3</ele>
      </trkpt>
      <trkpt lat="45.04626" lon="3.64813">
        <ele>1228.9</ele>
      </trkpt>
      <trkpt lat="45.04612" lon="3.64816">
        <ele>1228.2</ele>
      </trkpt>
      <trkpt lat="45.04598" lon="3.64819">
        <ele>1227</ele>
      </trkpt>
      <trkpt lat="45.04585" lon="3.64819">
        <ele>1225.6</ele>
      </trkpt>
      <trkpt lat="45.04576" lon="3.64819">
        <ele>1224.8</ele>
      </trkpt>
      <trkpt lat="45.04556" lon="3.64814">
        <ele>1222.6</ele>
      </trkpt>
      <trkpt lat="45.04537" lon="3.64812">
        <ele>1220.5</ele>
      </trkpt>
      <trkpt lat="45.04513" lon="3.6481">
        <ele>1218.3</ele>
      </trkpt>
      <trkpt lat="45.04496" lon="3.64812">
        <ele>1217</ele>
      </trkpt>
      <trkpt lat="45.04483" lon="3.64815">
        <ele>1215.6</ele>
      </trkpt>
      <trkpt lat="45.04475" lon="3.6482">
        <ele>1214.9</ele>
      </trkpt>
      <trkpt lat="45.04467" lon="3.64829">
        <ele>1213.9</ele>
      </trkpt>
      <trkpt lat="45.04458" lon="3.64846">
        <ele>1212.7</ele>
      </trkpt>
      <trkpt lat="45.04454" lon="3.64858">
        <ele>1212</ele>
      </trkpt>
      <trkpt lat="45.04447" lon="3.64861">
        <ele>1210.6</ele>
        <extensions>
          <visugpx:TrkExtension xmlns:visugpx="https://www.visugpx.com/editgpx/">
            <visugpx:node>2</visugpx:node>
            </visugpx:TrkExtension>
        </extensions>
      </trkpt>
      <trkpt lat="45.04446" lon="3.64862">
        <ele>1210.4</ele>
      </trkpt>
      <trkpt lat="45.0443" lon="3.64863">
        <ele>1209</ele>
      </trkpt>
      <trkpt lat="45.04408" lon="3.64867">
        <ele>1207.7</ele>
      </trkpt>
      <trkpt lat="45.044" lon="3.6487">
        <ele>1207.55</ele>
        <time>2024-09-29T11:42:39Z</time>
        <extensions>
          <visugpx:TrkExtension xmlns:visugpx="https://www.visugpx.com/editgpx/">
            <visugpx:node>1</visugpx:node>
            </visugpx:TrkExtension>
        </extensions>
      </trkpt>
      <trkpt lat="45.04398" lon="3.6487">
        <ele>1207.55</ele>
        <time>2024-09-29T11:42:15Z</time>
      </trkpt>
      <trkpt lat="45.04396" lon="3.64871">
        <ele>1207.07</ele>
        <time>2024-09-29T11:41:49Z</time>
      </trkpt>
      <trkpt lat="45.04397" lon="3.64873">
        <ele>1209.48</ele>
        <time>2024-09-29T11:41:25Z</time>
      </trkpt>
      <trkpt lat="45.04396" lon="3.64869">
        <ele>1212.84</ele>
        <time>2024-09-29T11:41:05Z</time>
      </trkpt>
      <trkpt lat="45.04392" lon="3.64854">
        <ele>1217.65</ele>
        <time>2024-09-29T11:40:45Z</time>
      </trkpt>
      <trkpt lat="45.04395" lon="3.64864">
        <ele>1220.05</ele>
        <time>2024-09-29T11:40:18Z</time>
      </trkpt>
      <trkpt lat="45.04403" lon="3.64866">
        <ele>1220.53</ele>
        <time>2024-09-29T11:39:49Z</time>
      </trkpt>
      <trkpt lat="45.0441" lon="3.64843">
        <ele>1218.61</ele>
        <time>2024-09-29T11:39:29Z</time>
      </trkpt>
      <trkpt lat="45.04428" lon="3.648">
        <ele>1218.13</ele>
        <time>2024-09-29T11:39:05Z</time>
      </trkpt>
      <trkpt lat="45.04444" lon="3.64764">
        <ele>1220.05</ele>
        <time>2024-09-29T11:38:45Z</time>
      </trkpt>
      <trkpt lat="45.04457" lon="3.64726">
        <ele>1217.17</ele>
        <time>2024-09-29T11:38:22Z</time>
      </trkpt>
      <trkpt lat="45.04474" lon="3.6469">
        <ele>1215.72</ele>
        <time>2024-09-29T11:37:59Z</time>
      </trkpt>
      <trkpt lat="45.04495" lon="3.64656">
        <ele>1214.28</ele>
        <time>2024-09-29T11:37:38Z</time>
      </trkpt>
      <trkpt lat="45.04515" lon="3.64626">
        <ele>1215.24</ele>
        <time>2024-09-29T11:37:15Z</time>
      </trkpt>
      <trkpt lat="45.04539" lon="3.64589">
        <ele>1217.65</ele>
        <time>2024-09-29T11:36:50Z</time>
      </trkpt>
      <trkpt lat="45.0456" lon="3.64556">
        <ele>1218.13</ele>
        <time>2024-09-29T11:36:29Z</time>
      </trkpt>
      <trkpt lat="45.04589" lon="3.64523">
        <ele>1218.13</ele>
        <time>2024-09-29T11:36:05Z</time>
      </trkpt>
      <trkpt lat="45.04593" lon="3.64517">
        <ele>1218.13</ele>
        <time>2024-09-29T11:36:00Z</time>
      </trkpt>
      <trkpt lat="45.04622" lon="3.64482">
        <ele>1216.21</ele>
        <time>2024-09-29T11:35:34Z</time>
      </trkpt>
      <trkpt lat="45.04648" lon="3.64451">
        <ele>1214.76</ele>
        <time>2024-09-29T11:35:13Z</time>
      </trkpt>
      <trkpt lat="45.04656" lon="3.64415">
        <ele>1209</ele>
        <time>2024-09-29T11:34:52Z</time>
      </trkpt>
      <trkpt lat="45.0467" lon="3.64366">
        <ele>1201.3</ele>
        <time>2024-09-29T11:34:27Z</time>
      </trkpt>
      <trkpt lat="45.04683" lon="3.64341">
        <ele>1196.5</ele>
        <time>2024-09-29T11:34:06Z</time>
      </trkpt>
      <trkpt lat="45.04692" lon="3.64305">
        <ele>1193.13</ele>
        <time>2024-09-29T11:33:48Z</time>
      </trkpt>
      <trkpt lat="45.04697" lon="3.64265">
        <ele>1189.29</ele>
        <time>2024-09-29T11:33:26Z</time>
      </trkpt>
      <trkpt lat="45.04701" lon="3.64223">
        <ele>1184.48</ele>
        <time>2024-09-29T11:33:07Z</time>
      </trkpt>
      <trkpt lat="45.0471" lon="3.64191">
        <ele>1177.75</ele>
        <time>2024-09-29T11:32:44Z</time>
      </trkpt>
      <trkpt lat="45.04716" lon="3.64159">
        <ele>1173.43</ele>
        <time>2024-09-29T11:32:26Z</time>
      </trkpt>
      <trkpt lat="45.04729" lon="3.64129">
        <ele>1170.06</ele>
        <time>2024-09-29T11:32:06Z</time>
      </trkpt>
      <trkpt lat="45.04725" lon="3.64067">
        <ele>1181.12</ele>
        <time>2024-09-29T11:31:41Z</time>
      </trkpt>
      <trkpt lat="45.04716" lon="3.64046">
        <ele>1185.92</ele>
        <time>2024-09-29T11:31:32Z</time>
      </trkpt>
      <trkpt lat="45.04697" lon="3.64041">
        <ele>1192.17</ele>
        <time>2024-09-29T11:31:22Z</time>
      </trkpt>
      <trkpt lat="45.04662" lon="3.6405">
        <ele>1188.33</ele>
        <time>2024-09-29T11:31:00Z</time>
      </trkpt>
      <trkpt lat="45.04625" lon="3.64063">
        <ele>1182.56</ele>
        <time>2024-09-29T11:30:34Z</time>
      </trkpt>
      <trkpt lat="45.04593" lon="3.64064">
        <ele>1182.08</ele>
        <time>2024-09-29T11:30:14Z</time>
      </trkpt>
      <trkpt lat="45.04564" lon="3.64068">
        <ele>1176.31</ele>
        <time>2024-09-29T11:29:54Z</time>
      </trkpt>
      <trkpt lat="45.04532" lon="3.64082">
        <ele>1168.14</ele>
        <time>2024-09-29T11:29:29Z</time>
      </trkpt>
      <trkpt lat="45.04529" lon="3.64084">
        <ele>1167.18</ele>
        <time>2024-09-29T11:29:27Z</time>
      </trkpt>
      <trkpt lat="45.04511" lon="3.64085">
        <ele>1159.01</ele>
        <time>2024-09-29T11:29:06Z</time>
      </trkpt>
      <trkpt lat="45.04507" lon="3.64062">
        <ele>1153.72</ele>
        <time>2024-09-29T11:28:46Z</time>
      </trkpt>
      <trkpt lat="45.0451" lon="3.64031">
        <ele>1149.39</ele>
        <time>2024-09-29T11:28:25Z</time>
      </trkpt>
      <trkpt lat="45.04516" lon="3.63982">
        <ele>1148.91</ele>
        <time>2024-09-29T11:28:03Z</time>
      </trkpt>
      <trkpt lat="45.04524" lon="3.63947">
        <ele>1145.55</ele>
        <time>2024-09-29T11:27:40Z</time>
      </trkpt>
      <trkpt lat="45.04539" lon="3.63904">
        <ele>1146.99</ele>
        <time>2024-09-29T11:27:16Z</time>
      </trkpt>
      <trkpt lat="45.04551" lon="3.63873">
        <ele>1145.55</ele>
        <time>2024-09-29T11:26:55Z</time>
      </trkpt>
      <trkpt lat="45.04573" lon="3.63839">
        <ele>1143.63</ele>
        <time>2024-09-29T11:26:32Z</time>
      </trkpt>
      <trkpt lat="45.04587" lon="3.63794">
        <ele>1141.22</ele>
        <time>2024-09-29T11:26:06Z</time>
      </trkpt>
      <trkpt lat="45.046" lon="3.63759">
        <ele>1137.38</ele>
        <time>2024-09-29T11:25:46Z</time>
      </trkpt>
      <trkpt lat="45.04612" lon="3.63724">
        <ele>1134.97</ele>
        <time>2024-09-29T11:25:26Z</time>
      </trkpt>
      <trkpt lat="45.04619" lon="3.63696">
        <ele>1132.09</ele>
        <time>2024-09-29T11:25:11Z</time>
      </trkpt>
      <trkpt lat="45.04633" lon="3.63656">
        <ele>1130.17</ele>
        <time>2024-09-29T11:24:47Z</time>
      </trkpt>
      <trkpt lat="45.04645" lon="3.63618">
        <ele>1129.21</ele>
        <time>2024-09-29T11:24:25Z</time>
      </trkpt>
      <trkpt lat="45.04647" lon="3.63589">
        <ele>1124.88</ele>
        <time>2024-09-29T11:24:09Z</time>
      </trkpt>
      <trkpt lat="45.04647" lon="3.63567">
        <ele>1119.59</ele>
        <time>2024-09-29T11:23:52Z</time>
      </trkpt>
      <trkpt lat="45.04657" lon="3.63549">
        <ele>1114.79</ele>
        <time>2024-09-29T11:23:32Z</time>
      </trkpt>
      <trkpt lat="45.04671" lon="3.63517">
        <ele>1110.46</ele>
        <time>2024-09-29T11:23:10Z</time>
      </trkpt>
      <trkpt lat="45.0468" lon="3.63477">
        <ele>1106.61</ele>
        <time>2024-09-29T11:22:46Z</time>
      </trkpt>
      <trkpt lat="45.04678" lon="3.63438">
        <ele>1102.77</ele>
        <time>2024-09-29T11:22:25Z</time>
      </trkpt>
      <trkpt lat="45.04678" lon="3.63405">
        <ele>1099.4</ele>
        <time>2024-09-29T11:22:10Z</time>
      </trkpt>
      <trkpt lat="45.04673" lon="3.63365">
        <ele>1094.6</ele>
        <time>2024-09-29T11:21:47Z</time>
      </trkpt>
      <trkpt lat="45.04673" lon="3.6333">
        <ele>1089.79</ele>
        <time>2024-09-29T11:21:27Z</time>
      </trkpt>
      <trkpt lat="45.04674" lon="3.63329">
        <ele>1089.31</ele>
        <time>2024-09-29T11:21:26Z</time>
      </trkpt>
      <trkpt lat="45.04675" lon="3.63327">
        <ele>1089.31</ele>
        <time>2024-09-29T11:21:25Z</time>
      </trkpt>
      <trkpt lat="45.04676" lon="3.63325">
        <ele>1089.31</ele>
        <time>2024-09-29T11:21:24Z</time>
      </trkpt>
      <trkpt lat="45.04679" lon="3.63291">
        <ele>1085.95</ele>
        <time>2024-09-29T11:21:06Z</time>
      </trkpt>
      <trkpt lat="45.04684" lon="3.63256">
        <ele>1084.02</ele>
        <time>2024-09-29T11:20:48Z</time>
      </trkpt>
      <trkpt lat="45.04685" lon="3.63216">
        <ele>1079.7</ele>
        <time>2024-09-29T11:20:27Z</time>
      </trkpt>
      <trkpt lat="45.04676" lon="3.63182">
        <ele>1076.81</ele>
        <time>2024-09-29T11:20:09Z</time>
      </trkpt>
      <trkpt lat="45.0467" lon="3.63155">
        <ele>1074.89</ele>
        <time>2024-09-29T11:19:55Z</time>
      </trkpt>
      <trkpt lat="45.04666" lon="3.63119">
        <ele>1071.53</ele>
        <time>2024-09-29T11:19:33Z</time>
      </trkpt>
      <trkpt lat="45.04665" lon="3.63078">
        <ele>1068.64</ele>
        <time>2024-09-29T11:19:10Z</time>
      </trkpt>
      <trkpt lat="45.04665" lon="3.63076">
        <ele>1068.64</ele>
        <time>2024-09-29T11:19:09Z</time>
      </trkpt>
      <trkpt lat="45.04665" lon="3.63074">
        <ele>1068.16</ele>
        <time>2024-09-29T11:19:08Z</time>
      </trkpt>
      <trkpt lat="45.04666" lon="3.63071">
        <ele>1068.16</ele>
        <time>2024-09-29T11:19:07Z</time>
      </trkpt>
      <trkpt lat="45.04666" lon="3.63069">
        <ele>1068.16</ele>
        <time>2024-09-29T11:19:06Z</time>
      </trkpt>
      <trkpt lat="45.04657" lon="3.63048">
        <ele>1066.24</ele>
        <time>2024-09-29T11:18:52Z</time>
      </trkpt>
      <trkpt lat="45.04645" lon="3.63017">
        <ele>1064.8</ele>
        <time>2024-09-29T11:18:32Z</time>
      </trkpt>
      <trkpt lat="45.04643" lon="3.63013">
        <ele>1064.8</ele>
        <time>2024-09-29T11:18:29Z</time>
      </trkpt>
      <trkpt lat="45.04635" lon="3.62982">
        <ele>1063.36</ele>
        <time>2024-09-29T11:18:09Z</time>
      </trkpt>
      <trkpt lat="45.04628" lon="3.62948">
        <ele>1059.03</ele>
        <time>2024-09-29T11:17:46Z</time>
      </trkpt>
      <trkpt lat="45.04626" lon="3.62912">
        <ele>1054.22</ele>
        <time>2024-09-29T11:17:26Z</time>
      </trkpt>
      <trkpt lat="45.04612" lon="3.62886">
        <ele>1050.38</ele>
        <time>2024-09-29T11:17:08Z</time>
      </trkpt>
      <trkpt lat="45.04587" lon="3.62861">
        <ele>1049.42</ele>
        <time>2024-09-29T11:16:47Z</time>
      </trkpt>
      <trkpt lat="45.04561" lon="3.6285">
        <ele>1043.65</ele>
        <time>2024-09-29T11:16:24Z</time>
      </trkpt>
      <trkpt lat="45.04543" lon="3.62832">
        <ele>1039.8</ele>
        <time>2024-09-29T11:16:05Z</time>
      </trkpt>
      <trkpt lat="45.04532" lon="3.6282">
        <ele>1037.88</ele>
        <time>2024-09-29T11:15:54Z</time>
      </trkpt>
      <trkpt lat="45.04524" lon="3.62793">
        <ele>1036.44</ele>
        <time>2024-09-29T11:15:36Z</time>
      </trkpt>
      <trkpt lat="45.04513" lon="3.62763">
        <ele>1034.04</ele>
        <time>2024-09-29T11:15:15Z</time>
      </trkpt>
      <trkpt lat="45.04505" lon="3.6273">
        <ele>1031.63</ele>
        <time>2024-09-29T11:14:53Z</time>
      </trkpt>
      <trkpt lat="45.04503" lon="3.62696">
        <ele>1028.27</ele>
        <time>2024-09-29T11:14:32Z</time>
      </trkpt>
      <trkpt lat="45.04501" lon="3.62689">
        <ele>1027.31</ele>
        <time>2024-09-29T11:14:28Z</time>
      </trkpt>
      <trkpt lat="45.04501" lon="3.62655">
        <ele>1020.58</ele>
        <time>2024-09-29T11:14:07Z</time>
      </trkpt>
      <trkpt lat="45.04499" lon="3.6262">
        <ele>1014.33</ele>
        <time>2024-09-29T11:13:47Z</time>
      </trkpt>
      <trkpt lat="45.04487" lon="3.62595">
        <ele>1012.41</ele>
        <time>2024-09-29T11:13:27Z</time>
      </trkpt>
      <trkpt lat="45.04483" lon="3.62566">
        <ele>1010.48</ele>
        <time>2024-09-29T11:13:10Z</time>
      </trkpt>
      <trkpt lat="45.04504" lon="3.62538">
        <ele>1009.52</ele>
        <time>2024-09-29T11:12:49Z</time>
      </trkpt>
      <trkpt lat="45.04516" lon="3.62508">
        <ele>1010</ele>
        <time>2024-09-29T11:12:27Z</time>
      </trkpt>
      <trkpt lat="45.04533" lon="3.62484">
        <ele>1014.81</ele>
        <time>2024-09-29T11:12:06Z</time>
      </trkpt>
      <trkpt lat="45.04537" lon="3.62482">
        <ele>1016.25</ele>
        <time>2024-09-29T11:12:01Z</time>
      </trkpt>
      <trkpt lat="45.04554" lon="3.62487">
        <ele>1021.06</ele>
        <time>2024-09-29T11:11:43Z</time>
      </trkpt>
      <trkpt lat="45.04566" lon="3.62487">
        <ele>1021.06</ele>
        <time>2024-09-29T11:11:35Z</time>
      </trkpt>
      <trkpt lat="45.04593" lon="3.6247">
        <ele>1020.58</ele>
        <time>2024-09-29T11:11:15Z</time>
      </trkpt>
      <trkpt lat="45.04613" lon="3.62451">
        <ele>1019.13</ele>
        <time>2024-09-29T11:10:56Z</time>
      </trkpt>
      <trkpt lat="45.04623" lon="3.62424">
        <ele>1016.73</ele>
        <time>2024-09-29T11:10:35Z</time>
      </trkpt>
      <trkpt lat="45.04621" lon="3.62393">
        <ele>1012.41</ele>
        <time>2024-09-29T11:10:16Z</time>
      </trkpt>
      <trkpt lat="45.04614" lon="3.62367">
        <ele>1010.48</ele>
        <time>2024-09-29T11:10:01Z</time>
      </trkpt>
      <trkpt lat="45.04593" lon="3.62345">
        <ele>1003.75</ele>
        <time>2024-09-29T11:09:38Z</time>
      </trkpt>
      <trkpt lat="45.04565" lon="3.62328">
        <ele>1000.87</ele>
        <time>2024-09-29T11:09:12Z</time>
      </trkpt>
      <trkpt lat="45.04542" lon="3.62303">
        <ele>997.51</ele>
        <time>2024-09-29T11:08:46Z</time>
      </trkpt>
      <trkpt lat="45.04529" lon="3.62269">
        <ele>994.14</ele>
        <time>2024-09-29T11:08:21Z</time>
      </trkpt>
      <trkpt lat="45.04518" lon="3.62237">
        <ele>993.18</ele>
        <time>2024-09-29T11:08:00Z</time>
      </trkpt>
      <trkpt lat="45.04515" lon="3.62208">
        <ele>991.74</ele>
        <time>2024-09-29T11:07:41Z</time>
      </trkpt>
      <trkpt lat="45.04506" lon="3.62172">
        <ele>988.37</ele>
        <time>2024-09-29T11:07:20Z</time>
      </trkpt>
      <trkpt lat="45.04505" lon="3.62137">
        <ele>986.93</ele>
        <time>2024-09-29T11:07:01Z</time>
      </trkpt>
      <trkpt lat="45.04497" lon="3.62097">
        <ele>981.64</ele>
        <time>2024-09-29T11:06:36Z</time>
      </trkpt>
      <trkpt lat="45.04492" lon="3.62058">
        <ele>974.43</ele>
        <time>2024-09-29T11:06:14Z</time>
      </trkpt>
      <trkpt lat="45.0449" lon="3.62022">
        <ele>972.03</ele>
        <time>2024-09-29T11:05:54Z</time>
      </trkpt>
      <trkpt lat="45.04495" lon="3.61985">
        <ele>969.63</ele>
        <time>2024-09-29T11:05:33Z</time>
      </trkpt>
      <trkpt lat="45.0451" lon="3.61964">
        <ele>966.26</ele>
        <time>2024-09-29T11:05:13Z</time>
      </trkpt>
      <trkpt lat="45.04508" lon="3.61927">
        <ele>962.9</ele>
        <time>2024-09-29T11:04:52Z</time>
      </trkpt>
      <trkpt lat="45.04497" lon="3.61894">
        <ele>957.61</ele>
        <time>2024-09-29T11:04:31Z</time>
      </trkpt>
      <trkpt lat="45.04481" lon="3.61863">
        <ele>951.36</ele>
        <time>2024-09-29T11:04:09Z</time>
      </trkpt>
      <trkpt lat="45.0448" lon="3.61828">
        <ele>950.88</ele>
        <time>2024-09-29T11:03:49Z</time>
      </trkpt>
      <trkpt lat="45.04484" lon="3.61795">
        <ele>950.88</ele>
        <time>2024-09-29T11:03:31Z</time>
      </trkpt>
      <trkpt lat="45.04485" lon="3.61782">
        <ele>950.88</ele>
        <time>2024-09-29T11:03:22Z</time>
      </trkpt>
      <trkpt lat="45.04507" lon="3.61791">
        <ele>955.21</ele>
        <time>2024-09-29T11:03:02Z</time>
      </trkpt>
      <trkpt lat="45.04527" lon="3.6183">
        <ele>955.69</ele>
        <time>2024-09-29T11:02:38Z</time>
      </trkpt>
      <trkpt lat="45.04532" lon="3.61849">
        <ele>954.73</ele>
        <time>2024-09-29T11:02:29Z</time>
      </trkpt>
      <trkpt lat="45.0455" lon="3.61881">
        <ele>955.21</ele>
        <time>2024-09-29T11:02:06Z</time>
      </trkpt>
      <trkpt lat="45.04576" lon="3.61899">
        <ele>955.21</ele>
        <time>2024-09-29T11:01:47Z</time>
      </trkpt>
      <trkpt lat="45.046" lon="3.6191">
        <ele>956.17</ele>
        <time>2024-09-29T11:01:30Z</time>
      </trkpt>
      <trkpt lat="45.04625" lon="3.61912">
        <ele>957.13</ele>
        <time>2024-09-29T11:01:11Z</time>
      </trkpt>
      <trkpt lat="45.04627" lon="3.61912">
        <ele>957.13</ele>
        <time>2024-09-29T11:01:09Z</time>
      </trkpt>
      <trkpt lat="45.04657" lon="3.61919">
        <ele>955.21</ele>
        <time>2024-09-29T11:00:46Z</time>
      </trkpt>
      <trkpt lat="45.04677" lon="3.6192">
        <ele>954.73</ele>
        <time>2024-09-29T11:00:34Z</time>
      </trkpt>
      <trkpt lat="45.04705" lon="3.61914">
        <ele>953.77</ele>
        <time>2024-09-29T11:00:15Z</time>
      </trkpt>
      <trkpt lat="45.04716" lon="3.61881">
        <ele>955.69</ele>
        <time>2024-09-29T10:59:55Z</time>
      </trkpt>
      <trkpt lat="45.04719" lon="3.6187">
        <ele>956.17</ele>
        <time>2024-09-29T10:59:49Z</time>
      </trkpt>
      <trkpt lat="45.04728" lon="3.61831">
        <ele>960.49</ele>
        <time>2024-09-29T10:59:28Z</time>
      </trkpt>
      <trkpt lat="45.04726" lon="3.61829">
        <ele>960.49</ele>
        <time>2024-09-29T10:59:27Z</time>
      </trkpt>
      <trkpt lat="45.04725" lon="3.61828">
        <ele>960.49</ele>
        <time>2024-09-29T10:59:26Z</time>
      </trkpt>
      <trkpt lat="45.04715" lon="3.61815">
        <ele>963.38</ele>
        <time>2024-09-29T10:59:16Z</time>
      </trkpt>
      <trkpt lat="45.0472" lon="3.61823">
        <ele>972.03</ele>
        <time>2024-09-29T10:58:58Z</time>
      </trkpt>
      <trkpt lat="45.04739" lon="3.61835">
        <ele>972.99</ele>
        <time>2024-09-29T10:58:39Z</time>
      </trkpt>
      <trkpt lat="45.0475" lon="3.61847">
        <ele>973.95</ele>
        <time>2024-09-29T10:58:25Z</time>
      </trkpt>
      <trkpt lat="45.04768" lon="3.61854">
        <ele>976.36</ele>
        <time>2024-09-29T10:58:08Z</time>
      </trkpt>
      <trkpt lat="45.04773" lon="3.61829">
        <ele>978.28</ele>
        <time>2024-09-29T10:57:51Z</time>
      </trkpt>
      <trkpt lat="45.04768" lon="3.6183">
        <ele>982.12</ele>
        <time>2024-09-29T10:57:40Z</time>
      </trkpt>
      <trkpt lat="45.04782" lon="3.61846">
        <ele>985.01</ele>
        <time>2024-09-29T10:57:20Z</time>
      </trkpt>
      <trkpt lat="45.04816" lon="3.61859">
        <ele>982.6</ele>
        <time>2024-09-29T10:56:54Z</time>
      </trkpt>
      <trkpt lat="45.04818" lon="3.6186">
        <ele>982.6</ele>
        <time>2024-09-29T10:56:53Z</time>
      </trkpt>
      <trkpt lat="45.04827" lon="3.61868">
        <ele>981.64</ele>
        <time>2024-09-29T10:56:44Z</time>
      </trkpt>
      <trkpt lat="45.0483" lon="3.6187">
        <ele>981.64</ele>
        <time>2024-09-29T10:56:35Z</time>
      </trkpt>
      <trkpt lat="45.04834" lon="3.61872">
        <ele>982.12</ele>
        <time>2024-09-29T10:56:13Z</time>
      </trkpt>
      <trkpt lat="45.0485" lon="3.61842">
        <ele>984.05</ele>
        <time>2024-09-29T10:55:53Z</time>
      </trkpt>
      <trkpt lat="45.04869" lon="3.61817">
        <ele>981.16</ele>
        <time>2024-09-29T10:55:34Z</time>
      </trkpt>
      <trkpt lat="45.04888" lon="3.61792">
        <ele>979.24</ele>
        <time>2024-09-29T10:55:11Z</time>
      </trkpt>
      <trkpt lat="45.04902" lon="3.61764">
        <ele>977.32</ele>
        <time>2024-09-29T10:54:52Z</time>
      </trkpt>
      <trkpt lat="45.04911" lon="3.61737">
        <ele>972.99</ele>
        <time>2024-09-29T10:54:31Z</time>
      </trkpt>
      <trkpt lat="45.04933" lon="3.61707">
        <ele>970.11</ele>
        <time>2024-09-29T10:54:06Z</time>
      </trkpt>
      <trkpt lat="45.04958" lon="3.61676">
        <ele>966.26</ele>
        <time>2024-09-29T10:53:40Z</time>
      </trkpt>
      <trkpt lat="45.04974" lon="3.61645">
        <ele>962.9</ele>
        <time>2024-09-29T10:53:15Z</time>
      </trkpt>
      <trkpt lat="45.04994" lon="3.61608">
        <ele>961.94</ele>
        <time>2024-09-29T10:52:48Z</time>
      </trkpt>
      <trkpt lat="45.05007" lon="3.61576">
        <ele>960.49</ele>
        <time>2024-09-29T10:52:27Z</time>
      </trkpt>
      <trkpt lat="45.05021" lon="3.61546">
        <ele>959.05</ele>
        <time>2024-09-29T10:52:07Z</time>
      </trkpt>
      <trkpt lat="45.05033" lon="3.61521">
        <ele>959.05</ele>
        <time>2024-09-29T10:51:52Z</time>
      </trkpt>
      <trkpt lat="45.05047" lon="3.61494">
        <ele>956.17</ele>
        <time>2024-09-29T10:51:32Z</time>
      </trkpt>
      <trkpt lat="45.05063" lon="3.6147">
        <ele>952.32</ele>
        <time>2024-09-29T10:51:13Z</time>
      </trkpt>
      <trkpt lat="45.05074" lon="3.61447">
        <ele>948</ele>
        <time>2024-09-29T10:50:57Z</time>
      </trkpt>
      <trkpt lat="45.05081" lon="3.61438">
        <ele>946.56</ele>
        <time>2024-09-29T10:50:42Z</time>
      </trkpt>
      <trkpt lat="45.05099" lon="3.61426">
        <ele>943.19</ele>
        <time>2024-09-29T10:50:24Z</time>
      </trkpt>
      <trkpt lat="45.05113" lon="3.61411">
        <ele>940.31</ele>
        <time>2024-09-29T10:50:09Z</time>
      </trkpt>
      <trkpt lat="45.05134" lon="3.6141">
        <ele>936.46</ele>
        <time>2024-09-29T10:49:53Z</time>
      </trkpt>
      <trkpt lat="45.05136" lon="3.6141">
        <ele>936.46</ele>
        <time>2024-09-29T10:49:52Z</time>
      </trkpt>
      <trkpt lat="45.05137" lon="3.61409">
        <ele>936.46</ele>
        <time>2024-09-29T10:49:51Z</time>
      </trkpt>
      <trkpt lat="45.05144" lon="3.61404">
        <ele>936.46</ele>
        <time>2024-09-29T10:49:46Z</time>
      </trkpt>
      <trkpt lat="45.05137" lon="3.61371">
        <ele>935.02</ele>
        <time>2024-09-29T10:49:28Z</time>
      </trkpt>
      <trkpt lat="45.05126" lon="3.61352">
        <ele>932.14</ele>
        <time>2024-09-29T10:49:13Z</time>
      </trkpt>
      <trkpt lat="45.05125" lon="3.61351">
        <ele>932.14</ele>
        <time>2024-09-29T10:49:12Z</time>
      </trkpt>
      <trkpt lat="45.05131" lon="3.61342">
        <ele>932.14</ele>
        <time>2024-09-29T10:49:03Z</time>
      </trkpt>
      <trkpt lat="45.05152" lon="3.6134">
        <ele>931.17</ele>
        <time>2024-09-29T10:48:47Z</time>
      </trkpt>
      <trkpt lat="45.05173" lon="3.61342">
        <ele>928.77</ele>
        <time>2024-09-29T10:48:33Z</time>
      </trkpt>
      <trkpt lat="45.0518" lon="3.61339">
        <ele>926.85</ele>
        <time>2024-09-29T10:48:28Z</time>
      </trkpt>
      <trkpt lat="45.0519" lon="3.61316">
        <ele>920.6</ele>
        <time>2024-09-29T10:48:16Z</time>
      </trkpt>
      <trkpt lat="45.05197" lon="3.61288">
        <ele>916.75</ele>
        <time>2024-09-29T10:47:58Z</time>
      </trkpt>
      <trkpt lat="45.05206" lon="3.61263">
        <ele>910.03</ele>
        <time>2024-09-29T10:47:39Z</time>
      </trkpt>
      <trkpt lat="45.05218" lon="3.61253">
        <ele>906.18</ele>
        <time>2024-09-29T10:47:27Z</time>
      </trkpt>
      <trkpt lat="45.05241" lon="3.61236">
        <ele>900.41</ele>
        <time>2024-09-29T10:47:10Z</time>
      </trkpt>
      <trkpt lat="45.05248" lon="3.61229">
        <ele>896.57</ele>
        <time>2024-09-29T10:46:54Z</time>
      </trkpt>
      <trkpt lat="45.05262" lon="3.61203">
        <ele>890.8</ele>
        <time>2024-09-29T10:46:36Z</time>
      </trkpt>
      <trkpt lat="45.05255" lon="3.61171">
        <ele>890.8</ele>
        <time>2024-09-29T10:46:21Z</time>
      </trkpt>
      <trkpt lat="45.05237" lon="3.61156">
        <ele>889.36</ele>
        <time>2024-09-29T10:46:06Z</time>
      </trkpt>
      <trkpt lat="45.0522" lon="3.6115">
        <ele>886.47</ele>
        <time>2024-09-29T10:45:53Z</time>
      </trkpt>
      <trkpt lat="45.052" lon="3.61146">
        <ele>883.11</ele>
        <time>2024-09-29T10:45:40Z</time>
      </trkpt>
      <trkpt lat="45.05177" lon="3.61144">
        <ele>880.71</ele>
        <time>2024-09-29T10:45:25Z</time>
      </trkpt>
      <trkpt lat="45.05151" lon="3.6113">
        <ele>879.74</ele>
        <time>2024-09-29T10:45:07Z</time>
      </trkpt>
      <trkpt lat="45.0513" lon="3.61116">
        <ele>877.82</ele>
        <time>2024-09-29T10:44:49Z</time>
      </trkpt>
      <trkpt lat="45.05105" lon="3.61096">
        <ele>876.86</ele>
        <time>2024-09-29T10:44:28Z</time>
      </trkpt>
      <trkpt lat="45.05083" lon="3.61073">
        <ele>873.01</ele>
        <time>2024-09-29T10:44:06Z</time>
      </trkpt>
      <trkpt lat="45.05073" lon="3.6105">
        <ele>870.13</ele>
        <time>2024-09-29T10:43:52Z</time>
      </trkpt>
      <trkpt lat="45.05055" lon="3.61028">
        <ele>865.8</ele>
        <time>2024-09-29T10:43:35Z</time>
      </trkpt>
      <trkpt lat="45.05029" lon="3.61012">
        <ele>860.52</ele>
        <time>2024-09-29T10:43:14Z</time>
      </trkpt>
      <trkpt lat="45.05001" lon="3.61002">
        <ele>856.19</ele>
        <time>2024-09-29T10:42:54Z</time>
      </trkpt>
      <trkpt lat="45.04975" lon="3.60996">
        <ele>849.94</ele>
        <time>2024-09-29T10:42:34Z</time>
      </trkpt>
      <trkpt lat="45.0496" lon="3.60987">
        <ele>847.06</ele>
        <time>2024-09-29T10:42:21Z</time>
      </trkpt>
      <trkpt lat="45.04949" lon="3.6095">
        <ele>845.14</ele>
        <time>2024-09-29T10:42:02Z</time>
      </trkpt>
      <trkpt lat="45.04931" lon="3.60923">
        <ele>841.77</ele>
        <time>2024-09-29T10:41:44Z</time>
      </trkpt>
      <trkpt lat="45.04913" lon="3.60909">
        <ele>834.08</ele>
        <time>2024-09-29T10:41:26Z</time>
      </trkpt>
      <trkpt lat="45.04897" lon="3.60897">
        <ele>829.27</ele>
        <time>2024-09-29T10:41:11Z</time>
      </trkpt>
      <trkpt lat="45.04896" lon="3.60896">
        <ele>829.27</ele>
        <time>2024-09-29T10:41:10Z</time>
      </trkpt>
      <trkpt lat="45.04895" lon="3.60895">
        <ele>828.79</ele>
        <time>2024-09-29T10:41:09Z</time>
      </trkpt>
      <trkpt lat="45.04884" lon="3.60884">
        <ele>825.91</ele>
        <time>2024-09-29T10:40:58Z</time>
      </trkpt>
      <trkpt lat="45.04867" lon="3.60866">
        <ele>823.51</ele>
        <time>2024-09-29T10:40:43Z</time>
      </trkpt>
      <trkpt lat="45.04854" lon="3.60854">
        <ele>822.06</ele>
        <time>2024-09-29T10:40:30Z</time>
      </trkpt>
      <trkpt lat="45.04839" lon="3.60875">
        <ele>819.18</ele>
        <time>2024-09-29T10:40:14Z</time>
      </trkpt>
      <trkpt lat="45.04823" lon="3.60895">
        <ele>814.37</ele>
        <time>2024-09-29T10:39:58Z</time>
      </trkpt>
      <trkpt lat="45.04804" lon="3.60885">
        <ele>807.16</ele>
        <time>2024-09-29T10:39:42Z</time>
      </trkpt>
      <trkpt lat="45.04783" lon="3.60866">
        <ele>798.99</ele>
        <time>2024-09-29T10:39:23Z</time>
      </trkpt>
      <trkpt lat="45.04765" lon="3.60848">
        <ele>794.67</ele>
        <time>2024-09-29T10:39:07Z</time>
      </trkpt>
      <trkpt lat="45.04749" lon="3.60824">
        <ele>788.9</ele>
        <time>2024-09-29T10:38:50Z</time>
      </trkpt>
      <trkpt lat="45.04728" lon="3.6079">
        <ele>783.13</ele>
        <time>2024-09-29T10:38:28Z</time>
      </trkpt>
      <trkpt lat="45.04714" lon="3.60765">
        <ele>780.25</ele>
        <time>2024-09-29T10:38:12Z</time>
      </trkpt>
      <trkpt lat="45.04698" lon="3.60733">
        <ele>775.92</ele>
        <time>2024-09-29T10:37:53Z</time>
      </trkpt>
      <trkpt lat="45.04687" lon="3.60705">
        <ele>772.56</ele>
        <time>2024-09-29T10:37:36Z</time>
      </trkpt>
      <trkpt lat="45.04677" lon="3.60671">
        <ele>770.15</ele>
        <time>2024-09-29T10:37:16Z</time>
      </trkpt>
      <trkpt lat="45.04672" lon="3.60648">
        <ele>768.71</ele>
        <time>2024-09-29T10:37:00Z</time>
      </trkpt>
      <trkpt lat="45.04672" lon="3.60646">
        <ele>768.71</ele>
        <time>2024-09-29T10:36:59Z</time>
      </trkpt>
      <trkpt lat="45.04671" lon="3.60644">
        <ele>768.23</ele>
        <time>2024-09-29T10:36:58Z</time>
      </trkpt>
      <trkpt lat="45.04671" lon="3.60643">
        <ele>768.23</ele>
        <time>2024-09-29T10:36:57Z</time>
      </trkpt>
      <trkpt lat="45.0467" lon="3.60641">
        <ele>768.23</ele>
        <time>2024-09-29T10:36:56Z</time>
      </trkpt>
      <trkpt lat="45.0467" lon="3.60639">
        <ele>767.75</ele>
        <time>2024-09-29T10:36:55Z</time>
      </trkpt>
      <trkpt lat="45.0467" lon="3.60637">
        <ele>767.75</ele>
        <time>2024-09-29T10:36:54Z</time>
      </trkpt>
      <trkpt lat="45.0467" lon="3.60635">
        <ele>767.27</ele>
        <time>2024-09-29T10:36:53Z</time>
      </trkpt>
      <trkpt lat="45.04681" lon="3.60625">
        <ele>767.75</ele>
        <time>2024-09-29T10:36:45Z</time>
      </trkpt>
      <trkpt lat="45.04694" lon="3.60612">
        <ele>767.75</ele>
        <time>2024-09-29T10:36:33Z</time>
      </trkpt>
      <trkpt lat="45.04706" lon="3.60586">
        <ele>766.31</ele>
        <time>2024-09-29T10:36:18Z</time>
      </trkpt>
      <trkpt lat="45.04726" lon="3.6055">
        <ele>766.79</ele>
        <time>2024-09-29T10:36:01Z</time>
      </trkpt>
      <trkpt lat="45.04742" lon="3.60519">
        <ele>765.35</ele>
        <time>2024-09-29T10:35:42Z</time>
      </trkpt>
      <trkpt lat="45.04756" lon="3.60487">
        <ele>764.87</ele>
        <time>2024-09-29T10:35:24Z</time>
      </trkpt>
      <trkpt lat="45.04775" lon="3.60451">
        <ele>763.42</ele>
        <time>2024-09-29T10:35:09Z</time>
      </trkpt>
      <trkpt lat="45.04788" lon="3.60421">
        <ele>762.94</ele>
        <time>2024-09-29T10:34:55Z</time>
      </trkpt>
      <trkpt lat="45.04802" lon="3.60383">
        <ele>764.39</ele>
        <time>2024-09-29T10:34:35Z</time>
      </trkpt>
      <trkpt lat="45.04811" lon="3.60354">
        <ele>765.35</ele>
        <time>2024-09-29T10:34:20Z</time>
      </trkpt>
      <trkpt lat="45.04823" lon="3.6032">
        <ele>764.39</ele>
        <time>2024-09-29T10:34:02Z</time>
      </trkpt>
      <trkpt lat="45.04839" lon="3.60288">
        <ele>764.39</ele>
        <time>2024-09-29T10:33:43Z</time>
      </trkpt>
      <trkpt lat="45.04858" lon="3.6026">
        <ele>766.31</ele>
        <time>2024-09-29T10:33:26Z</time>
      </trkpt>
      <trkpt lat="45.0488" lon="3.60228">
        <ele>767.27</ele>
        <time>2024-09-29T10:33:10Z</time>
      </trkpt>
      <trkpt lat="45.04895" lon="3.60206">
        <ele>767.27</ele>
        <time>2024-09-29T10:32:54Z</time>
      </trkpt>
      <trkpt lat="45.04911" lon="3.60176">
        <ele>765.35</ele>
        <time>2024-09-29T10:32:38Z</time>
      </trkpt>
      <trkpt lat="45.04922" lon="3.60145">
        <ele>763.42</ele>
        <time>2024-09-29T10:32:26Z</time>
      </trkpt>
      <trkpt lat="45.04932" lon="3.60106">
        <ele>763.9</ele>
        <time>2024-09-29T10:32:10Z</time>
      </trkpt>
      <trkpt lat="45.0494" lon="3.60079">
        <ele>763.42</ele>
        <time>2024-09-29T10:31:59Z</time>
      </trkpt>
      <trkpt lat="45.04952" lon="3.60048">
        <ele>761.98</ele>
        <time>2024-09-29T10:31:40Z</time>
      </trkpt>
      <trkpt lat="45.04963" lon="3.60019">
        <ele>761.02</ele>
        <time>2024-09-29T10:31:28Z</time>
      </trkpt>
      <trkpt lat="45.04976" lon="3.59992">
        <ele>761.02</ele>
        <time>2024-09-29T10:31:13Z</time>
      </trkpt>
      <trkpt lat="45.04993" lon="3.5997">
        <ele>759.58</ele>
        <time>2024-09-29T10:30:59Z</time>
      </trkpt>
      <trkpt lat="45.05017" lon="3.59951">
        <ele>756.69</ele>
        <time>2024-09-29T10:30:41Z</time>
      </trkpt>
      <trkpt lat="45.05039" lon="3.59947">
        <ele>752.37</ele>
        <time>2024-09-29T10:30:25Z</time>
      </trkpt>
      <trkpt lat="45.05064" lon="3.59957">
        <ele>749.49</ele>
        <time>2024-09-29T10:30:10Z</time>
      </trkpt>
      <trkpt lat="45.05075" lon="3.59962">
        <ele>747.08</ele>
        <time>2024-09-29T10:29:58Z</time>
      </trkpt>
      <trkpt lat="45.05103" lon="3.5996">
        <ele>744.2</ele>
        <time>2024-09-29T10:29:37Z</time>
      </trkpt>
      <trkpt lat="45.05126" lon="3.59957">
        <ele>741.79</ele>
        <time>2024-09-29T10:29:20Z</time>
      </trkpt>
      <trkpt lat="45.0513" lon="3.59957">
        <ele>741.79</ele>
        <time>2024-09-29T10:29:18Z</time>
      </trkpt>
      <trkpt lat="45.05134" lon="3.59949">
        <ele>740.35</ele>
        <time>2024-09-29T10:28:58Z</time>
      </trkpt>
      <trkpt lat="45.0513" lon="3.59957">
        <ele>741.79</ele>
        <time>2024-09-29T10:28:43Z</time>
      </trkpt>
      <trkpt lat="45.05134" lon="3.59953">
        <ele>741.31</ele>
        <time>2024-09-29T10:28:23Z</time>
      </trkpt>
      <trkpt lat="45.0513" lon="3.59924">
        <ele>742.76</ele>
        <time>2024-09-29T10:28:06Z</time>
      </trkpt>
      <trkpt lat="45.05125" lon="3.59891">
        <ele>746.6</ele>
        <time>2024-09-29T10:27:49Z</time>
      </trkpt>
      <trkpt lat="45.05124" lon="3.5987">
        <ele>747.08</ele>
        <time>2024-09-29T10:27:36Z</time>
      </trkpt>
      <trkpt lat="45.05129" lon="3.59841">
        <ele>748.52</ele>
        <time>2024-09-29T10:27:18Z</time>
      </trkpt>
      <trkpt lat="45.05134" lon="3.59803">
        <ele>751.41</ele>
        <time>2024-09-29T10:27:00Z</time>
      </trkpt>
      <trkpt lat="45.05135" lon="3.59769">
        <ele>755.73</ele>
        <time>2024-09-29T10:26:45Z</time>
      </trkpt>
      <trkpt lat="45.05124" lon="3.59739">
        <ele>756.21</ele>
        <time>2024-09-29T10:26:27Z</time>
      </trkpt>
      <trkpt lat="45.05108" lon="3.59709">
        <ele>753.33</ele>
        <time>2024-09-29T10:26:06Z</time>
      </trkpt>
      <trkpt lat="45.05093" lon="3.59684">
        <ele>750.93</ele>
        <time>2024-09-29T10:25:53Z</time>
      </trkpt>
      <trkpt lat="45.05092" lon="3.59682">
        <ele>750.93</ele>
        <time>2024-09-29T10:25:52Z</time>
      </trkpt>
      <trkpt lat="45.05091" lon="3.5968">
        <ele>750.93</ele>
        <time>2024-09-29T10:25:51Z</time>
      </trkpt>
      <trkpt lat="45.05088" lon="3.59669">
        <ele>750.93</ele>
        <time>2024-09-29T10:25:44Z</time>
      </trkpt>
      <trkpt lat="45.05089" lon="3.5964">
        <ele>751.41</ele>
        <time>2024-09-29T10:25:29Z</time>
      </trkpt>
      <trkpt lat="45.05094" lon="3.59603">
        <ele>754.77</ele>
        <time>2024-09-29T10:25:13Z</time>
      </trkpt>
      <trkpt lat="45.05095" lon="3.59602">
        <ele>755.25</ele>
        <time>2024-09-29T10:25:12Z</time>
      </trkpt>
      <trkpt lat="45.05095" lon="3.59601">
        <ele>755.25</ele>
        <time>2024-09-29T10:25:11Z</time>
      </trkpt>
      <trkpt lat="45.05101" lon="3.59601">
        <ele>755.25</ele>
        <time>2024-09-29T10:25:06Z</time>
      </trkpt>
      <trkpt lat="45.0512" lon="3.59621">
        <ele>756.69</ele>
        <time>2024-09-29T10:24:48Z</time>
      </trkpt>
      <trkpt lat="45.05132" lon="3.59643">
        <ele>757.66</ele>
        <time>2024-09-29T10:24:32Z</time>
      </trkpt>
      <trkpt lat="45.05148" lon="3.59663">
        <ele>759.58</ele>
        <time>2024-09-29T10:24:16Z</time>
      </trkpt>
      <trkpt lat="45.05148" lon="3.59664">
        <ele>759.58</ele>
        <time>2024-09-29T10:24:15Z</time>
      </trkpt>
      <trkpt lat="45.05149" lon="3.59666">
        <ele>759.58</ele>
        <time>2024-09-29T10:24:14Z</time>
      </trkpt>
      <trkpt lat="45.05153" lon="3.5967">
        <ele>760.06</ele>
        <time>2024-09-29T10:24:11Z</time>
      </trkpt>
      <trkpt lat="45.05182" lon="3.5969">
        <ele>763.42</ele>
        <time>2024-09-29T10:23:52Z</time>
      </trkpt>
      <trkpt lat="45.05203" lon="3.59671">
        <ele>765.35</ele>
        <time>2024-09-29T10:23:34Z</time>
      </trkpt>
      <trkpt lat="45.05218" lon="3.5964">
        <ele>764.87</ele>
        <time>2024-09-29T10:23:15Z</time>
      </trkpt>
      <trkpt lat="45.05224" lon="3.59606">
        <ele>763.9</ele>
        <time>2024-09-29T10:22:56Z</time>
      </trkpt>
      <trkpt lat="45.05237" lon="3.5958">
        <ele>763.42</ele>
        <time>2024-09-29T10:22:38Z</time>
      </trkpt>
      <trkpt lat="45.0526" lon="3.59562">
        <ele>763.9</ele>
        <time>2024-09-29T10:22:19Z</time>
      </trkpt>
      <trkpt lat="45.05282" lon="3.59553">
        <ele>764.87</ele>
        <time>2024-09-29T10:22:02Z</time>
      </trkpt>
      <trkpt lat="45.05284" lon="3.59553">
        <ele>765.35</ele>
        <time>2024-09-29T10:22:01Z</time>
      </trkpt>
      <trkpt lat="45.05285" lon="3.59553">
        <ele>765.35</ele>
        <time>2024-09-29T10:22:00Z</time>
      </trkpt>
      <trkpt lat="45.05286" lon="3.59554">
        <ele>765.83</ele>
        <time>2024-09-29T10:21:59Z</time>
      </trkpt>
      <trkpt lat="45.05291" lon="3.59581">
        <ele>769.67</ele>
        <time>2024-09-29T10:21:42Z</time>
      </trkpt>
      <trkpt lat="45.05295" lon="3.59613">
        <ele>773.04</ele>
        <time>2024-09-29T10:21:26Z</time>
      </trkpt>
      <trkpt lat="45.05305" lon="3.59648">
        <ele>778.32</ele>
        <time>2024-09-29T10:21:06Z</time>
      </trkpt>
      <trkpt lat="45.05306" lon="3.5965">
        <ele>778.81</ele>
        <time>2024-09-29T10:21:05Z</time>
      </trkpt>
      <trkpt lat="45.05307" lon="3.59652">
        <ele>778.81</ele>
        <time>2024-09-29T10:21:04Z</time>
      </trkpt>
      <trkpt lat="45.05318" lon="3.59676">
        <ele>783.13</ele>
        <time>2024-09-29T10:20:48Z</time>
      </trkpt>
      <trkpt lat="45.05322" lon="3.59705">
        <ele>786.98</ele>
        <time>2024-09-29T10:20:31Z</time>
      </trkpt>
      <trkpt lat="45.05312" lon="3.59739">
        <ele>788.9</ele>
        <time>2024-09-29T10:20:12Z</time>
      </trkpt>
      <trkpt lat="45.05302" lon="3.59776">
        <ele>789.38</ele>
        <time>2024-09-29T10:19:52Z</time>
      </trkpt>
      <trkpt lat="45.05301" lon="3.59814">
        <ele>791.78</ele>
        <time>2024-09-29T10:19:34Z</time>
      </trkpt>
      <trkpt lat="45.05311" lon="3.5984">
        <ele>795.15</ele>
        <time>2024-09-29T10:19:18Z</time>
      </trkpt>
      <trkpt lat="45.05321" lon="3.59855">
        <ele>798.03</ele>
        <time>2024-09-29T10:19:04Z</time>
      </trkpt>
      <trkpt lat="45.05322" lon="3.59857">
        <ele>798.03</ele>
        <time>2024-09-29T10:19:03Z</time>
      </trkpt>
      <trkpt lat="45.05321" lon="3.59869">
        <ele>798.03</ele>
        <time>2024-09-29T10:18:57Z</time>
      </trkpt>
      <trkpt lat="45.05323" lon="3.59898">
        <ele>799.95</ele>
        <time>2024-09-29T10:18:41Z</time>
      </trkpt>
      <trkpt lat="45.05331" lon="3.59931">
        <ele>802.84</ele>
        <time>2024-09-29T10:18:23Z</time>
      </trkpt>
      <trkpt lat="45.0534" lon="3.59964">
        <ele>804.76</ele>
        <time>2024-09-29T10:18:05Z</time>
      </trkpt>
      <trkpt lat="45.05356" lon="3.59998">
        <ele>808.61</ele>
        <time>2024-09-29T10:17:45Z</time>
      </trkpt>
      <trkpt lat="45.05373" lon="3.60027">
        <ele>811.49</ele>
        <time>2024-09-29T10:17:25Z</time>
      </trkpt>
      <trkpt lat="45.05388" lon="3.60055">
        <ele>814.85</ele>
        <time>2024-09-29T10:17:10Z</time>
      </trkpt>
      <trkpt lat="45.05409" lon="3.6008">
        <ele>817.74</ele>
        <time>2024-09-29T10:16:50Z</time>
      </trkpt>
      <trkpt lat="45.05411" lon="3.6008">
        <ele>817.26</ele>
        <time>2024-09-29T10:16:48Z</time>
      </trkpt>
      <trkpt lat="45.0542" lon="3.60074">
        <ele>817.26</ele>
        <time>2024-09-29T10:16:33Z</time>
      </trkpt>
      <trkpt lat="45.05437" lon="3.60054">
        <ele>816.3</ele>
        <time>2024-09-29T10:16:14Z</time>
      </trkpt>
      <trkpt lat="45.05441" lon="3.60046">
        <ele>816.78</ele>
        <time>2024-09-29T10:16:09Z</time>
      </trkpt>
      <trkpt lat="45.0544" lon="3.60042">
        <ele>816.3</ele>
        <time>2024-09-29T10:16:07Z</time>
      </trkpt>
      <trkpt lat="45.05439" lon="3.60039">
        <ele>815.34</ele>
        <time>2024-09-29T10:16:05Z</time>
      </trkpt>
      <trkpt lat="45.05437" lon="3.60032">
        <ele>814.85</ele>
        <time>2024-09-29T10:15:38Z</time>
      </trkpt>
      <trkpt lat="45.05432" lon="3.60028">
        <ele>815.82</ele>
        <time>2024-09-29T10:15:07Z</time>
      </trkpt>
      <trkpt lat="45.05436" lon="3.60032">
        <ele>814.85</ele>
        <time>2024-09-29T10:14:41Z</time>
      </trkpt>
      <trkpt lat="45.05434" lon="3.60027">
        <ele>815.34</ele>
        <time>2024-09-29T10:14:09Z</time>
      </trkpt>
      <trkpt lat="45.0543" lon="3.60024">
        <ele>818.22</ele>
        <time>2024-09-29T10:13:40Z</time>
      </trkpt>
      <trkpt lat="45.0543" lon="3.60025">
        <ele>819.66</ele>
        <time>2024-09-29T10:13:15Z</time>
      </trkpt>
      <trkpt lat="45.05432" lon="3.60024">
        <ele>821.58</ele>
        <time>2024-09-29T10:12:39Z</time>
      </trkpt>
      <trkpt lat="45.05429" lon="3.59998">
        <ele>823.03</ele>
        <time>2024-09-29T10:12:21Z</time>
      </trkpt>
      <trkpt lat="45.05429" lon="3.5999">
        <ele>823.99</ele>
        <time>2024-09-29T10:12:16Z</time>
      </trkpt>
      <trkpt lat="45.0543" lon="3.59988">
        <ele>824.47</ele>
        <time>2024-09-29T10:12:14Z</time>
      </trkpt>
      <trkpt lat="45.05444" lon="3.59974">
        <ele>827.35</ele>
        <time>2024-09-29T10:11:59Z</time>
      </trkpt>
      <trkpt lat="45.05444" lon="3.59971">
        <ele>828.79</ele>
        <time>2024-09-29T10:11:50Z</time>
      </trkpt>
      <trkpt lat="45.05446" lon="3.60003">
        <ele>831.68</ele>
        <time>2024-09-29T10:11:34Z</time>
      </trkpt>
      <trkpt lat="45.05444" lon="3.6003">
        <ele>828.31</ele>
        <time>2024-09-29T10:11:18Z</time>
      </trkpt>
      <trkpt lat="45.05445" lon="3.60056">
        <ele>827.35</ele>
        <time>2024-09-29T10:11:02Z</time>
      </trkpt>
      <trkpt lat="45.05451" lon="3.60092">
        <ele>822.06</ele>
        <time>2024-09-29T10:10:45Z</time>
      </trkpt>
      <trkpt lat="45.05459" lon="3.60124">
        <ele>820.14</ele>
        <time>2024-09-29T10:10:31Z</time>
      </trkpt>
      <trkpt lat="45.0546" lon="3.60126">
        <ele>820.14</ele>
        <time>2024-09-29T10:10:29Z</time>
      </trkpt>
      <trkpt lat="45.0546" lon="3.60126">
        <ele>819.66</ele>
        <time>2024-09-29T10:10:14Z</time>
      </trkpt>
      <trkpt lat="45.05471" lon="3.60155">
        <ele>820.62</ele>
        <time>2024-09-29T10:10:01Z</time>
      </trkpt>
      <trkpt lat="45.05473" lon="3.60195">
        <ele>820.62</ele>
        <time>2024-09-29T10:09:45Z</time>
      </trkpt>
      <trkpt lat="45.05485" lon="3.60227">
        <ele>825.43</ele>
        <time>2024-09-29T10:09:28Z</time>
      </trkpt>
      <trkpt lat="45.05507" lon="3.60264">
        <ele>832.64</ele>
        <time>2024-09-29T10:09:05Z</time>
      </trkpt>
      <trkpt lat="45.0552" lon="3.60309">
        <ele>838.41</ele>
        <time>2024-09-29T10:08:44Z</time>
      </trkpt>
      <trkpt lat="45.05528" lon="3.60339">
        <ele>840.33</ele>
        <time>2024-09-29T10:08:28Z</time>
      </trkpt>
      <trkpt lat="45.05538" lon="3.60379">
        <ele>841.77</ele>
        <time>2024-09-29T10:08:10Z</time>
      </trkpt>
      <trkpt lat="45.05545" lon="3.60409">
        <ele>844.18</ele>
        <time>2024-09-29T10:07:55Z</time>
      </trkpt>
      <trkpt lat="45.05545" lon="3.60455">
        <ele>848.02</ele>
        <time>2024-09-29T10:07:35Z</time>
      </trkpt>
      <trkpt lat="45.05547" lon="3.6049">
        <ele>848.02</ele>
        <time>2024-09-29T10:07:20Z</time>
      </trkpt>
      <trkpt lat="45.05549" lon="3.60526">
        <ele>847.06</ele>
        <time>2024-09-29T10:07:02Z</time>
      </trkpt>
      <trkpt lat="45.05549" lon="3.6056">
        <ele>847.06</ele>
        <time>2024-09-29T10:06:49Z</time>
      </trkpt>
      <trkpt lat="45.05549" lon="3.60586">
        <ele>848.98</ele>
        <time>2024-09-29T10:06:35Z</time>
      </trkpt>
      <trkpt lat="45.05549" lon="3.60618">
        <ele>851.87</ele>
        <time>2024-09-29T10:06:18Z</time>
      </trkpt>
      <trkpt lat="45.05545" lon="3.60639">
        <ele>853.79</ele>
        <time>2024-09-29T10:06:05Z</time>
      </trkpt>
      <trkpt lat="45.05542" lon="3.60651">
        <ele>857.15</ele>
        <time>2024-09-29T10:05:51Z</time>
      </trkpt>
      <trkpt lat="45.05536" lon="3.60684">
        <ele>862.92</ele>
        <time>2024-09-29T10:05:35Z</time>
      </trkpt>
      <trkpt lat="45.05536" lon="3.6072">
        <ele>872.05</ele>
        <time>2024-09-29T10:05:18Z</time>
      </trkpt>
      <trkpt lat="45.05536" lon="3.60722">
        <ele>872.53</ele>
        <time>2024-09-29T10:05:17Z</time>
      </trkpt>
      <trkpt lat="45.05536" lon="3.60724">
        <ele>873.01</ele>
        <time>2024-09-29T10:05:16Z</time>
      </trkpt>
      <trkpt lat="45.05535" lon="3.60727">
        <ele>873.5</ele>
        <time>2024-09-29T10:05:15Z</time>
      </trkpt>
      <trkpt lat="45.05535" lon="3.60729">
        <ele>873.98</ele>
        <time>2024-09-29T10:05:14Z</time>
      </trkpt>
      <trkpt lat="45.05538" lon="3.60746">
        <ele>878.3</ele>
        <time>2024-09-29T10:05:06Z</time>
      </trkpt>
      <trkpt lat="45.05546" lon="3.60785">
        <ele>884.55</ele>
        <time>2024-09-29T10:04:49Z</time>
      </trkpt>
      <trkpt lat="45.05552" lon="3.60812">
        <ele>888.88</ele>
        <time>2024-09-29T10:04:36Z</time>
      </trkpt>
      <trkpt lat="45.0556" lon="3.60846">
        <ele>897.53</ele>
        <time>2024-09-29T10:04:20Z</time>
      </trkpt>
      <trkpt lat="45.05565" lon="3.6088">
        <ele>901.85</ele>
        <time>2024-09-29T10:04:04Z</time>
      </trkpt>
      <trkpt lat="45.05572" lon="3.60914">
        <ele>902.33</ele>
        <time>2024-09-29T10:03:47Z</time>
      </trkpt>
      <trkpt lat="45.05576" lon="3.60951">
        <ele>903.3</ele>
        <time>2024-09-29T10:03:30Z</time>
      </trkpt>
      <trkpt lat="45.05574" lon="3.60988">
        <ele>897.05</ele>
        <time>2024-09-29T10:03:11Z</time>
      </trkpt>
      <trkpt lat="45.05575" lon="3.61029">
        <ele>895.12</ele>
        <time>2024-09-29T10:02:50Z</time>
      </trkpt>
      <trkpt lat="45.05575" lon="3.61031">
        <ele>895.12</ele>
        <time>2024-09-29T10:02:49Z</time>
      </trkpt>
      <trkpt lat="45.05575" lon="3.61033">
        <ele>895.12</ele>
        <time>2024-09-29T10:02:48Z</time>
      </trkpt>
      <trkpt lat="45.05575" lon="3.61034">
        <ele>895.12</ele>
        <time>2024-09-29T10:02:47Z</time>
      </trkpt>
      <trkpt lat="45.05582" lon="3.6106">
        <ele>896.09</ele>
        <time>2024-09-29T10:02:32Z</time>
      </trkpt>
      <trkpt lat="45.05589" lon="3.61094">
        <ele>898.01</ele>
        <time>2024-09-29T10:02:14Z</time>
      </trkpt>
      <trkpt lat="45.05588" lon="3.61136">
        <ele>898.01</ele>
        <time>2024-09-29T10:01:58Z</time>
      </trkpt>
      <trkpt lat="45.05584" lon="3.61172">
        <ele>898.49</ele>
        <time>2024-09-29T10:01:41Z</time>
      </trkpt>
      <trkpt lat="45.05576" lon="3.61208">
        <ele>899.93</ele>
        <time>2024-09-29T10:01:24Z</time>
      </trkpt>
      <trkpt lat="45.05567" lon="3.61247">
        <ele>899.45</ele>
        <time>2024-09-29T10:01:06Z</time>
      </trkpt>
      <trkpt lat="45.05559" lon="3.61284">
        <ele>898.97</ele>
        <time>2024-09-29T10:00:48Z</time>
      </trkpt>
      <trkpt lat="45.05549" lon="3.61323">
        <ele>902.82</ele>
        <time>2024-09-29T10:00:28Z</time>
      </trkpt>
      <trkpt lat="45.05535" lon="3.61364">
        <ele>904.74</ele>
        <time>2024-09-29T10:00:08Z</time>
      </trkpt>
      <trkpt lat="45.05524" lon="3.61405">
        <ele>906.66</ele>
        <time>2024-09-29T09:59:47Z</time>
      </trkpt>
      <trkpt lat="45.05522" lon="3.61444">
        <ele>907.62</ele>
        <time>2024-09-29T09:59:28Z</time>
      </trkpt>
      <trkpt lat="45.05532" lon="3.61478">
        <ele>909.54</ele>
        <time>2024-09-29T09:59:10Z</time>
      </trkpt>
      <trkpt lat="45.05548" lon="3.61508">
        <ele>910.51</ele>
        <time>2024-09-29T09:58:51Z</time>
      </trkpt>
      <trkpt lat="45.05566" lon="3.61539">
        <ele>912.43</ele>
        <time>2024-09-29T09:58:33Z</time>
      </trkpt>
      <trkpt lat="45.05586" lon="3.61573">
        <ele>915.79</ele>
        <time>2024-09-29T09:58:12Z</time>
      </trkpt>
      <trkpt lat="45.05609" lon="3.61594">
        <ele>918.68</ele>
        <time>2024-09-29T09:57:54Z</time>
      </trkpt>
      <trkpt lat="45.05635" lon="3.61609">
        <ele>920.6</ele>
        <time>2024-09-29T09:57:35Z</time>
      </trkpt>
      <trkpt lat="45.05656" lon="3.61618">
        <ele>921.08</ele>
        <time>2024-09-29T09:57:19Z</time>
      </trkpt>
      <trkpt lat="45.05674" lon="3.61639">
        <ele>922.04</ele>
        <time>2024-09-29T09:57:04Z</time>
      </trkpt>
      <trkpt lat="45.05688" lon="3.61669">
        <ele>924.45</ele>
        <time>2024-09-29T09:56:44Z</time>
      </trkpt>
      <trkpt lat="45.05697" lon="3.61701">
        <ele>925.89</ele>
        <time>2024-09-29T09:56:28Z</time>
      </trkpt>
      <trkpt lat="45.05702" lon="3.61739">
        <ele>928.29</ele>
        <time>2024-09-29T09:56:11Z</time>
      </trkpt>
      <trkpt lat="45.05701" lon="3.61771">
        <ele>931.17</ele>
        <time>2024-09-29T09:55:55Z</time>
      </trkpt>
      <trkpt lat="45.05705" lon="3.61812">
        <ele>928.77</ele>
        <time>2024-09-29T09:55:36Z</time>
      </trkpt>
      <trkpt lat="45.05718" lon="3.6186">
        <ele>928.29</ele>
        <time>2024-09-29T09:55:14Z</time>
      </trkpt>
      <trkpt lat="45.05725" lon="3.619">
        <ele>921.08</ele>
        <time>2024-09-29T09:54:53Z</time>
      </trkpt>
      <trkpt lat="45.05731" lon="3.61932">
        <ele>913.87</ele>
        <time>2024-09-29T09:54:34Z</time>
      </trkpt>
      <trkpt lat="45.05745" lon="3.61954">
        <ele>907.62</ele>
        <time>2024-09-29T09:54:21Z</time>
      </trkpt>
      <trkpt lat="45.05747" lon="3.61956">
        <ele>907.14</ele>
        <time>2024-09-29T09:54:20Z</time>
      </trkpt>
      <trkpt lat="45.05748" lon="3.61957">
        <ele>907.14</ele>
        <time>2024-09-29T09:54:19Z</time>
      </trkpt>
      <trkpt lat="45.0575" lon="3.61959">
        <ele>906.66</ele>
        <time>2024-09-29T09:54:17Z</time>
      </trkpt>
      <trkpt lat="45.05768" lon="3.61961">
        <ele>906.18</ele>
        <time>2024-09-29T09:54:01Z</time>
      </trkpt>
      <trkpt lat="45.05769" lon="3.6193">
        <ele>908.1</ele>
        <time>2024-09-29T09:53:44Z</time>
      </trkpt>
      <trkpt lat="45.05778" lon="3.61897">
        <ele>908.1</ele>
        <time>2024-09-29T09:53:26Z</time>
      </trkpt>
      <trkpt lat="45.0578" lon="3.61896">
        <ele>908.1</ele>
        <time>2024-09-29T09:53:25Z</time>
      </trkpt>
      <trkpt lat="45.05783" lon="3.61891">
        <ele>908.58</ele>
        <time>2024-09-29T09:53:22Z</time>
      </trkpt>
      <trkpt lat="45.05797" lon="3.61863">
        <ele>911.95</ele>
        <time>2024-09-29T09:53:03Z</time>
      </trkpt>
      <trkpt lat="45.0581" lon="3.61833">
        <ele>918.68</ele>
        <time>2024-09-29T09:52:47Z</time>
      </trkpt>
      <trkpt lat="45.05825" lon="3.61798">
        <ele>922.04</ele>
        <time>2024-09-29T09:52:28Z</time>
      </trkpt>
      <trkpt lat="45.05838" lon="3.61763">
        <ele>924.45</ele>
        <time>2024-09-29T09:52:10Z</time>
      </trkpt>
      <trkpt lat="45.05853" lon="3.61741">
        <ele>925.89</ele>
        <time>2024-09-29T09:51:53Z</time>
      </trkpt>
      <trkpt lat="45.0587" lon="3.61722">
        <ele>928.77</ele>
        <time>2024-09-29T09:51:38Z</time>
      </trkpt>
      <trkpt lat="45.05898" lon="3.61715">
        <ele>933.1</ele>
        <time>2024-09-29T09:51:19Z</time>
      </trkpt>
      <trkpt lat="45.0592" lon="3.61711">
        <ele>937.9</ele>
        <time>2024-09-29T09:51:04Z</time>
      </trkpt>
      <trkpt lat="45.05938" lon="3.6171">
        <ele>943.19</ele>
        <time>2024-09-29T09:50:49Z</time>
      </trkpt>
      <trkpt lat="45.0594" lon="3.61711">
        <ele>943.19</ele>
        <time>2024-09-29T09:50:46Z</time>
      </trkpt>
      <trkpt lat="45.0595" lon="3.61722">
        <ele>942.23</ele>
        <time>2024-09-29T09:50:30Z</time>
      </trkpt>
      <trkpt lat="45.05975" lon="3.61727">
        <ele>940.79</ele>
        <time>2024-09-29T09:50:13Z</time>
      </trkpt>
      <trkpt lat="45.05999" lon="3.61714">
        <ele>941.75</ele>
        <time>2024-09-29T09:49:56Z</time>
      </trkpt>
      <trkpt lat="45.06026" lon="3.61691">
        <ele>943.19</ele>
        <time>2024-09-29T09:49:35Z</time>
      </trkpt>
      <trkpt lat="45.06047" lon="3.61666">
        <ele>943.19</ele>
        <time>2024-09-29T09:49:15Z</time>
      </trkpt>
      <trkpt lat="45.06065" lon="3.61639">
        <ele>942.71</ele>
        <time>2024-09-29T09:49:02Z</time>
      </trkpt>
      <trkpt lat="45.06083" lon="3.61613">
        <ele>943.67</ele>
        <time>2024-09-29T09:48:43Z</time>
      </trkpt>
      <trkpt lat="45.06104" lon="3.61592">
        <ele>943.19</ele>
        <time>2024-09-29T09:48:26Z</time>
      </trkpt>
      <trkpt lat="45.06126" lon="3.61578">
        <ele>942.23</ele>
        <time>2024-09-29T09:48:08Z</time>
      </trkpt>
      <trkpt lat="45.06151" lon="3.61565">
        <ele>940.79</ele>
        <time>2024-09-29T09:47:47Z</time>
      </trkpt>
      <trkpt lat="45.06156" lon="3.61561">
        <ele>941.75</ele>
        <time>2024-09-29T09:47:35Z</time>
      </trkpt>
      <trkpt lat="45.06157" lon="3.61562">
        <ele>941.75</ele>
        <time>2024-09-29T09:47:16Z</time>
      </trkpt>
      <trkpt lat="45.06154" lon="3.61562">
        <ele>940.31</ele>
        <time>2024-09-29T09:46:54Z</time>
      </trkpt>
      <trkpt lat="45.06154" lon="3.61563">
        <ele>938.86</ele>
        <time>2024-09-29T09:46:36Z</time>
      </trkpt>
      <trkpt lat="45.06154" lon="3.61565">
        <ele>935.02</ele>
        <time>2024-09-29T09:46:13Z</time>
      </trkpt>
      <trkpt lat="45.06155" lon="3.6157">
        <ele>933.58</ele>
        <time>2024-09-29T09:45:58Z</time>
      </trkpt>
      <trkpt lat="45.06156" lon="3.61569">
        <ele>933.58</ele>
        <time>2024-09-29T09:45:56Z</time>
      </trkpt>
      <trkpt lat="45.06159" lon="3.61572">
        <ele>933.1</ele>
        <time>2024-09-29T09:45:41Z</time>
      </trkpt>
      <trkpt lat="45.06169" lon="3.61568">
        <ele>934.54</ele>
        <time>2024-09-29T09:45:28Z</time>
      </trkpt>
      <trkpt lat="45.06187" lon="3.61559">
        <ele>936.46</ele>
        <time>2024-09-29T09:45:12Z</time>
      </trkpt>
      <trkpt lat="45.06189" lon="3.61558">
        <ele>936.46</ele>
        <time>2024-09-29T09:45:10Z</time>
      </trkpt>
      <trkpt lat="45.06202" lon="3.61553">
        <ele>936.46</ele>
        <time>2024-09-29T09:44:59Z</time>
      </trkpt>
      <trkpt lat="45.06225" lon="3.61548">
        <ele>939.83</ele>
        <time>2024-09-29T09:44:41Z</time>
      </trkpt>
      <trkpt lat="45.06249" lon="3.61548">
        <ele>940.79</ele>
        <time>2024-09-29T09:44:22Z</time>
      </trkpt>
      <trkpt lat="45.06271" lon="3.61551">
        <ele>942.71</ele>
        <time>2024-09-29T09:44:04Z</time>
      </trkpt>
      <trkpt lat="45.06284" lon="3.61552">
        <ele>943.19</ele>
        <time>2024-09-29T09:43:53Z</time>
      </trkpt>
      <trkpt lat="45.06305" lon="3.61559">
        <ele>942.71</ele>
        <time>2024-09-29T09:43:34Z</time>
      </trkpt>
      <trkpt lat="45.06328" lon="3.61567">
        <ele>943.67</ele>
        <time>2024-09-29T09:43:15Z</time>
      </trkpt>
      <trkpt lat="45.06339" lon="3.6157">
        <ele>944.63</ele>
        <time>2024-09-29T09:43:00Z</time>
      </trkpt>
      <trkpt lat="45.06356" lon="3.61577">
        <ele>945.11</ele>
        <time>2024-09-29T09:42:42Z</time>
      </trkpt>
      <trkpt lat="45.06369" lon="3.61564">
        <ele>943.67</ele>
        <time>2024-09-29T09:42:24Z</time>
      </trkpt>
      <trkpt lat="45.06373" lon="3.61558">
        <ele>943.19</ele>
        <time>2024-09-29T09:42:09Z</time>
      </trkpt>
      <trkpt lat="45.06382" lon="3.6155">
        <ele>943.67</ele>
        <time>2024-09-29T09:41:53Z</time>
      </trkpt>
      <trkpt lat="45.06384" lon="3.61546">
        <ele>945.11</ele>
        <time>2024-09-29T09:41:33Z</time>
      </trkpt>
      <trkpt lat="45.06385" lon="3.61546">
        <ele>943.67</ele>
        <time>2024-09-29T09:41:12Z</time>
      </trkpt>
      <trkpt lat="45.06385" lon="3.6155">
        <ele>944.15</ele>
        <time>2024-09-29T09:40:51Z</time>
      </trkpt>
      <trkpt lat="45.06384" lon="3.61549">
        <ele>943.19</ele>
        <time>2024-09-29T09:40:32Z</time>
      </trkpt>
      <trkpt lat="45.06384" lon="3.61549">
        <ele>943.67</ele>
        <time>2024-09-29T09:40:03Z</time>
      </trkpt>
      <trkpt lat="45.06384" lon="3.61549">
        <ele>943.67</ele>
        <time>2024-09-29T09:39:44Z</time>
      </trkpt>
      <trkpt lat="45.06384" lon="3.6155">
        <ele>943.19</ele>
        <time>2024-09-29T09:39:31Z</time>
      </trkpt>
      <trkpt lat="45.06383" lon="3.61551">
        <ele>944.63</ele>
        <time>2024-09-29T09:39:12Z</time>
      </trkpt>
      <trkpt lat="45.06385" lon="3.61551">
        <ele>945.59</ele>
        <time>2024-09-29T09:38:54Z</time>
      </trkpt>
      <trkpt lat="45.06395" lon="3.61543">
        <ele>944.15</ele>
        <time>2024-09-29T09:38:35Z</time>
      </trkpt>
      <trkpt lat="45.064" lon="3.61539">
        <ele>942.71</ele>
        <time>2024-09-29T09:38:30Z</time>
      </trkpt>
      <trkpt lat="45.06411" lon="3.61531">
        <ele>940.79</ele>
        <time>2024-09-29T09:38:14Z</time>
      </trkpt>
      <trkpt lat="45.06401" lon="3.61533">
        <ele>942.23</ele>
        <time>2024-09-29T09:38:00Z</time>
      </trkpt>
      <trkpt lat="45.06384" lon="3.61548">
        <ele>943.67</ele>
        <time>2024-09-29T09:37:46Z</time>
      </trkpt>
      <trkpt lat="45.06378" lon="3.61553">
        <ele>944.63</ele>
        <time>2024-09-29T09:37:32Z</time>
      </trkpt>
      <trkpt lat="45.06357" lon="3.61576">
        <ele>945.11</ele>
        <time>2024-09-29T09:37:14Z</time>
      </trkpt>
      <trkpt lat="45.06357" lon="3.61578">
        <ele>945.11</ele>
        <time>2024-09-29T09:37:10Z</time>
      </trkpt>
      <trkpt lat="45.06371" lon="3.61586">
        <ele>945.11</ele>
        <time>2024-09-29T09:36:56Z</time>
      </trkpt>
      <trkpt lat="45.06401" lon="3.61597">
        <ele>941.27</ele>
        <time>2024-09-29T09:36:36Z</time>
      </trkpt>
      <trkpt lat="45.06421" lon="3.61621">
        <ele>939.83</ele>
        <time>2024-09-29T09:36:18Z</time>
      </trkpt>
      <trkpt lat="45.06427" lon="3.61665">
        <ele>939.35</ele>
        <time>2024-09-29T09:35:58Z</time>
      </trkpt>
      <trkpt lat="45.06426" lon="3.61707">
        <ele>938.38</ele>
        <time>2024-09-29T09:35:41Z</time>
      </trkpt>
      <trkpt lat="45.06429" lon="3.61744">
        <ele>937.9</ele>
        <time>2024-09-29T09:35:24Z</time>
      </trkpt>
      <trkpt lat="45.0644" lon="3.61785">
        <ele>935.98</ele>
        <time>2024-09-29T09:35:09Z</time>
      </trkpt>
      <trkpt lat="45.06456" lon="3.61815">
        <ele>935.98</ele>
        <time>2024-09-29T09:34:51Z</time>
      </trkpt>
      <trkpt lat="45.06471" lon="3.61852">
        <ele>935.5</ele>
        <time>2024-09-29T09:34:29Z</time>
      </trkpt>
      <trkpt lat="45.0648" lon="3.61898">
        <ele>933.58</ele>
        <time>2024-09-29T09:34:07Z</time>
      </trkpt>
      <trkpt lat="45.06491" lon="3.6193">
        <ele>934.54</ele>
        <time>2024-09-29T09:33:51Z</time>
      </trkpt>
      <trkpt lat="45.06512" lon="3.61963">
        <ele>933.1</ele>
        <time>2024-09-29T09:33:34Z</time>
      </trkpt>
      <trkpt lat="45.0654" lon="3.6199">
        <ele>928.77</ele>
        <time>2024-09-29T09:33:14Z</time>
      </trkpt>
      <trkpt lat="45.06557" lon="3.62011">
        <ele>926.85</ele>
        <time>2024-09-29T09:32:59Z</time>
      </trkpt>
      <trkpt lat="45.06578" lon="3.62031">
        <ele>925.89</ele>
        <time>2024-09-29T09:32:42Z</time>
      </trkpt>
      <trkpt lat="45.06597" lon="3.62052">
        <ele>926.85</ele>
        <time>2024-09-29T09:32:27Z</time>
      </trkpt>
      <trkpt lat="45.06613" lon="3.62077">
        <ele>925.89</ele>
        <time>2024-09-29T09:32:12Z</time>
      </trkpt>
      <trkpt lat="45.06629" lon="3.621">
        <ele>925.89</ele>
        <time>2024-09-29T09:31:58Z</time>
      </trkpt>
      <trkpt lat="45.06637" lon="3.62128">
        <ele>923.48</ele>
        <time>2024-09-29T09:31:42Z</time>
      </trkpt>
      <trkpt lat="45.0664" lon="3.62159">
        <ele>919.16</ele>
        <time>2024-09-29T09:31:29Z</time>
      </trkpt>
      <trkpt lat="45.06644" lon="3.62194">
        <ele>917.24</ele>
        <time>2024-09-29T09:31:14Z</time>
      </trkpt>
      <trkpt lat="45.06647" lon="3.62237">
        <ele>915.79</ele>
        <time>2024-09-29T09:30:56Z</time>
      </trkpt>
      <trkpt lat="45.06643" lon="3.6228">
        <ele>915.31</ele>
        <time>2024-09-29T09:30:41Z</time>
      </trkpt>
      <trkpt lat="45.06659" lon="3.62316">
        <ele>916.27</ele>
        <time>2024-09-29T09:30:22Z</time>
      </trkpt>
      <trkpt lat="45.06675" lon="3.6234">
        <ele>918.68</ele>
        <time>2024-09-29T09:30:08Z</time>
      </trkpt>
      <trkpt lat="45.06689" lon="3.62372">
        <ele>919.16</ele>
        <time>2024-09-29T09:29:54Z</time>
      </trkpt>
      <trkpt lat="45.0669" lon="3.62375">
        <ele>919.16</ele>
        <time>2024-09-29T09:29:53Z</time>
      </trkpt>
      <trkpt lat="45.06691" lon="3.62378">
        <ele>919.64</ele>
        <time>2024-09-29T09:29:52Z</time>
      </trkpt>
      <trkpt lat="45.06693" lon="3.62381">
        <ele>919.64</ele>
        <time>2024-09-29T09:29:51Z</time>
      </trkpt>
      <trkpt lat="45.06694" lon="3.62383">
        <ele>919.64</ele>
        <time>2024-09-29T09:29:50Z</time>
      </trkpt>
      <trkpt lat="45.06694" lon="3.62385">
        <ele>919.64</ele>
        <time>2024-09-29T09:29:49Z</time>
      </trkpt>
      <trkpt lat="45.06707" lon="3.62409">
        <ele>919.16</ele>
        <time>2024-09-29T09:29:36Z</time>
      </trkpt>
      <trkpt lat="45.0672" lon="3.62436">
        <ele>919.16</ele>
        <time>2024-09-29T09:29:21Z</time>
      </trkpt>
      <trkpt lat="45.06731" lon="3.62474">
        <ele>917.72</ele>
        <time>2024-09-29T09:29:05Z</time>
      </trkpt>
      <trkpt lat="45.06749" lon="3.62497">
        <ele>913.39</ele>
        <time>2024-09-29T09:28:49Z</time>
      </trkpt>
      <trkpt lat="45.06773" lon="3.62487">
        <ele>913.39</ele>
        <time>2024-09-29T09:28:35Z</time>
      </trkpt>
      <trkpt lat="45.06784" lon="3.62457">
        <ele>914.83</ele>
        <time>2024-09-29T09:28:19Z</time>
      </trkpt>
      <trkpt lat="45.06774" lon="3.62417">
        <ele>916.75</ele>
        <time>2024-09-29T09:28:01Z</time>
      </trkpt>
      <trkpt lat="45.06766" lon="3.62372">
        <ele>917.72</ele>
        <time>2024-09-29T09:27:45Z</time>
      </trkpt>
      <trkpt lat="45.06763" lon="3.62337">
        <ele>918.2</ele>
        <time>2024-09-29T09:27:28Z</time>
      </trkpt>
      <trkpt lat="45.06757" lon="3.62296">
        <ele>921.56</ele>
        <time>2024-09-29T09:27:07Z</time>
      </trkpt>
      <trkpt lat="45.06753" lon="3.62261">
        <ele>923</ele>
        <time>2024-09-29T09:26:51Z</time>
      </trkpt>
      <trkpt lat="45.06755" lon="3.62227">
        <ele>924.45</ele>
        <time>2024-09-29T09:26:35Z</time>
      </trkpt>
      <trkpt lat="45.06753" lon="3.62197">
        <ele>927.33</ele>
        <time>2024-09-29T09:26:22Z</time>
      </trkpt>
      <trkpt lat="45.06752" lon="3.62155">
        <ele>928.77</ele>
        <time>2024-09-29T09:26:02Z</time>
      </trkpt>
      <trkpt lat="45.06755" lon="3.62125">
        <ele>928.77</ele>
        <time>2024-09-29T09:25:49Z</time>
      </trkpt>
      <trkpt lat="45.06758" lon="3.62096">
        <ele>927.81</ele>
        <time>2024-09-29T09:25:36Z</time>
      </trkpt>
      <trkpt lat="45.06759" lon="3.62065">
        <ele>926.85</ele>
        <time>2024-09-29T09:25:22Z</time>
      </trkpt>
      <trkpt lat="45.06762" lon="3.62024">
        <ele>929.25</ele>
        <time>2024-09-29T09:25:07Z</time>
      </trkpt>
      <trkpt lat="45.06756" lon="3.61978">
        <ele>932.14</ele>
        <time>2024-09-29T09:24:49Z</time>
      </trkpt>
      <trkpt lat="45.06747" lon="3.61942">
        <ele>933.1</ele>
        <time>2024-09-29T09:24:33Z</time>
      </trkpt>
      <trkpt lat="45.0674" lon="3.61906">
        <ele>930.69</ele>
        <time>2024-09-29T09:24:18Z</time>
      </trkpt>
      <trkpt lat="45.06732" lon="3.61869">
        <ele>930.21</ele>
        <time>2024-09-29T09:24:02Z</time>
      </trkpt>
      <trkpt lat="45.06726" lon="3.61831">
        <ele>927.33</ele>
        <time>2024-09-29T09:23:46Z</time>
      </trkpt>
      <trkpt lat="45.06722" lon="3.61794">
        <ele>923</ele>
        <time>2024-09-29T09:23:31Z</time>
      </trkpt>
      <trkpt lat="45.06722" lon="3.61793">
        <ele>923</ele>
        <time>2024-09-29T09:23:30Z</time>
      </trkpt>
      <trkpt lat="45.06722" lon="3.61791">
        <ele>923</ele>
        <time>2024-09-29T09:23:29Z</time>
      </trkpt>
      <trkpt lat="45.06723" lon="3.6179">
        <ele>923.96</ele>
        <time>2024-09-29T09:23:17Z</time>
      </trkpt>
      <trkpt lat="45.06725" lon="3.61786">
        <ele>928.77</ele>
        <time>2024-09-29T09:22:53Z</time>
      </trkpt>
      <trkpt lat="45.06724" lon="3.61761">
        <ele>934.06</ele>
        <time>2024-09-29T09:22:41Z</time>
      </trkpt>
      <trkpt lat="45.06721" lon="3.6172">
        <ele>938.38</ele>
        <time>2024-09-29T09:22:25Z</time>
      </trkpt>
      <trkpt lat="45.0672" lon="3.61675">
        <ele>940.31</ele>
        <time>2024-09-29T09:22:10Z</time>
      </trkpt>
      <trkpt lat="45.06713" lon="3.61644">
        <ele>941.75</ele>
        <time>2024-09-29T09:21:54Z</time>
      </trkpt>
      <trkpt lat="45.06712" lon="3.6161">
        <ele>939.83</ele>
        <time>2024-09-29T09:21:38Z</time>
      </trkpt>
      <trkpt lat="45.06711" lon="3.6158">
        <ele>939.35</ele>
        <time>2024-09-29T09:21:25Z</time>
      </trkpt>
      <trkpt lat="45.06709" lon="3.6155">
        <ele>939.83</ele>
        <time>2024-09-29T09:21:11Z</time>
      </trkpt>
      <trkpt lat="45.06703" lon="3.61518">
        <ele>939.83</ele>
        <time>2024-09-29T09:20:57Z</time>
      </trkpt>
      <trkpt lat="45.06697" lon="3.61487">
        <ele>941.75</ele>
        <time>2024-09-29T09:20:43Z</time>
      </trkpt>
      <trkpt lat="45.06689" lon="3.61446">
        <ele>942.71</ele>
        <time>2024-09-29T09:20:29Z</time>
      </trkpt>
      <trkpt lat="45.06681" lon="3.61413">
        <ele>940.79</ele>
        <time>2024-09-29T09:20:11Z</time>
      </trkpt>
      <trkpt lat="45.06674" lon="3.61389">
        <ele>938.86</ele>
        <time>2024-09-29T09:19:59Z</time>
      </trkpt>
      <trkpt lat="45.06672" lon="3.61356">
        <ele>938.38</ele>
        <time>2024-09-29T09:19:46Z</time>
      </trkpt>
      <trkpt lat="45.06663" lon="3.61322">
        <ele>937.42</ele>
        <time>2024-09-29T09:19:29Z</time>
      </trkpt>
      <trkpt lat="45.06656" lon="3.61297">
        <ele>938.38</ele>
        <time>2024-09-29T09:19:14Z</time>
      </trkpt>
      <trkpt lat="45.06659" lon="3.61287">
        <ele>937.9</ele>
        <time>2024-09-29T09:19:07Z</time>
      </trkpt>
      <trkpt lat="45.0666" lon="3.61285">
        <ele>937.9</ele>
        <time>2024-09-29T09:19:03Z</time>
      </trkpt>
      <trkpt lat="45.06663" lon="3.61285">
        <ele>937.42</ele>
        <time>2024-09-29T09:18:48Z</time>
      </trkpt>
      <trkpt lat="45.06657" lon="3.61308">
        <ele>938.38</ele>
        <time>2024-09-29T09:18:31Z</time>
      </trkpt>
      <trkpt lat="45.06667" lon="3.61345">
        <ele>937.9</ele>
        <time>2024-09-29T09:18:12Z</time>
      </trkpt>
      <trkpt lat="45.06671" lon="3.61353">
        <ele>935.02</ele>
        <time>2024-09-29T09:18:04Z</time>
      </trkpt>
      <trkpt lat="45.06672" lon="3.61352">
        <ele>934.54</ele>
        <time>2024-09-29T09:18:02Z</time>
      </trkpt>
      <trkpt lat="45.06674" lon="3.6134">
        <ele>934.54</ele>
        <time>2024-09-29T09:17:55Z</time>
      </trkpt>
      <trkpt lat="45.06681" lon="3.6131">
        <ele>934.06</ele>
        <time>2024-09-29T09:17:38Z</time>
      </trkpt>
      <trkpt lat="45.06689" lon="3.61278">
        <ele>932.62</ele>
        <time>2024-09-29T09:17:21Z</time>
      </trkpt>
      <trkpt lat="45.06699" lon="3.61249">
        <ele>931.65</ele>
        <time>2024-09-29T09:17:06Z</time>
      </trkpt>
      <trkpt lat="45.06705" lon="3.61234">
        <ele>930.21</ele>
        <time>2024-09-29T09:16:52Z</time>
      </trkpt>
      <trkpt lat="45.06714" lon="3.61207">
        <ele>927.33</ele>
        <time>2024-09-29T09:16:37Z</time>
      </trkpt>
      <trkpt lat="45.06726" lon="3.6118">
        <ele>925.41</ele>
        <time>2024-09-29T09:16:22Z</time>
      </trkpt>
      <trkpt lat="45.06737" lon="3.61151">
        <ele>923.48</ele>
        <time>2024-09-29T09:16:07Z</time>
      </trkpt>
      <trkpt lat="45.06747" lon="3.61121">
        <ele>921.56</ele>
        <time>2024-09-29T09:15:52Z</time>
      </trkpt>
      <trkpt lat="45.06755" lon="3.6109">
        <ele>919.16</ele>
        <time>2024-09-29T09:15:36Z</time>
      </trkpt>
      <trkpt lat="45.06765" lon="3.61056">
        <ele>917.72</ele>
        <time>2024-09-29T09:15:22Z</time>
      </trkpt>
      <trkpt lat="45.06775" lon="3.61025">
        <ele>916.27</ele>
        <time>2024-09-29T09:15:08Z</time>
      </trkpt>
      <trkpt lat="45.06781" lon="3.60995">
        <ele>914.35</ele>
        <time>2024-09-29T09:14:55Z</time>
      </trkpt>
      <trkpt lat="45.06789" lon="3.60964">
        <ele>913.87</ele>
        <time>2024-09-29T09:14:41Z</time>
      </trkpt>
      <trkpt lat="45.06794" lon="3.60955">
        <ele>913.87</ele>
        <time>2024-09-29T09:14:34Z</time>
      </trkpt>
      <trkpt lat="45.06808" lon="3.60932">
        <ele>913.39</ele>
        <time>2024-09-29T09:14:18Z</time>
      </trkpt>
      <trkpt lat="45.0682" lon="3.60907">
        <ele>911.95</ele>
        <time>2024-09-29T09:14:03Z</time>
      </trkpt>
      <trkpt lat="45.06832" lon="3.60878">
        <ele>909.54</ele>
        <time>2024-09-29T09:13:46Z</time>
      </trkpt>
      <trkpt lat="45.06844" lon="3.60848">
        <ele>908.58</ele>
        <time>2024-09-29T09:13:32Z</time>
      </trkpt>
      <trkpt lat="45.06855" lon="3.60818">
        <ele>907.14</ele>
        <time>2024-09-29T09:13:18Z</time>
      </trkpt>
      <trkpt lat="45.06867" lon="3.60792">
        <ele>905.7</ele>
        <time>2024-09-29T09:13:03Z</time>
      </trkpt>
      <trkpt lat="45.0688" lon="3.60765">
        <ele>903.78</ele>
        <time>2024-09-29T09:12:47Z</time>
      </trkpt>
      <trkpt lat="45.06892" lon="3.60735">
        <ele>902.33</ele>
        <time>2024-09-29T09:12:27Z</time>
      </trkpt>
      <trkpt lat="45.06907" lon="3.60707">
        <ele>900.41</ele>
        <time>2024-09-29T09:12:09Z</time>
      </trkpt>
      <trkpt lat="45.06913" lon="3.60694">
        <ele>898.97</ele>
        <time>2024-09-29T09:11:54Z</time>
      </trkpt>
      <trkpt lat="45.0693" lon="3.60692">
        <ele>901.37</ele>
        <time>2024-09-29T09:11:39Z</time>
      </trkpt>
      <trkpt lat="45.06952" lon="3.60708">
        <ele>900.89</ele>
        <time>2024-09-29T09:11:21Z</time>
      </trkpt>
      <trkpt lat="45.06972" lon="3.60708">
        <ele>900.41</ele>
        <time>2024-09-29T09:11:05Z</time>
      </trkpt>
      <trkpt lat="45.06994" lon="3.60698">
        <ele>898.97</ele>
        <time>2024-09-29T09:10:47Z</time>
      </trkpt>
      <trkpt lat="45.07017" lon="3.60691">
        <ele>900.41</ele>
        <time>2024-09-29T09:10:29Z</time>
      </trkpt>
      <trkpt lat="45.07041" lon="3.60687">
        <ele>902.33</ele>
        <time>2024-09-29T09:10:09Z</time>
      </trkpt>
      <trkpt lat="45.07064" lon="3.60685">
        <ele>903.78</ele>
        <time>2024-09-29T09:09:51Z</time>
      </trkpt>
      <trkpt lat="45.07083" lon="3.60686">
        <ele>905.7</ele>
        <time>2024-09-29T09:09:36Z</time>
      </trkpt>
      <trkpt lat="45.07098" lon="3.60687">
        <ele>906.66</ele>
        <time>2024-09-29T09:09:23Z</time>
      </trkpt>
      <trkpt lat="45.07114" lon="3.60697">
        <ele>908.1</ele>
        <time>2024-09-29T09:09:09Z</time>
      </trkpt>
      <trkpt lat="45.07129" lon="3.60712">
        <ele>908.1</ele>
        <time>2024-09-29T09:08:54Z</time>
      </trkpt>
      <trkpt lat="45.07144" lon="3.60732">
        <ele>908.58</ele>
        <time>2024-09-29T09:08:38Z</time>
      </trkpt>
      <trkpt lat="45.07161" lon="3.60752">
        <ele>908.58</ele>
        <time>2024-09-29T09:08:21Z</time>
      </trkpt>
      <trkpt lat="45.07182" lon="3.60776">
        <ele>910.03</ele>
        <time>2024-09-29T09:08:02Z</time>
      </trkpt>
      <trkpt lat="45.07207" lon="3.60796">
        <ele>909.06</ele>
        <time>2024-09-29T09:07:43Z</time>
      </trkpt>
      <trkpt lat="45.07231" lon="3.60807">
        <ele>905.7</ele>
        <time>2024-09-29T09:07:22Z</time>
      </trkpt>
      <trkpt lat="45.07255" lon="3.60816">
        <ele>903.78</ele>
        <time>2024-09-29T09:07:02Z</time>
      </trkpt>
      <trkpt lat="45.07281" lon="3.60819">
        <ele>902.33</ele>
        <time>2024-09-29T09:06:43Z</time>
      </trkpt>
      <trkpt lat="45.0731" lon="3.60818">
        <ele>901.37</ele>
        <time>2024-09-29T09:06:22Z</time>
      </trkpt>
      <trkpt lat="45.07339" lon="3.60817">
        <ele>901.37</ele>
        <time>2024-09-29T09:06:00Z</time>
      </trkpt>
      <trkpt lat="45.07365" lon="3.60818">
        <ele>902.82</ele>
        <time>2024-09-29T09:05:40Z</time>
      </trkpt>
      <trkpt lat="45.07382" lon="3.60823">
        <ele>903.3</ele>
        <time>2024-09-29T09:05:25Z</time>
      </trkpt>
      <trkpt lat="45.07411" lon="3.60828">
        <ele>902.82</ele>
        <time>2024-09-29T09:05:05Z</time>
      </trkpt>
      <trkpt lat="45.07436" lon="3.60831">
        <ele>903.3</ele>
        <time>2024-09-29T09:04:46Z</time>
      </trkpt>
      <trkpt lat="45.07461" lon="3.60857">
        <ele>904.26</ele>
        <time>2024-09-29T09:04:26Z</time>
      </trkpt>
      <trkpt lat="45.07488" lon="3.60887">
        <ele>903.3</ele>
        <time>2024-09-29T09:04:04Z</time>
      </trkpt>
      <trkpt lat="45.0751" lon="3.60913">
        <ele>903.3</ele>
        <time>2024-09-29T09:03:46Z</time>
      </trkpt>
      <trkpt lat="45.07534" lon="3.60916">
        <ele>903.3</ele>
        <time>2024-09-29T09:03:30Z</time>
      </trkpt>
      <trkpt lat="45.07568" lon="3.60913">
        <ele>903.78</ele>
        <time>2024-09-29T09:03:14Z</time>
      </trkpt>
      <trkpt lat="45.07596" lon="3.60911">
        <ele>905.22</ele>
        <time>2024-09-29T09:02:57Z</time>
      </trkpt>
      <trkpt lat="45.07625" lon="3.60925">
        <ele>907.14</ele>
        <time>2024-09-29T09:02:37Z</time>
      </trkpt>
      <trkpt lat="45.07649" lon="3.60944">
        <ele>910.99</ele>
        <time>2024-09-29T09:02:20Z</time>
      </trkpt>
      <trkpt lat="45.07674" lon="3.60959">
        <ele>911.95</ele>
        <time>2024-09-29T09:02:01Z</time>
      </trkpt>
      <trkpt lat="45.07676" lon="3.60959">
        <ele>911.95</ele>
        <time>2024-09-29T09:02:00Z</time>
      </trkpt>
      <trkpt lat="45.07677" lon="3.6096">
        <ele>911.47</ele>
        <time>2024-09-29T09:01:59Z</time>
      </trkpt>
      <trkpt lat="45.07678" lon="3.6096">
        <ele>911.95</ele>
        <time>2024-09-29T09:01:58Z</time>
      </trkpt>
      <trkpt lat="45.07679" lon="3.60961">
        <ele>911.47</ele>
        <time>2024-09-29T09:01:57Z</time>
      </trkpt>
      <trkpt lat="45.07681" lon="3.60961">
        <ele>911.47</ele>
        <time>2024-09-29T09:01:56Z</time>
      </trkpt>
      <trkpt lat="45.07682" lon="3.60961">
        <ele>911.95</ele>
        <time>2024-09-29T09:01:55Z</time>
      </trkpt>
      <trkpt lat="45.07684" lon="3.60961">
        <ele>911.95</ele>
        <time>2024-09-29T09:01:54Z</time>
      </trkpt>
      <trkpt lat="45.07685" lon="3.60961">
        <ele>911.95</ele>
        <time>2024-09-29T09:01:53Z</time>
      </trkpt>
      <trkpt lat="45.07687" lon="3.60964">
        <ele>911.95</ele>
        <time>2024-09-29T09:01:50Z</time>
      </trkpt>
      <trkpt lat="45.07696" lon="3.61007">
        <ele>914.35</ele>
        <time>2024-09-29T09:01:29Z</time>
      </trkpt>
      <trkpt lat="45.07717" lon="3.61033">
        <ele>914.83</ele>
        <time>2024-09-29T09:01:13Z</time>
      </trkpt>
      <trkpt lat="45.07737" lon="3.61063">
        <ele>916.27</ele>
        <time>2024-09-29T09:00:55Z</time>
      </trkpt>
      <trkpt lat="45.07751" lon="3.61094">
        <ele>916.75</ele>
        <time>2024-09-29T09:00:40Z</time>
      </trkpt>
      <trkpt lat="45.07767" lon="3.61122">
        <ele>917.72</ele>
        <time>2024-09-29T09:00:21Z</time>
      </trkpt>
      <trkpt lat="45.07788" lon="3.61154">
        <ele>918.2</ele>
        <time>2024-09-29T09:00:04Z</time>
      </trkpt>
      <trkpt lat="45.07803" lon="3.61179">
        <ele>918.68</ele>
        <time>2024-09-29T08:59:49Z</time>
      </trkpt>
      <trkpt lat="45.07822" lon="3.61209">
        <ele>918.68</ele>
        <time>2024-09-29T08:59:32Z</time>
      </trkpt>
      <trkpt lat="45.07836" lon="3.61237">
        <ele>919.64</ele>
        <time>2024-09-29T08:59:17Z</time>
      </trkpt>
      <trkpt lat="45.07854" lon="3.61258">
        <ele>919.16</ele>
        <time>2024-09-29T08:59:02Z</time>
      </trkpt>
      <trkpt lat="45.07871" lon="3.61285">
        <ele>919.16</ele>
        <time>2024-09-29T08:58:48Z</time>
      </trkpt>
      <trkpt lat="45.07888" lon="3.61317">
        <ele>919.64</ele>
        <time>2024-09-29T08:58:32Z</time>
      </trkpt>
      <trkpt lat="45.07908" lon="3.61347">
        <ele>919.16</ele>
        <time>2024-09-29T08:58:14Z</time>
      </trkpt>
      <trkpt lat="45.07919" lon="3.61375">
        <ele>920.12</ele>
        <time>2024-09-29T08:58:02Z</time>
      </trkpt>
      <trkpt lat="45.07937" lon="3.61405">
        <ele>919.64</ele>
        <time>2024-09-29T08:57:43Z</time>
      </trkpt>
      <trkpt lat="45.07958" lon="3.61429">
        <ele>920.12</ele>
        <time>2024-09-29T08:57:24Z</time>
      </trkpt>
      <trkpt lat="45.07978" lon="3.6145">
        <ele>919.16</ele>
        <time>2024-09-29T08:57:07Z</time>
      </trkpt>
      <trkpt lat="45.08" lon="3.61475">
        <ele>920.12</ele>
        <time>2024-09-29T08:56:49Z</time>
      </trkpt>
      <trkpt lat="45.08012" lon="3.61509">
        <ele>920.12</ele>
        <time>2024-09-29T08:56:32Z</time>
      </trkpt>
      <trkpt lat="45.08024" lon="3.61562">
        <ele>923</ele>
        <time>2024-09-29T08:56:09Z</time>
      </trkpt>
      <trkpt lat="45.08037" lon="3.61598">
        <ele>925.41</ele>
        <time>2024-09-29T08:55:53Z</time>
      </trkpt>
      <trkpt lat="45.08048" lon="3.61634">
        <ele>924.93</ele>
        <time>2024-09-29T08:55:37Z</time>
      </trkpt>
      <trkpt lat="45.08073" lon="3.61658">
        <ele>924.93</ele>
        <time>2024-09-29T08:55:19Z</time>
      </trkpt>
      <trkpt lat="45.08101" lon="3.61667">
        <ele>924.93</ele>
        <time>2024-09-29T08:55:03Z</time>
      </trkpt>
      <trkpt lat="45.08136" lon="3.61677">
        <ele>925.41</ele>
        <time>2024-09-29T08:54:41Z</time>
      </trkpt>
      <trkpt lat="45.08159" lon="3.61694">
        <ele>924.45</ele>
        <time>2024-09-29T08:54:24Z</time>
      </trkpt>
      <trkpt lat="45.08182" lon="3.61714">
        <ele>923.96</ele>
        <time>2024-09-29T08:54:08Z</time>
      </trkpt>
      <trkpt lat="45.08196" lon="3.61738">
        <ele>923</ele>
        <time>2024-09-29T08:53:54Z</time>
      </trkpt>
      <trkpt lat="45.0821" lon="3.6177">
        <ele>923.96</ele>
        <time>2024-09-29T08:53:39Z</time>
      </trkpt>
      <trkpt lat="45.08226" lon="3.6181">
        <ele>922.52</ele>
        <time>2024-09-29T08:53:21Z</time>
      </trkpt>
      <trkpt lat="45.0823" lon="3.61847">
        <ele>925.89</ele>
        <time>2024-09-29T08:53:08Z</time>
      </trkpt>
      <trkpt lat="45.08227" lon="3.61892">
        <ele>930.69</ele>
        <time>2024-09-29T08:52:50Z</time>
      </trkpt>
      <trkpt lat="45.08246" lon="3.6191">
        <ele>928.29</ele>
        <time>2024-09-29T08:52:33Z</time>
      </trkpt>
      <trkpt lat="45.08268" lon="3.61925">
        <ele>926.85</ele>
        <time>2024-09-29T08:52:17Z</time>
      </trkpt>
      <trkpt lat="45.08285" lon="3.61946">
        <ele>924.93</ele>
        <time>2024-09-29T08:52:00Z</time>
      </trkpt>
      <trkpt lat="45.08296" lon="3.61972">
        <ele>925.41</ele>
        <time>2024-09-29T08:51:45Z</time>
      </trkpt>
      <trkpt lat="45.08301" lon="3.61987">
        <ele>926.37</ele>
        <time>2024-09-29T08:51:33Z</time>
      </trkpt>
      <trkpt lat="45.08315" lon="3.62015">
        <ele>926.37</ele>
        <time>2024-09-29T08:51:17Z</time>
      </trkpt>
      <trkpt lat="45.08341" lon="3.6202">
        <ele>923.96</ele>
        <time>2024-09-29T08:50:59Z</time>
      </trkpt>
      <trkpt lat="45.08342" lon="3.62018">
        <ele>923.96</ele>
        <time>2024-09-29T08:50:57Z</time>
      </trkpt>
      <trkpt lat="45.08355" lon="3.61999">
        <ele>921.56</ele>
        <time>2024-09-29T08:50:40Z</time>
      </trkpt>
      <trkpt lat="45.08369" lon="3.61975">
        <ele>918.68</ele>
        <time>2024-09-29T08:50:26Z</time>
      </trkpt>
      <trkpt lat="45.08379" lon="3.61945">
        <ele>915.31</ele>
        <time>2024-09-29T08:50:09Z</time>
      </trkpt>
      <trkpt lat="45.0839" lon="3.61918">
        <ele>912.91</ele>
        <time>2024-09-29T08:49:51Z</time>
      </trkpt>
      <trkpt lat="45.08404" lon="3.61889">
        <ele>911.95</ele>
        <time>2024-09-29T08:49:34Z</time>
      </trkpt>
      <trkpt lat="45.08418" lon="3.6186">
        <ele>908.58</ele>
        <time>2024-09-29T08:49:15Z</time>
      </trkpt>
      <trkpt lat="45.08435" lon="3.61837">
        <ele>906.18</ele>
        <time>2024-09-29T08:48:56Z</time>
      </trkpt>
      <trkpt lat="45.08446" lon="3.61806">
        <ele>904.74</ele>
        <time>2024-09-29T08:48:36Z</time>
      </trkpt>
      <trkpt lat="45.08466" lon="3.61787">
        <ele>903.78</ele>
        <time>2024-09-29T08:48:17Z</time>
      </trkpt>
      <trkpt lat="45.08487" lon="3.61772">
        <ele>901.37</ele>
        <time>2024-09-29T08:48:02Z</time>
      </trkpt>
      <trkpt lat="45.0851" lon="3.61754">
        <ele>898.97</ele>
        <time>2024-09-29T08:47:44Z</time>
      </trkpt>
      <trkpt lat="45.08535" lon="3.61737">
        <ele>897.53</ele>
        <time>2024-09-29T08:47:22Z</time>
      </trkpt>
      <trkpt lat="45.08554" lon="3.61726">
        <ele>896.09</ele>
        <time>2024-09-29T08:47:04Z</time>
      </trkpt>
      <trkpt lat="45.08576" lon="3.61711">
        <ele>893.68</ele>
        <time>2024-09-29T08:46:45Z</time>
      </trkpt>
      <trkpt lat="45.086" lon="3.61701">
        <ele>892.24</ele>
        <time>2024-09-29T08:46:26Z</time>
      </trkpt>
      <trkpt lat="45.08626" lon="3.61697">
        <ele>890.8</ele>
        <time>2024-09-29T08:46:05Z</time>
      </trkpt>
      <trkpt lat="45.0865" lon="3.61689">
        <ele>890.32</ele>
        <time>2024-09-29T08:45:48Z</time>
      </trkpt>
      <trkpt lat="45.08673" lon="3.61692">
        <ele>887.91</ele>
        <time>2024-09-29T08:45:31Z</time>
      </trkpt>
      <trkpt lat="45.08697" lon="3.61688">
        <ele>886.95</ele>
        <time>2024-09-29T08:45:16Z</time>
      </trkpt>
      <trkpt lat="45.08719" lon="3.61674">
        <ele>885.51</ele>
        <time>2024-09-29T08:45:00Z</time>
      </trkpt>
      <trkpt lat="45.08741" lon="3.61657">
        <ele>884.55</ele>
        <time>2024-09-29T08:44:41Z</time>
      </trkpt>
      <trkpt lat="45.08767" lon="3.61644">
        <ele>883.11</ele>
        <time>2024-09-29T08:44:26Z</time>
      </trkpt>
      <trkpt lat="45.08792" lon="3.61636">
        <ele>881.67</ele>
        <time>2024-09-29T08:44:09Z</time>
      </trkpt>
      <trkpt lat="45.08814" lon="3.61629">
        <ele>881.67</ele>
        <time>2024-09-29T08:43:54Z</time>
      </trkpt>
      <trkpt lat="45.08837" lon="3.61621">
        <ele>881.19</ele>
        <time>2024-09-29T08:43:38Z</time>
      </trkpt>
      <trkpt lat="45.08863" lon="3.61604">
        <ele>880.71</ele>
        <time>2024-09-29T08:43:22Z</time>
      </trkpt>
      <trkpt lat="45.0888" lon="3.61608">
        <ele>879.74</ele>
        <time>2024-09-29T08:43:09Z</time>
      </trkpt>
      <trkpt lat="45.08901" lon="3.61633">
        <ele>880.22</ele>
        <time>2024-09-29T08:42:53Z</time>
      </trkpt>
      <trkpt lat="45.08925" lon="3.61658">
        <ele>881.19</ele>
        <time>2024-09-29T08:42:34Z</time>
      </trkpt>
      <trkpt lat="45.08941" lon="3.61679">
        <ele>879.74</ele>
        <time>2024-09-29T08:42:17Z</time>
      </trkpt>
      <trkpt lat="45.08959" lon="3.617">
        <ele>878.3</ele>
        <time>2024-09-29T08:41:58Z</time>
      </trkpt>
      <trkpt lat="45.08961" lon="3.617">
        <ele>878.3</ele>
        <time>2024-09-29T08:41:57Z</time>
      </trkpt>
      <trkpt lat="45.08963" lon="3.61702">
        <ele>878.3</ele>
        <time>2024-09-29T08:41:56Z</time>
      </trkpt>
      <trkpt lat="45.08964" lon="3.61702">
        <ele>878.3</ele>
        <time>2024-09-29T08:41:55Z</time>
      </trkpt>
      <trkpt lat="45.08966" lon="3.61703">
        <ele>878.3</ele>
        <time>2024-09-29T08:41:54Z</time>
      </trkpt>
      <trkpt lat="45.08969" lon="3.617">
        <ele>878.3</ele>
        <time>2024-09-29T08:41:51Z</time>
      </trkpt>
      <trkpt lat="45.08985" lon="3.61661">
        <ele>877.34</ele>
        <time>2024-09-29T08:41:31Z</time>
      </trkpt>
      <trkpt lat="45.08997" lon="3.61624">
        <ele>876.38</ele>
        <time>2024-09-29T08:41:13Z</time>
      </trkpt>
      <trkpt lat="45.09007" lon="3.61583">
        <ele>876.38</ele>
        <time>2024-09-29T08:40:53Z</time>
      </trkpt>
      <trkpt lat="45.09008" lon="3.61535">
        <ele>873.5</ele>
        <time>2024-09-29T08:40:30Z</time>
      </trkpt>
      <trkpt lat="45.09007" lon="3.61533">
        <ele>873.5</ele>
        <time>2024-09-29T08:40:29Z</time>
      </trkpt>
      <trkpt lat="45.09015" lon="3.61529">
        <ele>868.21</ele>
        <time>2024-09-29T08:40:14Z</time>
      </trkpt>
      <trkpt lat="45.09027" lon="3.61557">
        <ele>866.77</ele>
        <time>2024-09-29T08:39:57Z</time>
      </trkpt>
      <trkpt lat="45.09045" lon="3.61589">
        <ele>865.32</ele>
        <time>2024-09-29T08:39:35Z</time>
      </trkpt>
      <trkpt lat="45.09069" lon="3.616">
        <ele>867.25</ele>
        <time>2024-09-29T08:39:15Z</time>
      </trkpt>
      <trkpt lat="45.09097" lon="3.61599">
        <ele>870.13</ele>
        <time>2024-09-29T08:38:55Z</time>
      </trkpt>
      <trkpt lat="45.09119" lon="3.61604">
        <ele>874.46</ele>
        <time>2024-09-29T08:38:37Z</time>
      </trkpt>
      <trkpt lat="45.09141" lon="3.61606">
        <ele>877.34</ele>
        <time>2024-09-29T08:38:19Z</time>
      </trkpt>
      <trkpt lat="45.09169" lon="3.61617">
        <ele>878.3</ele>
        <time>2024-09-29T08:37:59Z</time>
      </trkpt>
      <trkpt lat="45.09195" lon="3.61637">
        <ele>878.3</ele>
        <time>2024-09-29T08:37:38Z</time>
      </trkpt>
      <trkpt lat="45.09219" lon="3.61645">
        <ele>876.86</ele>
        <time>2024-09-29T08:37:18Z</time>
      </trkpt>
      <trkpt lat="45.0924" lon="3.6165">
        <ele>877.34</ele>
        <time>2024-09-29T08:37:03Z</time>
      </trkpt>
      <trkpt lat="45.09248" lon="3.61653">
        <ele>877.34</ele>
        <time>2024-09-29T08:36:49Z</time>
      </trkpt>
      <trkpt lat="45.0927" lon="3.61656">
        <ele>876.86</ele>
        <time>2024-09-29T08:36:34Z</time>
      </trkpt>
      <trkpt lat="45.09299" lon="3.6166">
        <ele>873.98</ele>
        <time>2024-09-29T08:36:14Z</time>
      </trkpt>
      <trkpt lat="45.09327" lon="3.61664">
        <ele>871.09</ele>
        <time>2024-09-29T08:35:58Z</time>
      </trkpt>
      <trkpt lat="45.09341" lon="3.61664">
        <ele>866.29</ele>
        <time>2024-09-29T08:35:46Z</time>
      </trkpt>
      <trkpt lat="45.09354" lon="3.61686">
        <ele>863.88</ele>
        <time>2024-09-29T08:35:30Z</time>
      </trkpt>
      <trkpt lat="45.09373" lon="3.61714">
        <ele>862.92</ele>
        <time>2024-09-29T08:35:11Z</time>
      </trkpt>
      <trkpt lat="45.09388" lon="3.61741">
        <ele>862.92</ele>
        <time>2024-09-29T08:34:59Z</time>
      </trkpt>
      <trkpt lat="45.09411" lon="3.61766">
        <ele>864.36</ele>
        <time>2024-09-29T08:34:49Z</time>
      </trkpt>
      <trkpt lat="45.09413" lon="3.61766">
        <ele>864.36</ele>
        <time>2024-09-29T08:34:48Z</time>
      </trkpt>
      <trkpt lat="45.09414" lon="3.61767">
        <ele>864.36</ele>
        <time>2024-09-29T08:34:47Z</time>
      </trkpt>
      <trkpt lat="45.09415" lon="3.61767">
        <ele>864.36</ele>
        <time>2024-09-29T08:34:46Z</time>
      </trkpt>
      <trkpt lat="45.09417" lon="3.61767">
        <ele>864.36</ele>
        <time>2024-09-29T08:34:45Z</time>
      </trkpt>
      <trkpt lat="45.09424" lon="3.61776">
        <ele>865.8</ele>
        <time>2024-09-29T08:34:39Z</time>
      </trkpt>
      <trkpt lat="45.09436" lon="3.61806">
        <ele>871.09</ele>
        <time>2024-09-29T08:34:21Z</time>
      </trkpt>
      <trkpt lat="45.09452" lon="3.61827">
        <ele>873.01</ele>
        <time>2024-09-29T08:34:02Z</time>
      </trkpt>
      <trkpt lat="45.09459" lon="3.61855">
        <ele>874.94</ele>
        <time>2024-09-29T08:33:47Z</time>
      </trkpt>
      <trkpt lat="45.09462" lon="3.61879">
        <ele>876.38</ele>
        <time>2024-09-29T08:33:34Z</time>
      </trkpt>
      <trkpt lat="45.09471" lon="3.61916">
        <ele>874.94</ele>
        <time>2024-09-29T08:33:20Z</time>
      </trkpt>
      <trkpt lat="45.0949" lon="3.61952">
        <ele>874.46</ele>
        <time>2024-09-29T08:32:59Z</time>
      </trkpt>
      <trkpt lat="45.09502" lon="3.61978">
        <ele>875.42</ele>
        <time>2024-09-29T08:32:46Z</time>
      </trkpt>
      <trkpt lat="45.09504" lon="3.61981">
        <ele>875.9</ele>
        <time>2024-09-29T08:32:45Z</time>
      </trkpt>
      <trkpt lat="45.09506" lon="3.61984">
        <ele>875.9</ele>
        <time>2024-09-29T08:32:44Z</time>
      </trkpt>
      <trkpt lat="45.09508" lon="3.61987">
        <ele>875.9</ele>
        <time>2024-09-29T08:32:43Z</time>
      </trkpt>
      <trkpt lat="45.0951" lon="3.61989">
        <ele>875.9</ele>
        <time>2024-09-29T08:32:42Z</time>
      </trkpt>
      <trkpt lat="45.09513" lon="3.61988">
        <ele>876.38</ele>
        <time>2024-09-29T08:32:40Z</time>
      </trkpt>
      <trkpt lat="45.09533" lon="3.61954">
        <ele>874.94</ele>
        <time>2024-09-29T08:32:20Z</time>
      </trkpt>
      <trkpt lat="45.0955" lon="3.61917">
        <ele>874.94</ele>
        <time>2024-09-29T08:31:58Z</time>
      </trkpt>
      <trkpt lat="45.09559" lon="3.61913">
        <ele>875.9</ele>
        <time>2024-09-29T08:31:51Z</time>
      </trkpt>
      <trkpt lat="45.09571" lon="3.6193">
        <ele>876.38</ele>
        <time>2024-09-29T08:31:37Z</time>
      </trkpt>
      <trkpt lat="45.09575" lon="3.61948">
        <ele>875.42</ele>
        <time>2024-09-29T08:31:23Z</time>
      </trkpt>
      <trkpt lat="45.0957" lon="3.61949">
        <ele>873.5</ele>
        <time>2024-09-29T08:30:56Z</time>
      </trkpt>
      <trkpt lat="45.09571" lon="3.61969">
        <ele>875.9</ele>
        <time>2024-09-29T08:30:37Z</time>
      </trkpt>
      <trkpt lat="45.09571" lon="3.61971">
        <ele>875.9</ele>
        <time>2024-09-29T08:30:35Z</time>
      </trkpt>
      <trkpt lat="45.09573" lon="3.6197">
        <ele>875.9</ele>
        <time>2024-09-29T08:30:16Z</time>
      </trkpt>
      <trkpt lat="45.09574" lon="3.61968">
        <ele>875.9</ele>
        <time>2024-09-29T08:29:57Z</time>
      </trkpt>
      <trkpt lat="45.0957" lon="3.61959">
        <ele>875.9</ele>
        <time>2024-09-29T08:29:40Z</time>
      </trkpt>
      <trkpt lat="45.09567" lon="3.61932">
        <ele>875.9</ele>
        <time>2024-09-29T08:29:21Z</time>
      </trkpt>
      <trkpt lat="45.09564" lon="3.61923">
        <ele>875.9</ele>
        <time>2024-09-29T08:29:15Z</time>
      </trkpt>
      <trkpt lat="45.09563" lon="3.61918">
        <ele>875.9</ele>
        <time>2024-09-29T08:29:03Z</time>
      </trkpt>
      <trkpt lat="45.0958" lon="3.61929">
        <ele>870.4</ele>
      </trkpt>
      <trkpt lat="45.09586" lon="3.61936">
        <ele>870.4</ele>
      </trkpt>
      <trkpt lat="45.09593" lon="3.6194">
        <ele>870.5</ele>
      </trkpt>
      <trkpt lat="45.09614" lon="3.61948">
        <ele>871.1</ele>
      </trkpt>
      <trkpt lat="45.09626" lon="3.61955">
        <ele>871.3</ele>
      </trkpt>
      <trkpt lat="45.09627" lon="3.61956">
        <ele>871.3</ele>
        <extensions>
          <visugpx:TrkExtension xmlns:visugpx="https://www.visugpx.com/editgpx/">
            <visugpx:node>8</visugpx:node>
            </visugpx:TrkExtension>
        </extensions>
      </trkpt>
      <trkpt lat="45.09633" lon="3.61961">
        <ele>871.3</ele>
      </trkpt>
      <trkpt lat="45.09647" lon="3.61979">
        <ele>871.2</ele>
      </trkpt>
      <trkpt lat="45.09662" lon="3.61997">
        <ele>871.1</ele>
      </trkpt>
      <trkpt lat="45.09666" lon="3.61996">
        <ele>871.1</ele>
      </trkpt>
      <trkpt lat="45.09667" lon="3.61995">
        <ele>871.2</ele>
        <extensions>
          <visugpx:TrkExtension xmlns:visugpx="https://www.visugpx.com/editgpx/">
            <visugpx:node>9</visugpx:node>
            </visugpx:TrkExtension>
        </extensions>
      </trkpt>
      <trkpt lat="45.09674" lon="3.61991">
        <ele>871.6</ele>
      </trkpt>
      <trkpt lat="45.09681" lon="3.61983">
        <ele>872.1</ele>
      </trkpt>
      <trkpt lat="45.0969" lon="3.61971">
        <ele>872.8</ele>
      </trkpt>
      <trkpt lat="45.097" lon="3.61953">
        <ele>873.1</ele>
      </trkpt>
      <trkpt lat="45.0971" lon="3.61932">
        <ele>873.8</ele>
      </trkpt>
      <trkpt lat="45.09722" lon="3.61911">
        <ele>874</ele>
      </trkpt>
      <trkpt lat="45.09728" lon="3.61899">
        <ele>874.1</ele>
      </trkpt>
      <trkpt lat="45.0973" lon="3.61892">
        <ele>874.2</ele>
        <extensions>
          <visugpx:TrkExtension xmlns:visugpx="https://www.visugpx.com/editgpx/">
            <visugpx:node>10</visugpx:node>
            </visugpx:TrkExtension>
        </extensions>
      </trkpt>
      <trkpt lat="45.09736" lon="3.61872">
        <ele>874.8</ele>
      </trkpt>
      <trkpt lat="45.0974" lon="3.61858">
        <ele>875.2</ele>
      </trkpt>
      <trkpt lat="45.09734" lon="3.61853">
        <ele>874.7</ele>
      </trkpt>
      <trkpt lat="45.09724" lon="3.61844">
        <ele>874.1</ele>
      </trkpt>
      <trkpt lat="45.09713" lon="3.6183">
        <ele>873.7</ele>
      </trkpt>
      <trkpt lat="45.09704" lon="3.61817">
        <ele>873.3</ele>
      </trkpt>
      <trkpt lat="45.09698" lon="3.61808">
        <ele>873.1</ele>
        <extensions>
          <visugpx:TrkExtension xmlns:visugpx="https://www.visugpx.com/editgpx/">
            <visugpx:node>11</visugpx:node>
            </visugpx:TrkExtension>
        </extensions>
      </trkpt>
    </trkseg>
  </trk>
</gpx>